PWSweather.com
Personal Weather Stations
Station Observations
DL5ARK
SonnebergDE

SonnebergDE

Lat: 50.34904861, Lon: 11.18112087

Elevation: 1214

Station Type: Selfmade

http://www.sumbarg.de

High Low Average
Temperature 42.5°F5.8°C 34.1°F1.2°C 40.4°F4.7°C
Dew Point 46.1°F7.8°C 35.9°F2.2°C 43.9°F6.6°C
Winds 11.9 mph 19.2 kmh Calm Calm 3.0 mph WNW4.8 kmh WNW
Wind Gusts 11.9 mph19.2 kmh -- 3.0 mph4.8 kmh
Humidity 92% 78% 89%
Pressure 30.43 in1030.5 mb 30.10 in1019.3 mb -
Precipitation 0.22 in5.6 mm - -
Hour Temp Dew Point Humidity Winds Wind Gusts Pressure Precip Precip Rate Daily Precip Total
12:01 AM 41.5°F5.3°C 45.8°F7.7°C 91% Calm Calm -- 30.43 in1030.5 mb 0.00 in0.0 mm 0.00 in0.0 mm 0.00 in0.0 mm
12:04 AM 41.3°F5.2°C 45.8°F7.7°C 91% Calm Calm -- 30.43 in1030.5 mb 0.00 in0.0 mm 0.00 in0.0 mm 0.00 in0.0 mm
12:05 AM 41.3°F5.2°C 45.9°F7.7°C 91% Calm Calm -- 30.43 in1030.5 mb 0.00 in0.0 mm 0.00 in0.0 mm 0.00 in0.0 mm
12:07 AM 41.3°F5.2°C 45.8°F7.7°C 92% Calm Calm -- 30.43 in1030.5 mb 0.00 in0.0 mm 0.00 in0.0 mm 0.00 in0.0 mm
12:08 AM 41.5°F5.3°C 46.0°F7.8°C 91% Calm Calm -- 30.43 in1030.5 mb 0.00 in0.0 mm 0.00 in0.0 mm 0.00 in0.0 mm
12:10 AM 41.3°F5.2°C 45.8°F7.7°C 91% Calm Calm -- 30.43 in1030.5 mb 0.00 in0.0 mm 0.00 in0.0 mm 0.00 in0.0 mm
12:13 AM 41.3°F5.2°C 45.9°F7.7°C 91% Calm Calm -- 30.43 in1030.5 mb 0.00 in0.0 mm 0.00 in0.0 mm 0.00 in0.0 mm
12:14 AM 41.3°F5.2°C 45.7°F7.6°C 91% Calm Calm -- 30.43 in1030.5 mb 0.00 in0.0 mm 0.00 in0.0 mm 0.00 in0.0 mm
12:16 AM 41.3°F5.2°C 45.7°F7.6°C 91% Calm Calm -- 30.43 in1030.5 mb 0.00 in0.0 mm 0.00 in0.0 mm 0.00 in0.0 mm
12:19 AM 41.2°F5.1°C 45.8°F7.7°C 91% Calm Calm -- 30.43 in1030.5 mb 0.00 in0.0 mm 0.00 in0.0 mm 0.00 in0.0 mm
12:20 AM 41.2°F5.1°C 45.8°F7.7°C 91% Calm Calm -- 30.43 in1030.5 mb 0.00 in0.0 mm 0.00 in0.0 mm 0.00 in0.0 mm
12:22 AM 41.2°F5.1°C 45.5°F7.5°C 91% Calm Calm -- 30.42 in1030.1 mb 0.00 in0.0 mm 0.00 in0.0 mm 0.00 in0.0 mm
12:23 AM 41.2°F5.1°C 45.5°F7.5°C 91% Calm Calm -- 30.43 in1030.5 mb 0.00 in0.0 mm 0.00 in0.0 mm 0.00 in0.0 mm
12:25 AM 41.2°F5.1°C 45.6°F7.6°C 91% Calm Calm -- 30.42 in1030.1 mb 0.00 in0.0 mm 0.00 in0.0 mm 0.00 in0.0 mm
12:28 AM 41.2°F5.1°C 45.9°F7.7°C 92% Calm Calm -- 30.43 in1030.5 mb 0.00 in0.0 mm 0.00 in0.0 mm 0.00 in0.0 mm
12:29 AM 41.2°F5.1°C 45.5°F7.5°C 91% Calm Calm -- 30.43 in1030.5 mb 0.00 in0.0 mm 0.00 in0.0 mm 0.00 in0.0 mm
12:31 AM 41.3°F5.2°C 45.7°F7.6°C 91% Calm Calm -- 30.43 in1030.5 mb 0.00 in0.0 mm 0.00 in0.0 mm 0.00 in0.0 mm
12:32 AM 41.2°F5.1°C 45.6°F7.6°C 91% Calm Calm -- 30.43 in1030.5 mb 0.00 in0.0 mm 0.00 in0.0 mm 0.00 in0.0 mm
12:34 AM 41.2°F5.1°C 45.6°F7.6°C 91% Calm Calm -- 30.43 in1030.5 mb 0.00 in0.0 mm 0.00 in0.0 mm 0.00 in0.0 mm
12:35 AM 41.3°F5.2°C 45.5°F7.5°C 91% Calm Calm -- 30.42 in1030.1 mb 0.00 in0.0 mm 0.00 in0.0 mm 0.00 in0.0 mm
12:37 AM 41.2°F5.1°C 45.8°F7.7°C 91% Calm Calm -- 30.42 in1030.1 mb 0.00 in0.0 mm 0.00 in0.0 mm 0.00 in0.0 mm
12:38 AM 41.2°F5.1°C 45.8°F7.7°C 91% Calm Calm -- 30.42 in1030.1 mb 0.00 in0.0 mm 0.00 in0.0 mm 0.00 in0.0 mm
12:40 AM 41.2°F5.1°C 45.9°F7.7°C 91% Calm Calm -- 30.42 in1030.1 mb 0.00 in0.0 mm 0.00 in0.0 mm 0.00 in0.0 mm
12:41 AM 41.2°F5.1°C 45.7°F7.6°C 91% Calm Calm -- 30.42 in1030.1 mb 0.00 in0.0 mm 0.00 in0.0 mm 0.00 in0.0 mm
12:43 AM 41.2°F5.1°C 45.8°F7.7°C 91% Calm Calm -- 30.42 in1030.1 mb 0.00 in0.0 mm 0.00 in0.0 mm 0.00 in0.0 mm
12:46 AM 41.3°F5.2°C 45.8°F7.7°C 91% Calm Calm -- 30.42 in1030.1 mb 0.00 in0.0 mm 0.00 in0.0 mm 0.00 in0.0 mm
12:47 AM 41.3°F5.2°C 45.8°F7.7°C 91% Calm Calm -- 30.42 in1030.1 mb 0.00 in0.0 mm 0.00 in0.0 mm 0.00 in0.0 mm
12:49 AM 41.3°F5.2°C 45.6°F7.6°C 91% Calm Calm -- 30.42 in1030.1 mb 0.00 in0.0 mm 0.00 in0.0 mm 0.00 in0.0 mm
12:50 AM 41.3°F5.2°C 45.6°F7.6°C 91% Calm Calm -- 30.42 in1030.1 mb 0.00 in0.0 mm 0.00 in0.0 mm 0.00 in0.0 mm
12:52 AM 41.3°F5.2°C 45.6°F7.6°C 91% Calm Calm -- 30.42 in1030.1 mb 0.00 in0.0 mm 0.00 in0.0 mm 0.00 in0.0 mm
12:53 AM 41.5°F5.3°C 45.6°F7.6°C 91% Calm Calm -- 30.42 in1030.1 mb 0.00 in0.0 mm 0.00 in0.0 mm 0.00 in0.0 mm
12:55 AM 41.3°F5.2°C 45.8°F7.7°C 91% Calm Calm -- 30.42 in1030.1 mb 0.00 in0.0 mm 0.00 in0.0 mm 0.00 in0.0 mm
12:56 AM 41.3°F5.2°C 45.6°F7.6°C 91% Calm Calm -- 30.42 in1030.1 mb 0.00 in0.0 mm 0.00 in0.0 mm 0.00 in0.0 mm
12:58 AM 41.2°F5.1°C 45.9°F7.7°C 91% Calm Calm -- 30.42 in1030.1 mb 0.00 in0.0 mm 0.00 in0.0 mm 0.00 in0.0 mm
12:59 AM 41.3°F5.2°C 45.7°F7.6°C 92% Calm Calm -- 30.42 in1030.1 mb 0.00 in0.0 mm 0.00 in0.0 mm 0.00 in0.0 mm
01:01 AM 41.3°F5.2°C 45.8°F7.7°C 91% Calm Calm -- 30.41 in1029.8 mb 0.00 in0.0 mm 0.00 in0.0 mm 0.00 in0.0 mm
01:02 AM 41.3°F5.2°C 45.8°F7.7°C 91% 0.2 mph W0.3 kmh W 0.2 mph0.3 kmh 30.42 in1030.1 mb 0.00 in0.0 mm 0.00 in0.0 mm 0.00 in0.0 mm
01:04 AM 41.2°F5.1°C 45.7°F7.6°C 92% Calm Calm -- 30.42 in1030.1 mb 0.00 in0.0 mm 0.00 in0.0 mm 0.00 in0.0 mm
01:05 AM 41.2°F5.1°C 45.5°F7.5°C 91% Calm Calm -- 30.42 in1030.1 mb 0.00 in0.0 mm 0.00 in0.0 mm 0.00 in0.0 mm
01:07 AM 41.2°F5.1°C 45.9°F7.7°C 91% Calm Calm -- 30.41 in1029.8 mb 0.00 in0.0 mm 0.00 in0.0 mm 0.00 in0.0 mm
01:10 AM 41.2°F5.1°C 45.7°F7.6°C 91% Calm Calm -- 30.41 in1029.8 mb 0.00 in0.0 mm 0.00 in0.0 mm 0.00 in0.0 mm
01:11 AM 41.2°F5.1°C 45.8°F7.7°C 91% Calm Calm -- 30.41 in1029.8 mb 0.00 in0.0 mm 0.00 in0.0 mm 0.00 in0.0 mm
01:13 AM 41.3°F5.2°C 45.7°F7.6°C 91% Calm Calm -- 30.41 in1029.8 mb 0.00 in0.0 mm 0.00 in0.0 mm 0.00 in0.0 mm
01:16 AM 41.3°F5.2°C 45.7°F7.6°C 91% Calm Calm -- 30.40 in1029.5 mb 0.00 in0.0 mm 0.00 in0.0 mm 0.00 in0.0 mm
01:17 AM 41.3°F5.2°C 45.8°F7.7°C 91% Calm Calm -- 30.41 in1029.8 mb 0.00 in0.0 mm 0.00 in0.0 mm 0.00 in0.0 mm
01:19 AM 41.3°F5.2°C 45.8°F7.7°C 91% Calm Calm -- 30.40 in1029.5 mb 0.00 in0.0 mm 0.00 in0.0 mm 0.00 in0.0 mm
01:22 AM 41.3°F5.2°C 45.7°F7.6°C 92% Calm Calm -- 30.40 in1029.5 mb 0.00 in0.0 mm 0.00 in0.0 mm 0.00 in0.0 mm
01:23 AM 41.3°F5.2°C 45.6°F7.6°C 91% Calm Calm -- 30.40 in1029.5 mb 0.00 in0.0 mm 0.00 in0.0 mm 0.00 in0.0 mm
01:25 AM 41.5°F5.3°C 46.0°F7.8°C 92% Calm Calm -- 30.40 in1029.5 mb 0.00 in0.0 mm 0.00 in0.0 mm 0.00 in0.0 mm
01:28 AM 41.5°F5.3°C 45.9°F7.7°C 91% Calm Calm -- 30.40 in1029.5 mb 0.00 in0.0 mm 0.00 in0.0 mm 0.00 in0.0 mm
01:31 AM 41.5°F5.3°C 45.7°F7.6°C 91% Calm Calm -- 30.40 in1029.5 mb 0.00 in0.0 mm 0.00 in0.0 mm 0.00 in0.0 mm
01:32 AM 41.5°F5.3°C 45.9°F7.7°C 91% Calm Calm -- 30.40 in1029.5 mb 0.00 in0.0 mm 0.00 in0.0 mm 0.00 in0.0 mm
01:34 AM 41.6°F5.3°C 45.6°F7.6°C 90% Calm Calm -- 30.40 in1029.5 mb 0.00 in0.0 mm 0.00 in0.0 mm 0.00 in0.0 mm
01:35 AM 41.6°F5.3°C 45.4°F7.4°C 90% Calm Calm -- 30.40 in1029.5 mb 0.00 in0.0 mm 0.00 in0.0 mm 0.00 in0.0 mm
01:37 AM 41.5°F5.3°C 45.9°F7.7°C 92% Calm Calm -- 30.40 in1029.5 mb 0.00 in0.0 mm 0.00 in0.0 mm 0.00 in0.0 mm
01:38 AM 41.5°F5.3°C 45.7°F7.6°C 91% Calm Calm -- 30.40 in1029.5 mb 0.00 in0.0 mm 0.00 in0.0 mm 0.00 in0.0 mm
01:40 AM 41.5°F5.3°C 45.9°F7.7°C 91% Calm Calm -- 30.40 in1029.5 mb 0.00 in0.0 mm 0.00 in0.0 mm 0.00 in0.0 mm
01:41 AM 41.3°F5.2°C 45.6°F7.6°C 91% Calm Calm -- 30.40 in1029.5 mb 0.00 in0.0 mm 0.00 in0.0 mm 0.00 in0.0 mm
01:43 AM 41.5°F5.3°C 45.8°F7.7°C 91% Calm Calm -- 30.40 in1029.5 mb 0.00 in0.0 mm 0.00 in0.0 mm 0.00 in0.0 mm
01:44 AM 41.5°F5.3°C 45.9°F7.7°C 92% Calm Calm -- 30.40 in1029.5 mb 0.00 in0.0 mm 0.00 in0.0 mm 0.00 in0.0 mm
01:46 AM 41.6°F5.3°C 45.4°F7.4°C 90% 0.4 mph NW0.6 kmh NW 0.4 mph0.6 kmh 30.40 in1029.5 mb 0.00 in0.0 mm 0.00 in0.0 mm 0.00 in0.0 mm
01:49 AM 41.6°F5.3°C 45.9°F7.7°C 92% Calm Calm -- 30.40 in1029.5 mb 0.00 in0.0 mm 0.00 in0.0 mm 0.00 in0.0 mm
01:50 AM 41.6°F5.3°C 46.0°F7.8°C 92% Calm Calm -- 30.40 in1029.5 mb 0.00 in0.0 mm 0.00 in0.0 mm 0.00 in0.0 mm
01:52 AM 41.6°F5.3°C 45.8°F7.7°C 91% Calm Calm -- 30.40 in1029.5 mb 0.00 in0.0 mm 0.00 in0.0 mm 0.00 in0.0 mm
01:55 AM 41.6°F5.3°C 46.0°F7.8°C 92% Calm Calm -- 30.40 in1029.5 mb 0.00 in0.0 mm 0.00 in0.0 mm 0.00 in0.0 mm
01:56 AM 41.6°F5.3°C 45.8°F7.7°C 92% Calm Calm -- 30.40 in1029.5 mb 0.00 in0.0 mm 0.00 in0.0 mm 0.00 in0.0 mm
01:58 AM 41.5°F5.3°C 45.6°F7.6°C 91% Calm Calm -- 30.40 in1029.5 mb 0.00 in0.0 mm 0.00 in0.0 mm 0.00 in0.0 mm
01:59 AM 41.6°F5.3°C 45.8°F7.7°C 92% Calm Calm -- 30.40 in1029.5 mb 0.00 in0.0 mm 0.00 in0.0 mm 0.00 in0.0 mm
02:01 AM 41.6°F5.3°C 46.0°F7.8°C 92% 0.8 mph NW1.3 kmh NW 0.8 mph1.3 kmh 30.39 in1029.1 mb 0.00 in0.0 mm 0.00 in0.0 mm 0.00 in0.0 mm
02:02 AM 41.6°F5.3°C 46.0°F7.8°C 92% 0.7 mph NNW1.1 kmh NNW 0.8 mph1.3 kmh 30.40 in1029.5 mb 0.00 in0.0 mm 0.00 in0.0 mm 0.00 in0.0 mm
02:04 AM 41.6°F5.3°C 45.6°F7.6°C 92% 0.8 mph NW1.3 kmh NW 0.8 mph1.3 kmh 30.40 in1029.5 mb 0.00 in0.0 mm 0.00 in0.0 mm 0.00 in0.0 mm
02:05 AM 41.6°F5.3°C 45.9°F7.7°C 92% 0.5 mph NW0.8 kmh NW 0.5 mph0.8 kmh 30.40 in1029.5 mb 0.00 in0.0 mm 0.00 in0.0 mm 0.00 in0.0 mm
02:07 AM 41.6°F5.3°C 45.9°F7.7°C 91% 0.8 mph NW1.3 kmh NW 0.8 mph1.3 kmh 30.39 in1029.1 mb 0.00 in0.0 mm 0.00 in0.0 mm 0.00 in0.0 mm
02:08 AM 41.6°F5.3°C 45.6°F7.6°C 92% 0.7 mph NW1.1 kmh NW 0.8 mph1.3 kmh 30.39 in1029.1 mb 0.00 in0.0 mm 0.00 in0.0 mm 0.00 in0.0 mm
02:10 AM 41.6°F5.3°C 46.0°F7.8°C 92% Calm Calm -- 30.39 in1029.1 mb 0.00 in0.0 mm 0.00 in0.0 mm 0.00 in0.0 mm
02:11 AM 41.6°F5.3°C 45.8°F7.7°C 92% Calm Calm -- 30.39 in1029.1 mb 0.00 in0.0 mm 0.00 in0.0 mm 0.00 in0.0 mm
02:13 AM 41.6°F5.3°C 45.6°F7.6°C 91% Calm Calm -- 30.39 in1029.1 mb 0.00 in0.0 mm 0.00 in0.0 mm 0.00 in0.0 mm
02:14 AM 41.6°F5.3°C 45.9°F7.7°C 92% Calm Calm -- 30.39 in1029.1 mb 0.00 in0.0 mm 0.00 in0.0 mm 0.00 in0.0 mm
02:16 AM 41.6°F5.3°C 45.9°F7.7°C 92% Calm Calm -- 30.39 in1029.1 mb 0.00 in0.0 mm 0.00 in0.0 mm 0.00 in0.0 mm
02:17 AM 41.6°F5.3°C 46.0°F7.8°C 92% Calm Calm -- 30.39 in1029.1 mb 0.00 in0.0 mm 0.00 in0.0 mm 0.00 in0.0 mm
02:19 AM 41.5°F5.3°C 46.0°F7.8°C 92% Calm Calm -- 30.39 in1029.1 mb 0.00 in0.0 mm 0.00 in0.0 mm 0.00 in0.0 mm
02:20 AM 41.5°F5.3°C 45.8°F7.7°C 92% Calm Calm -- 30.39 in1029.1 mb 0.00 in0.0 mm 0.00 in0.0 mm 0.00 in0.0 mm
02:22 AM 41.5°F5.3°C 45.9°F7.7°C 91% Calm Calm -- 30.39 in1029.1 mb 0.00 in0.0 mm 0.00 in0.0 mm 0.00 in0.0 mm
02:23 AM 41.5°F5.3°C 45.5°F7.5°C 90% Calm Calm -- 30.39 in1029.1 mb 0.00 in0.0 mm 0.00 in0.0 mm 0.00 in0.0 mm
02:25 AM 41.5°F5.3°C 46.0°F7.8°C 92% Calm Calm -- 30.39 in1029.1 mb 0.00 in0.0 mm 0.00 in0.0 mm 0.00 in0.0 mm
02:26 AM 41.5°F5.3°C 45.8°F7.7°C 91% 0.5 mph NW0.8 kmh NW 0.5 mph0.8 kmh 30.39 in1029.1 mb 0.00 in0.0 mm 0.00 in0.0 mm 0.00 in0.0 mm
02:28 AM 41.5°F5.3°C 45.8°F7.7°C 92% Calm Calm -- 30.39 in1029.1 mb 0.00 in0.0 mm 0.00 in0.0 mm 0.00 in0.0 mm
02:29 AM 41.5°F5.3°C 45.4°F7.4°C 90% Calm Calm -- 30.39 in1029.1 mb 0.00 in0.0 mm 0.00 in0.0 mm 0.00 in0.0 mm
02:31 AM 41.5°F5.3°C 45.5°F7.5°C 91% 1.6 mph NNW2.6 kmh NNW 1.6 mph2.6 kmh 30.39 in1029.1 mb 0.00 in0.0 mm 0.00 in0.0 mm 0.00 in0.0 mm
02:32 AM 41.5°F5.3°C 46.0°F7.8°C 92% 1.1 mph NNW1.8 kmh NNW 1.2 mph1.9 kmh 30.39 in1029.1 mb 0.00 in0.0 mm 0.00 in0.0 mm 0.00 in0.0 mm
02:34 AM 41.5°F5.3°C 45.5°F7.5°C 91% Calm Calm -- 30.39 in1029.1 mb 0.00 in0.0 mm 0.00 in0.0 mm 0.00 in0.0 mm
02:35 AM 41.5°F5.3°C 45.7°F7.6°C 91% Calm Calm -- 30.39 in1029.1 mb 0.00 in0.0 mm 0.00 in0.0 mm 0.00 in0.0 mm
02:37 AM 41.6°F5.3°C 45.7°F7.6°C 92% 2.4 mph NW3.9 kmh NW 2.4 mph3.9 kmh 30.38 in1028.8 mb 0.00 in0.0 mm 0.00 in0.0 mm 0.00 in0.0 mm
02:40 AM 41.5°F5.3°C 46.0°F7.8°C 92% 1.2 mph NNW1.9 kmh NNW 1.2 mph1.9 kmh 30.39 in1029.1 mb 0.00 in0.0 mm 0.00 in0.0 mm 0.00 in0.0 mm
02:41 AM 41.6°F5.3°C 45.7°F7.6°C 92% 1.1 mph W1.8 kmh W 1.1 mph1.8 kmh 30.38 in1028.8 mb 0.00 in0.0 mm 0.00 in0.0 mm 0.00 in0.0 mm
02:46 AM 41.6°F5.3°C 45.9°F7.7°C 92% 3.0 mph WNW4.8 kmh WNW 3.0 mph4.8 kmh 30.38 in1028.8 mb 0.00 in0.0 mm 0.00 in0.0 mm 0.00 in0.0 mm
02:47 AM 41.6°F5.3°C 45.9°F7.7°C 92% 2.0 mph W3.2 kmh W 2.2 mph3.5 kmh 30.38 in1028.8 mb 0.00 in0.0 mm 0.00 in0.0 mm 0.00 in0.0 mm
02:49 AM 41.6°F5.3°C 45.5°F7.5°C 90% 3.6 mph NNW5.8 kmh NNW 3.7 mph6.0 kmh 30.38 in1028.8 mb 0.00 in0.0 mm 0.00 in0.0 mm 0.00 in0.0 mm
02:50 AM 41.6°F5.3°C 45.7°F7.6°C 92% 4.0 mph W6.4 kmh W 4.0 mph6.4 kmh 30.38 in1028.8 mb 0.00 in0.0 mm 0.00 in0.0 mm 0.00 in0.0 mm
02:52 AM 41.6°F5.3°C 45.9°F7.7°C 92% 1.6 mph W2.6 kmh W 1.6 mph2.6 kmh 30.37 in1028.4 mb 0.00 in0.0 mm 0.00 in0.0 mm 0.00 in0.0 mm
02:53 AM 41.6°F5.3°C 45.8°F7.7°C 92% 1.8 mph WSW2.9 kmh WSW 1.8 mph2.9 kmh 30.37 in1028.4 mb 0.00 in0.0 mm 0.00 in0.0 mm 0.00 in0.0 mm
02:55 AM 41.5°F5.3°C 45.5°F7.5°C 91% 2.4 mph WNW3.9 kmh WNW 2.4 mph3.9 kmh 30.37 in1028.4 mb 0.00 in0.0 mm 0.00 in0.0 mm 0.00 in0.0 mm
02:56 AM 41.5°F5.3°C 45.6°F7.6°C 91% 2.7 mph WNW4.3 kmh WNW 2.7 mph4.3 kmh 30.37 in1028.4 mb 0.00 in0.0 mm 0.00 in0.0 mm 0.00 in0.0 mm
02:58 AM 41.5°F5.3°C 45.5°F7.5°C 91% 3.6 mph W5.8 kmh W 3.6 mph5.8 kmh 30.37 in1028.4 mb 0.00 in0.0 mm 0.00 in0.0 mm 0.00 in0.0 mm
03:01 AM 41.5°F5.3°C 46.0°F7.8°C 92% 2.0 mph W3.2 kmh W 2.0 mph3.2 kmh 30.37 in1028.4 mb 0.00 in0.0 mm 0.00 in0.0 mm 0.00 in0.0 mm
03:04 AM 41.6°F5.3°C 45.8°F7.7°C 92% 1.9 mph NNW3.1 kmh NNW 2.0 mph3.2 kmh 30.37 in1028.4 mb 0.00 in0.0 mm 0.00 in0.0 mm 0.00 in0.0 mm
03:05 AM 41.5°F5.3°C 45.7°F7.6°C 92% 2.9 mph WNW4.7 kmh WNW 2.9 mph4.7 kmh 30.37 in1028.4 mb 0.00 in0.0 mm 0.00 in0.0 mm 0.00 in0.0 mm
03:07 AM 41.5°F5.3°C 45.8°F7.7°C 92% 5.3 mph WSW8.5 kmh WSW 5.3 mph8.5 kmh 30.37 in1028.4 mb 0.00 in0.0 mm 0.00 in0.0 mm 0.00 in0.0 mm
03:08 AM 41.6°F5.3°C 45.5°F7.5°C 91% 4.6 mph SW7.4 kmh SW 4.7 mph7.6 kmh 30.37 in1028.4 mb 0.00 in0.0 mm 0.00 in0.0 mm 0.00 in0.0 mm
03:10 AM 41.6°F5.3°C 46.1°F7.8°C 92% 3.2 mph W5.1 kmh W 3.2 mph5.1 kmh 30.36 in1028.1 mb 0.00 in0.0 mm 0.00 in0.0 mm 0.00 in0.0 mm
03:13 AM 41.5°F5.3°C 45.7°F7.6°C 92% 4.0 mph NNW6.4 kmh NNW 4.0 mph6.4 kmh 30.37 in1028.4 mb 0.00 in0.0 mm 0.00 in0.0 mm 0.00 in0.0 mm
03:16 AM 41.5°F5.3°C 45.7°F7.6°C 92% 2.8 mph W4.5 kmh W 2.9 mph4.7 kmh 30.36 in1028.1 mb 0.00 in0.0 mm 0.00 in0.0 mm 0.00 in0.0 mm
03:17 AM 41.6°F5.3°C 46.1°F7.8°C 92% 3.0 mph W4.8 kmh W 3.0 mph4.8 kmh 30.37 in1028.4 mb 0.00 in0.0 mm 0.00 in0.0 mm 0.00 in0.0 mm
03:19 AM 41.5°F5.3°C 45.7°F7.6°C 92% 0.4 mph NW0.6 kmh NW 0.4 mph0.6 kmh 30.37 in1028.4 mb 0.00 in0.0 mm 0.00 in0.0 mm 0.00 in0.0 mm
03:20 AM 41.6°F5.3°C 45.9°F7.7°C 92% 0.2 mph NW0.3 kmh NW 0.2 mph0.3 kmh 30.36 in1028.1 mb 0.00 in0.0 mm 0.00 in0.0 mm 0.00 in0.0 mm
03:22 AM 41.6°F5.3°C 45.8°F7.7°C 92% 1.6 mph NW2.6 kmh NW 1.6 mph2.6 kmh 30.37 in1028.4 mb 0.00 in0.0 mm 0.00 in0.0 mm 0.00 in0.0 mm
03:23 AM 41.6°F5.3°C 45.8°F7.7°C 92% 0.9 mph W1.4 kmh W 1.0 mph1.6 kmh 30.37 in1028.4 mb 0.00 in0.0 mm 0.00 in0.0 mm 0.00 in0.0 mm
03:25 AM 41.3°F5.2°C 46.0°F7.8°C 92% 2.4 mph WSW3.9 kmh WSW 2.4 mph3.9 kmh 30.36 in1028.1 mb 0.00 in0.0 mm 0.00 in0.0 mm 0.00 in0.0 mm
03:26 AM 41.5°F5.3°C 45.7°F7.6°C 92% 1.6 mph W2.6 kmh W 1.9 mph3.1 kmh 30.36 in1028.1 mb 0.00 in0.0 mm 0.00 in0.0 mm 0.00 in0.0 mm
03:28 AM 41.5°F5.3°C 45.7°F7.6°C 92% 4.4 mph NNW7.1 kmh NNW 4.5 mph7.2 kmh 30.36 in1028.1 mb 0.00 in0.0 mm 0.00 in0.0 mm 0.00 in0.0 mm
03:29 AM 41.3°F5.2°C 46.0°F7.8°C 92% 3.0 mph W4.8 kmh W 3.0 mph4.8 kmh 30.36 in1028.1 mb 0.00 in0.0 mm 0.00 in0.0 mm 0.00 in0.0 mm
03:31 AM 41.3°F5.2°C 45.4°F7.4°C 90% 2.8 mph W4.5 kmh W 2.8 mph4.5 kmh 30.36 in1028.1 mb 0.00 in0.0 mm 0.00 in0.0 mm 0.00 in0.0 mm
03:32 AM 41.3°F5.2°C 45.3°F7.4°C 90% 2.6 mph SW4.2 kmh SW 2.6 mph4.2 kmh 30.36 in1028.1 mb 0.00 in0.0 mm 0.00 in0.0 mm 0.00 in0.0 mm
03:34 AM 41.5°F5.3°C 45.4°F7.4°C 90% Calm Calm -- 30.36 in1028.1 mb 0.00 in0.0 mm 0.00 in0.0 mm 0.00 in0.0 mm
03:35 AM 41.5°F5.3°C 45.7°F7.6°C 92% Calm Calm -- 30.36 in1028.1 mb 0.00 in0.0 mm 0.00 in0.0 mm 0.00 in0.0 mm
03:37 AM 41.5°F5.3°C 45.5°F7.5°C 91% 4.4 mph NNW7.1 kmh NNW 4.4 mph7.1 kmh 30.36 in1028.1 mb 0.00 in0.0 mm 0.00 in0.0 mm 0.00 in0.0 mm
03:38 AM 41.5°F5.3°C 45.7°F7.6°C 92% 4.6 mph W7.4 kmh W 4.6 mph7.4 kmh 30.36 in1028.1 mb 0.00 in0.0 mm 0.00 in0.0 mm 0.00 in0.0 mm
03:40 AM 41.5°F5.3°C 45.8°F7.7°C 92% 4.4 mph NNW7.1 kmh NNW 4.5 mph7.2 kmh 30.36 in1028.1 mb 0.00 in0.0 mm 0.00 in0.0 mm 0.00 in0.0 mm
03:41 AM 41.5°F5.3°C 45.8°F7.7°C 92% 3.7 mph NNW6.0 kmh NNW 3.8 mph6.1 kmh 30.36 in1028.1 mb 0.00 in0.0 mm 0.00 in0.0 mm 0.00 in0.0 mm
03:43 AM 41.3°F5.2°C 45.8°F7.7°C 92% 4.4 mph WSW7.1 kmh WSW 4.5 mph7.2 kmh 30.36 in1028.1 mb 0.00 in0.0 mm 0.00 in0.0 mm 0.00 in0.0 mm
03:44 AM 41.3°F5.2°C 45.9°F7.7°C 92% 5.0 mph W8.0 kmh W 5.0 mph8.0 kmh 30.35 in1027.8 mb 0.00 in0.0 mm 0.00 in0.0 mm 0.00 in0.0 mm
03:46 AM 41.3°F5.2°C 45.7°F7.6°C 92% 4.0 mph W6.4 kmh W 4.1 mph6.6 kmh 30.34 in1027.4 mb 0.00 in0.0 mm 0.00 in0.0 mm 0.00 in0.0 mm
03:52 AM 41.3°F5.2°C 45.7°F7.6°C 92% 2.4 mph NNW3.9 kmh NNW 2.4 mph3.9 kmh 30.34 in1027.4 mb 0.00 in0.0 mm 0.00 in0.0 mm 0.00 in0.0 mm
03:53 AM 41.3°F5.2°C 45.8°F7.7°C 92% 1.4 mph WNW2.3 kmh WNW 1.5 mph2.4 kmh 30.34 in1027.4 mb 0.00 in0.0 mm 0.00 in0.0 mm 0.00 in0.0 mm
03:55 AM 41.3°F5.2°C 45.7°F7.6°C 92% 2.8 mph W4.5 kmh W 2.9 mph4.7 kmh 30.33 in1027.1 mb 0.00 in0.0 mm 0.00 in0.0 mm 0.00 in0.0 mm
03:56 AM 41.3°F5.2°C 45.8°F7.7°C 92% 3.2 mph WSW5.1 kmh WSW 3.2 mph5.1 kmh 30.34 in1027.4 mb 0.00 in0.0 mm 0.00 in0.0 mm 0.00 in0.0 mm
03:58 AM 41.3°F5.2°C 45.7°F7.6°C 92% 5.2 mph W8.4 kmh W 5.2 mph8.4 kmh 30.33 in1027.1 mb 0.00 in0.0 mm 0.00 in0.0 mm 0.00 in0.0 mm
03:59 AM 41.3°F5.2°C 45.5°F7.5°C 91% 6.9 mph W11.1 kmh W 7.1 mph11.4 kmh 30.34 in1027.4 mb 0.00 in0.0 mm 0.00 in0.0 mm 0.00 in0.0 mm
04:01 AM 41.3°F5.2°C 45.8°F7.7°C 92% 2.0 mph W3.2 kmh W 2.0 mph3.2 kmh 30.33 in1027.1 mb 0.00 in0.0 mm 0.00 in0.0 mm 0.00 in0.0 mm
04:04 AM 41.3°F5.2°C 45.9°F7.7°C 92% 2.0 mph WNW3.2 kmh WNW 2.0 mph3.2 kmh 30.33 in1027.1 mb 0.00 in0.0 mm 0.00 in0.0 mm 0.00 in0.0 mm
04:05 AM 41.3°F5.2°C 45.6°F7.6°C 91% 2.3 mph NW3.7 kmh NW 2.4 mph3.9 kmh 30.33 in1027.1 mb 0.00 in0.0 mm 0.00 in0.0 mm 0.00 in0.0 mm
04:07 AM 41.5°F5.3°C 45.7°F7.6°C 92% 2.4 mph NW3.9 kmh NW 2.4 mph3.9 kmh 30.33 in1027.1 mb 0.00 in0.0 mm 0.00 in0.0 mm 0.00 in0.0 mm
04:08 AM 41.5°F5.3°C 45.6°F7.6°C 92% 2.5 mph WNW4.0 kmh WNW 2.7 mph4.3 kmh 30.33 in1027.1 mb 0.00 in0.0 mm 0.00 in0.0 mm 0.00 in0.0 mm
04:10 AM 41.5°F5.3°C 45.1°F7.3°C 90% 1.2 mph WNW1.9 kmh WNW 1.2 mph1.9 kmh 30.33 in1027.1 mb 0.00 in0.0 mm 0.00 in0.0 mm 0.00 in0.0 mm
04:13 AM 41.5°F5.3°C 45.7°F7.6°C 92% 2.0 mph WNW3.2 kmh WNW 2.0 mph3.2 kmh 30.33 in1027.1 mb 0.00 in0.0 mm 0.00 in0.0 mm 0.00 in0.0 mm
04:14 AM 41.5°F5.3°C 45.7°F7.6°C 92% 1.2 mph WSW1.9 kmh WSW 1.2 mph1.9 kmh 30.33 in1027.1 mb 0.00 in0.0 mm 0.00 in0.0 mm 0.00 in0.0 mm
04:16 AM 41.3°F5.2°C 45.6°F7.6°C 91% 2.0 mph NW3.2 kmh NW 2.0 mph3.2 kmh 30.33 in1027.1 mb 0.00 in0.0 mm 0.00 in0.0 mm 0.00 in0.0 mm
04:17 AM 41.5°F5.3°C 45.7°F7.6°C 92% 1.4 mph NNW2.3 kmh NNW 1.4 mph2.3 kmh 30.33 in1027.1 mb 0.00 in0.0 mm 0.00 in0.0 mm 0.00 in0.0 mm
04:19 AM 41.5°F5.3°C 45.5°F7.5°C 91% 2.4 mph NNW3.9 kmh NNW 2.4 mph3.9 kmh 30.33 in1027.1 mb 0.00 in0.0 mm 0.00 in0.0 mm 0.00 in0.0 mm
04:20 AM 41.5°F5.3°C 45.6°F7.6°C 92% 2.3 mph NW3.7 kmh NW 2.3 mph3.7 kmh 30.33 in1027.1 mb 0.00 in0.0 mm 0.00 in0.0 mm 0.00 in0.0 mm
04:22 AM 41.3°F5.2°C 45.2°F7.3°C 90% 0.4 mph WNW0.6 kmh WNW 0.4 mph0.6 kmh 30.33 in1027.1 mb 0.00 in0.0 mm 0.00 in0.0 mm 0.00 in0.0 mm
04:23 AM 41.3°F5.2°C 45.4°F7.4°C 91% 2.5 mph NW4.0 kmh NW 2.5 mph4.0 kmh 30.33 in1027.1 mb 0.00 in0.0 mm 0.00 in0.0 mm 0.00 in0.0 mm
04:25 AM 41.3°F5.2°C 45.6°F7.6°C 92% 1.6 mph W2.6 kmh W 1.6 mph2.6 kmh 30.33 in1027.1 mb 0.00 in0.0 mm 0.00 in0.0 mm 0.00 in0.0 mm
04:28 AM 41.3°F5.2°C 45.6°F7.6°C 92% 2.4 mph NNW3.9 kmh NNW 2.4 mph3.9 kmh 30.33 in1027.1 mb 0.00 in0.0 mm 0.00 in0.0 mm 0.00 in0.0 mm
04:29 AM 41.3°F5.2°C 45.5°F7.5°C 91% 1.8 mph NNW2.9 kmh NNW 1.8 mph2.9 kmh 30.33 in1027.1 mb 0.00 in0.0 mm 0.00 in0.0 mm 0.00 in0.0 mm
04:31 AM 41.3°F5.2°C 45.5°F7.5°C 91% 0.8 mph W1.3 kmh W 0.8 mph1.3 kmh 30.33 in1027.1 mb 0.00 in0.0 mm 0.00 in0.0 mm 0.00 in0.0 mm
04:32 AM 41.3°F5.2°C 45.5°F7.5°C 91% 2.3 mph W3.7 kmh W 2.3 mph3.7 kmh 30.33 in1027.1 mb 0.00 in0.0 mm 0.00 in0.0 mm 0.00 in0.0 mm
04:34 AM 41.5°F5.3°C 45.7°F7.6°C 91% Calm Calm -- 30.33 in1027.1 mb 0.00 in0.0 mm 0.00 in0.0 mm 0.00 in0.0 mm
04:35 AM 41.5°F5.3°C 45.5°F7.5°C 91% 0.5 mph WNW0.8 kmh WNW 0.5 mph0.8 kmh 30.33 in1027.1 mb 0.00 in0.0 mm 0.00 in0.0 mm 0.00 in0.0 mm
04:37 AM 41.5°F5.3°C 45.5°F7.5°C 91% 3.6 mph NNW5.8 kmh NNW 3.6 mph5.8 kmh 30.32 in1026.8 mb 0.00 in0.0 mm 0.00 in0.0 mm 0.00 in0.0 mm
04:38 AM 41.5°F5.3°C 45.6°F7.6°C 91% 3.5 mph WNW5.6 kmh WNW 3.5 mph5.6 kmh 30.32 in1026.8 mb 0.00 in0.0 mm 0.00 in0.0 mm 0.00 in0.0 mm
04:40 AM 41.5°F5.3°C 45.5°F7.5°C 91% 2.4 mph NW3.9 kmh NW 2.4 mph3.9 kmh 30.31 in1026.4 mb 0.00 in0.0 mm 0.00 in0.0 mm 0.00 in0.0 mm
04:41 AM 41.5°F5.3°C 45.6°F7.6°C 91% 2.7 mph WNW4.3 kmh WNW 2.7 mph4.3 kmh 30.31 in1026.4 mb 0.00 in0.0 mm 0.00 in0.0 mm 0.00 in0.0 mm
04:43 AM 41.5°F5.3°C 45.5°F7.5°C 91% 4.0 mph WNW6.4 kmh WNW 4.0 mph6.4 kmh 30.31 in1026.4 mb 0.00 in0.0 mm 0.00 in0.0 mm 0.00 in0.0 mm
04:44 AM 41.3°F5.2°C 45.6°F7.6°C 91% 3.2 mph W5.1 kmh W 3.3 mph5.3 kmh 30.32 in1026.8 mb 0.00 in0.0 mm 0.00 in0.0 mm 0.00 in0.0 mm
04:46 AM 41.5°F5.3°C 45.8°F7.7°C 91% 7.7 mph NNW12.4 kmh NNW 7.8 mph12.6 kmh 30.31 in1026.4 mb 0.00 in0.0 mm 0.00 in0.0 mm 0.00 in0.0 mm
04:47 AM 41.5°F5.3°C 45.3°F7.4°C 90% 5.0 mph WNW8.0 kmh WNW 5.3 mph8.5 kmh 30.32 in1026.8 mb 0.00 in0.0 mm 0.00 in0.0 mm 0.00 in0.0 mm
04:49 AM 41.6°F5.3°C 45.6°F7.6°C 91% 2.0 mph NW3.2 kmh NW 2.0 mph3.2 kmh 30.31 in1026.4 mb 0.00 in0.0 mm 0.00 in0.0 mm 0.00 in0.0 mm
04:50 AM 41.6°F5.3°C 45.4°F7.4°C 91% 2.5 mph NW4.0 kmh NW 2.5 mph4.0 kmh 30.31 in1026.4 mb 0.00 in0.0 mm 0.00 in0.0 mm 0.00 in0.0 mm
04:52 AM 41.6°F5.3°C 45.6°F7.6°C 91% 3.2 mph NNW5.1 kmh NNW 3.2 mph5.1 kmh 30.31 in1026.4 mb 0.00 in0.0 mm 0.00 in0.0 mm 0.00 in0.0 mm
04:53 AM 41.6°F5.3°C 45.6°F7.6°C 91% 1.8 mph NNW2.9 kmh NNW 1.8 mph2.9 kmh 30.31 in1026.4 mb 0.00 in0.0 mm 0.00 in0.0 mm 0.00 in0.0 mm
04:55 AM 41.6°F5.3°C 45.6°F7.6°C 91% 2.0 mph NW3.2 kmh NW 2.0 mph3.2 kmh 30.31 in1026.4 mb 0.00 in0.0 mm 0.00 in0.0 mm 0.00 in0.0 mm
04:56 AM 41.6°F5.3°C 45.5°F7.5°C 91% 2.7 mph NNW4.3 kmh NNW 2.7 mph4.3 kmh 30.31 in1026.4 mb 0.00 in0.0 mm 0.00 in0.0 mm 0.00 in0.0 mm
04:58 AM 41.6°F5.3°C 45.7°F7.6°C 92% 4.8 mph NNW7.7 kmh NNW 4.9 mph7.9 kmh 30.31 in1026.4 mb 0.00 in0.0 mm 0.00 in0.0 mm 0.00 in0.0 mm
04:59 AM 41.7°F5.4°C 45.6°F7.6°C 92% 4.4 mph W7.1 kmh W 4.5 mph7.2 kmh 30.31 in1026.4 mb 0.00 in0.0 mm 0.00 in0.0 mm 0.00 in0.0 mm
05:01 AM 41.6°F5.3°C 45.5°F7.5°C 91% 2.0 mph W3.2 kmh W 2.0 mph3.2 kmh 30.31 in1026.4 mb 0.00 in0.0 mm 0.00 in0.0 mm 0.00 in0.0 mm
05:02 AM 41.6°F5.3°C 45.4°F7.4°C 91% 1.9 mph W3.1 kmh W 2.0 mph3.2 kmh 30.30 in1026.1 mb 0.00 in0.0 mm 0.00 in0.0 mm 0.00 in0.0 mm
05:04 AM 41.6°F5.3°C 45.6°F7.6°C 91% 6.0 mph NW9.7 kmh NW 6.1 mph9.8 kmh 30.31 in1026.4 mb 0.00 in0.0 mm 0.00 in0.0 mm 0.00 in0.0 mm
05:07 AM 41.7°F5.4°C 45.4°F7.4°C 91% 3.4 mph W5.5 kmh W 3.5 mph5.6 kmh 30.30 in1026.1 mb 0.00 in0.0 mm 0.00 in0.0 mm 0.00 in0.0 mm
05:08 AM 41.6°F5.3°C 45.5°F7.5°C 91% 3.1 mph W5.0 kmh W 3.1 mph5.0 kmh 30.30 in1026.1 mb 0.00 in0.0 mm 0.00 in0.0 mm 0.00 in0.0 mm
05:10 AM 41.8°F5.4°C 45.5°F7.5°C 91% 2.8 mph WNW4.5 kmh WNW 2.9 mph4.7 kmh 30.31 in1026.4 mb 0.00 in0.0 mm 0.00 in0.0 mm 0.00 in0.0 mm
05:11 AM 41.8°F5.4°C 45.5°F7.5°C 91% 1.9 mph WNW3.1 kmh WNW 1.9 mph3.1 kmh 30.30 in1026.1 mb 0.00 in0.0 mm 0.00 in0.0 mm 0.00 in0.0 mm
05:13 AM 41.8°F5.4°C 45.5°F7.5°C 91% 6.0 mph NW9.7 kmh NW 6.1 mph9.8 kmh 30.29 in1025.7 mb 0.00 in0.0 mm 0.00 in0.0 mm 0.00 in0.0 mm
05:14 AM 41.8°F5.4°C 45.1°F7.3°C 91% 6.3 mph NW10.1 kmh NW 6.3 mph10.1 kmh 30.30 in1026.1 mb 0.00 in0.0 mm 0.00 in0.0 mm 0.00 in0.0 mm
05:16 AM 41.8°F5.4°C 45.4°F7.4°C 91% 1.2 mph W1.9 kmh W 1.2 mph1.9 kmh 30.29 in1025.7 mb 0.00 in0.0 mm 0.00 in0.0 mm 0.00 in0.0 mm
05:17 AM 41.8°F5.4°C 45.5°F7.5°C 91% 1.2 mph WNW1.9 kmh WNW 1.2 mph1.9 kmh 30.30 in1026.1 mb 0.00 in0.0 mm 0.00 in0.0 mm 0.00 in0.0 mm
05:19 AM 41.8°F5.4°C 45.5°F7.5°C 91% 2.4 mph WNW3.9 kmh WNW 2.4 mph3.9 kmh 30.30 in1026.1 mb 0.00 in0.0 mm 0.00 in0.0 mm 0.00 in0.0 mm
05:20 AM 41.7°F5.4°C 45.5°F7.5°C 91% 5.6 mph W9.0 kmh W 5.8 mph9.3 kmh 30.29 in1025.7 mb 0.00 in0.0 mm 0.00 in0.0 mm 0.00 in0.0 mm
05:22 AM 41.7°F5.4°C 45.4°F7.4°C 91% 6.4 mph NW10.3 kmh NW 6.4 mph10.3 kmh 30.29 in1025.7 mb 0.00 in0.0 mm 0.00 in0.0 mm 0.00 in0.0 mm
05:23 AM 41.7°F5.4°C 45.4°F7.4°C 91% 6.4 mph WNW10.3 kmh WNW 6.4 mph10.3 kmh 30.29 in1025.7 mb 0.00 in0.0 mm 0.00 in0.0 mm 0.00 in0.0 mm
05:25 AM 41.7°F5.4°C 45.5°F7.5°C 91% 6.4 mph W10.3 kmh W 6.4 mph10.3 kmh 30.29 in1025.7 mb 0.00 in0.0 mm 0.00 in0.0 mm 0.00 in0.0 mm
05:26 AM 41.7°F5.4°C 45.5°F7.5°C 91% 4.7 mph W7.6 kmh W 4.7 mph7.6 kmh 30.29 in1025.7 mb 0.00 in0.0 mm 0.00 in0.0 mm 0.00 in0.0 mm
05:28 AM 41.7°F5.4°C 45.5°F7.5°C 91% 4.0 mph W6.4 kmh W 4.0 mph6.4 kmh 30.29 in1025.7 mb 0.00 in0.0 mm 0.00 in0.0 mm 0.00 in0.0 mm
05:29 AM 41.7°F5.4°C 45.6°F7.6°C 91% 3.7 mph W6.0 kmh W 3.8 mph6.1 kmh 30.29 in1025.7 mb 0.00 in0.0 mm 0.00 in0.0 mm 0.00 in0.0 mm
05:31 AM 41.6°F5.3°C 45.5°F7.5°C 91% 3.2 mph W5.1 kmh W 3.2 mph5.1 kmh 30.29 in1025.7 mb 0.00 in0.0 mm 0.00 in0.0 mm 0.00 in0.0 mm
05:32 AM 41.6°F5.3°C 45.5°F7.5°C 91% 4.2 mph WSW6.8 kmh WSW 4.3 mph6.9 kmh 30.29 in1025.7 mb 0.00 in0.0 mm 0.00 in0.0 mm 0.00 in0.0 mm
05:34 AM 41.7°F5.4°C 45.4°F7.4°C 91% 2.4 mph W3.9 kmh W 2.4 mph3.9 kmh 30.29 in1025.7 mb 0.00 in0.0 mm 0.00 in0.0 mm 0.00 in0.0 mm
05:35 AM 41.7°F5.4°C 45.3°F7.4°C 91% 2.9 mph NW4.7 kmh NW 3.0 mph4.8 kmh 30.29 in1025.7 mb 0.00 in0.0 mm 0.00 in0.0 mm 0.00 in0.0 mm
05:37 AM 41.7°F5.4°C 45.3°F7.4°C 90% 3.2 mph W5.1 kmh W 3.3 mph5.3 kmh 30.29 in1025.7 mb 0.00 in0.0 mm 0.00 in0.0 mm 0.00 in0.0 mm
05:38 AM 41.7°F5.4°C 45.5°F7.5°C 91% 3.3 mph WNW5.3 kmh WNW 3.3 mph5.3 kmh 30.29 in1025.7 mb 0.00 in0.0 mm 0.00 in0.0 mm 0.00 in0.0 mm
05:40 AM 41.7°F5.4°C 45.2°F7.3°C 90% 6.5 mph WNW10.5 kmh WNW 6.5 mph10.5 kmh 30.29 in1025.7 mb 0.00 in0.0 mm 0.00 in0.0 mm 0.00 in0.0 mm
05:41 AM 41.7°F5.4°C 45.3°F7.4°C 90% 5.1 mph W8.2 kmh W 5.3 mph8.5 kmh 30.29 in1025.7 mb 0.00 in0.0 mm 0.00 in0.0 mm 0.00 in0.0 mm
05:43 AM 41.7°F5.4°C 45.3°F7.4°C 90% 4.0 mph WNW6.4 kmh WNW 4.1 mph6.6 kmh 30.29 in1025.7 mb 0.00 in0.0 mm 0.00 in0.0 mm 0.00 in0.0 mm
05:44 AM 41.8°F5.4°C 45.4°F7.4°C 90% 4.4 mph W7.1 kmh W 4.4 mph7.1 kmh 30.29 in1025.7 mb 0.00 in0.0 mm 0.00 in0.0 mm 0.00 in0.0 mm
05:46 AM 41.8°F5.4°C 45.2°F7.3°C 90% 4.4 mph NNW7.1 kmh NNW 4.4 mph7.1 kmh 30.29 in1025.7 mb 0.00 in0.0 mm 0.00 in0.0 mm 0.00 in0.0 mm
05:47 AM 41.8°F5.4°C 45.4°F7.4°C 91% 5.3 mph W8.5 kmh W 5.4 mph8.7 kmh 30.29 in1025.7 mb 0.00 in0.0 mm 0.00 in0.0 mm 0.00 in0.0 mm
05:49 AM 41.8°F5.4°C 45.4°F7.4°C 91% 3.6 mph WNW5.8 kmh WNW 3.6 mph5.8 kmh 30.29 in1025.7 mb 0.00 in0.0 mm 0.00 in0.0 mm 0.00 in0.0 mm
05:50 AM 41.7°F5.4°C 45.4°F7.4°C 91% 4.1 mph WNW6.6 kmh WNW 4.1 mph6.6 kmh 30.29 in1025.7 mb 0.00 in0.0 mm 0.00 in0.0 mm 0.00 in0.0 mm
05:52 AM 41.7°F5.4°C 45.3°F7.4°C 91% 4.5 mph WNW7.2 kmh WNW 4.5 mph7.2 kmh 30.29 in1025.7 mb 0.00 in0.0 mm 0.00 in0.0 mm 0.00 in0.0 mm
05:53 AM 41.8°F5.4°C 45.4°F7.4°C 91% 7.5 mph NW12.1 kmh NW 7.5 mph12.1 kmh 30.29 in1025.7 mb 0.00 in0.0 mm 0.00 in0.0 mm 0.00 in0.0 mm
05:55 AM 41.8°F5.4°C 45.4°F7.4°C 90% 2.4 mph NW3.9 kmh NW 2.4 mph3.9 kmh 30.29 in1025.7 mb 0.00 in0.0 mm 0.00 in0.0 mm 0.00 in0.0 mm
05:56 AM 41.8°F5.4°C 45.4°F7.4°C 91% 3.7 mph NW6.0 kmh NW 3.7 mph6.0 kmh 30.29 in1025.7 mb 0.00 in0.0 mm 0.00 in0.0 mm 0.00 in0.0 mm
05:58 AM 41.8°F5.4°C 45.4°F7.4°C 90% 2.4 mph WNW3.9 kmh WNW 2.4 mph3.9 kmh 30.28 in1025.4 mb 0.00 in0.0 mm 0.00 in0.0 mm 0.00 in0.0 mm
05:59 AM 41.8°F5.4°C 45.2°F7.3°C 90% 2.1 mph W3.4 kmh W 2.2 mph3.5 kmh 30.28 in1025.4 mb 0.00 in0.0 mm 0.00 in0.0 mm 0.00 in0.0 mm
06:01 AM 41.7°F5.4°C 45.5°F7.5°C 90% 3.2 mph WNW5.1 kmh WNW 3.3 mph5.3 kmh 30.29 in1025.7 mb 0.00 in0.0 mm 0.00 in0.0 mm 0.00 in0.0 mm
06:02 AM 41.7°F5.4°C 45.5°F7.5°C 91% 3.5 mph WNW5.6 kmh WNW 3.5 mph5.6 kmh 30.29 in1025.7 mb 0.00 in0.0 mm 0.00 in0.0 mm 0.00 in0.0 mm
06:04 AM 41.7°F5.4°C 45.5°F7.5°C 91% 6.2 mph NNW10.0 kmh NNW 6.2 mph10.0 kmh 30.29 in1025.7 mb 0.00 in0.0 mm 0.00 in0.0 mm 0.00 in0.0 mm
06:07 AM 41.7°F5.4°C 45.3°F7.4°C 90% 3.6 mph W5.8 kmh W 3.7 mph6.0 kmh 30.28 in1025.4 mb 0.00 in0.0 mm 0.00 in0.0 mm 0.00 in0.0 mm
06:08 AM 41.8°F5.4°C 45.4°F7.4°C 91% 2.5 mph W4.0 kmh W 2.7 mph4.3 kmh 30.28 in1025.4 mb 0.00 in0.0 mm 0.00 in0.0 mm 0.00 in0.0 mm
06:10 AM 41.7°F5.4°C 45.6°F7.6°C 91% 6.9 mph WNW11.1 kmh WNW 6.9 mph11.1 kmh 30.28 in1025.4 mb 0.00 in0.0 mm 0.00 in0.0 mm 0.00 in0.0 mm
06:13 AM 41.7°F5.4°C 45.3°F7.4°C 90% 4.4 mph WNW7.1 kmh WNW 4.5 mph7.2 kmh 30.28 in1025.4 mb 0.00 in0.0 mm 0.00 in0.0 mm 0.00 in0.0 mm
06:14 AM 41.7°F5.4°C 45.3°F7.4°C 90% 4.1 mph W6.6 kmh W 4.2 mph6.8 kmh 30.28 in1025.4 mb 0.00 in0.0 mm 0.00 in0.0 mm 0.00 in0.0 mm
06:16 AM 41.7°F5.4°C 45.5°F7.5°C 91% 2.0 mph W3.2 kmh W 2.0 mph3.2 kmh 30.29 in1025.7 mb 0.00 in0.0 mm 0.00 in0.0 mm 0.00 in0.0 mm
06:17 AM 41.7°F5.4°C 45.5°F7.5°C 91% 1.6 mph WNW2.6 kmh WNW 1.6 mph2.6 kmh 30.29 in1025.7 mb 0.00 in0.0 mm 0.00 in0.0 mm 0.00 in0.0 mm
06:19 AM 41.7°F5.4°C 45.7°F7.6°C 91% 2.4 mph W3.9 kmh W 2.4 mph3.9 kmh 30.28 in1025.4 mb 0.00 in0.0 mm 0.00 in0.0 mm 0.00 in0.0 mm
06:20 AM 41.7°F5.4°C 45.3°F7.4°C 91% 4.1 mph W6.6 kmh W 4.1 mph6.6 kmh 30.28 in1025.4 mb 0.00 in0.0 mm 0.00 in0.0 mm 0.00 in0.0 mm
06:22 AM 41.7°F5.4°C 45.4°F7.4°C 90% 3.2 mph NW5.1 kmh NW 3.3 mph5.3 kmh 30.28 in1025.4 mb 0.00 in0.0 mm 0.00 in0.0 mm 0.00 in0.0 mm
06:25 AM 41.7°F5.4°C 45.3°F7.4°C 90% 7.3 mph NNW11.7 kmh NNW 7.4 mph11.9 kmh 30.28 in1025.4 mb 0.00 in0.0 mm 0.00 in0.0 mm 0.00 in0.0 mm
06:26 AM 41.7°F5.4°C 45.4°F7.4°C 90% 4.5 mph SW7.2 kmh SW 4.7 mph7.6 kmh 30.28 in1025.4 mb 0.00 in0.0 mm 0.00 in0.0 mm 0.00 in0.0 mm
06:28 AM 41.7°F5.4°C 45.8°F7.7°C 91% 8.0 mph W12.9 kmh W 8.0 mph12.9 kmh 30.28 in1025.4 mb 0.00 in0.0 mm 0.00 in0.0 mm 0.00 in0.0 mm
06:29 AM 41.7°F5.4°C 45.5°F7.5°C 91% 5.4 mph NW8.7 kmh NW 5.4 mph8.7 kmh 30.28 in1025.4 mb 0.00 in0.0 mm 0.00 in0.0 mm 0.00 in0.0 mm
06:31 AM 41.7°F5.4°C 45.8°F7.7°C 91% 5.3 mph WNW8.5 kmh WNW 5.3 mph8.5 kmh 30.28 in1025.4 mb 0.00 in0.0 mm 0.00 in0.0 mm 0.00 in0.0 mm
06:32 AM 41.7°F5.4°C 45.4°F7.4°C 91% 4.0 mph WNW6.4 kmh WNW 4.1 mph6.6 kmh 30.28 in1025.4 mb 0.00 in0.0 mm 0.00 in0.0 mm 0.00 in0.0 mm
06:34 AM 41.8°F5.4°C 45.5°F7.5°C 91% 2.0 mph WNW3.2 kmh WNW 2.0 mph3.2 kmh 30.28 in1025.4 mb 0.00 in0.0 mm 0.00 in0.0 mm 0.00 in0.0 mm
06:35 AM 41.8°F5.4°C 45.6°F7.6°C 91% 0.7 mph WNW1.1 kmh WNW 0.7 mph1.1 kmh 30.28 in1025.4 mb 0.00 in0.0 mm 0.00 in0.0 mm 0.00 in0.0 mm
06:37 AM 41.7°F5.4°C 45.4°F7.4°C 91% 5.3 mph WNW8.5 kmh WNW 5.3 mph8.5 kmh 30.27 in1025.1 mb 0.00 in0.0 mm 0.00 in0.0 mm 0.00 in0.0 mm
06:38 AM 41.7°F5.4°C 45.4°F7.4°C 91% 3.7 mph NW6.0 kmh NW 3.8 mph6.1 kmh 30.28 in1025.4 mb 0.00 in0.0 mm 0.00 in0.0 mm 0.00 in0.0 mm
06:40 AM 41.8°F5.4°C 45.5°F7.5°C 91% 1.2 mph W1.9 kmh W 1.2 mph1.9 kmh 30.28 in1025.4 mb 0.00 in0.0 mm 0.00 in0.0 mm 0.00 in0.0 mm
06:41 AM 41.8°F5.4°C 45.5°F7.5°C 91% 1.6 mph W2.6 kmh W 1.7 mph2.7 kmh 30.28 in1025.4 mb 0.00 in0.0 mm 0.00 in0.0 mm 0.00 in0.0 mm
06:43 AM 41.8°F5.4°C 45.5°F7.5°C 91% Calm Calm -- 30.28 in1025.4 mb 0.00 in0.0 mm 0.00 in0.0 mm 0.00 in0.0 mm
06:44 AM 41.7°F5.4°C 45.6°F7.6°C 90% 2.1 mph NNW3.4 kmh NNW 2.1 mph3.4 kmh 30.28 in1025.4 mb 0.00 in0.0 mm 0.00 in0.0 mm 0.00 in0.0 mm
06:46 AM 41.8°F5.4°C 45.7°F7.6°C 91% 2.4 mph W3.9 kmh W 2.4 mph3.9 kmh 30.28 in1025.4 mb 0.00 in0.0 mm 0.00 in0.0 mm 0.00 in0.0 mm
06:47 AM 41.8°F5.4°C 45.4°F7.4°C 91% 1.6 mph W2.6 kmh W 1.6 mph2.6 kmh 30.28 in1025.4 mb 0.00 in0.0 mm 0.00 in0.0 mm 0.00 in0.0 mm
06:49 AM 41.8°F5.4°C 45.3°F7.4°C 90% 6.4 mph NNW10.3 kmh NNW 6.5 mph10.5 kmh 30.28 in1025.4 mb 0.00 in0.0 mm 0.00 in0.0 mm 0.00 in0.0 mm
06:50 AM 41.8°F5.4°C 45.4°F7.4°C 91% 4.5 mph NNW7.2 kmh NNW 4.6 mph7.4 kmh 30.27 in1025.1 mb 0.00 in0.0 mm 0.00 in0.0 mm 0.00 in0.0 mm
06:52 AM 41.8°F5.4°C 45.1°F7.3°C 89% 2.4 mph W3.9 kmh W 2.4 mph3.9 kmh 30.28 in1025.4 mb 0.00 in0.0 mm 0.00 in0.0 mm 0.00 in0.0 mm
06:53 AM 41.8°F5.4°C 45.5°F7.5°C 91% 1.2 mph W1.9 kmh W 1.4 mph2.3 kmh 30.27 in1025.1 mb 0.00 in0.0 mm 0.00 in0.0 mm 0.00 in0.0 mm
06:55 AM 41.9°F5.5°C 45.4°F7.4°C 90% 4.5 mph WNW7.2 kmh WNW 4.5 mph7.2 kmh 30.27 in1025.1 mb 0.00 in0.0 mm 0.00 in0.0 mm 0.00 in0.0 mm
06:56 AM 41.9°F5.5°C 45.4°F7.4°C 90% 4.4 mph W7.1 kmh W 4.6 mph7.4 kmh 30.27 in1025.1 mb 0.00 in0.0 mm 0.00 in0.0 mm 0.00 in0.0 mm
06:58 AM 41.8°F5.4°C 45.5°F7.5°C 90% 4.4 mph WNW7.1 kmh WNW 4.5 mph7.2 kmh 30.26 in1024.7 mb 0.00 in0.0 mm 0.00 in0.0 mm 0.00 in0.0 mm
06:59 AM 41.8°F5.4°C 45.3°F7.4°C 90% 3.5 mph NW5.6 kmh NW 3.5 mph5.6 kmh 30.26 in1024.7 mb 0.00 in0.0 mm 0.00 in0.0 mm 0.00 in0.0 mm
07:01 AM 41.8°F5.4°C 45.2°F7.3°C 89% 4.0 mph NNW6.4 kmh NNW 4.0 mph6.4 kmh 30.26 in1024.7 mb 0.00 in0.0 mm 0.00 in0.0 mm 0.00 in0.0 mm
07:02 AM 41.8°F5.4°C 45.4°F7.4°C 91% 5.1 mph NNW8.2 kmh NNW 5.4 mph8.7 kmh 30.26 in1024.7 mb 0.00 in0.0 mm 0.00 in0.0 mm 0.00 in0.0 mm
07:04 AM 41.8°F5.4°C 45.6°F7.6°C 90% 1.6 mph W2.6 kmh W 1.6 mph2.6 kmh 30.26 in1024.7 mb 0.00 in0.0 mm 0.00 in0.0 mm 0.00 in0.0 mm
07:05 AM 41.9°F5.5°C 45.0°F7.2°C 89% 0.7 mph WNW1.1 kmh WNW 0.8 mph1.3 kmh 30.26 in1024.7 mb 0.00 in0.0 mm 0.00 in0.0 mm 0.00 in0.0 mm
07:07 AM 41.8°F5.4°C 45.5°F7.5°C 90% 2.8 mph NNW4.5 kmh NNW 2.9 mph4.7 kmh 30.26 in1024.7 mb 0.00 in0.0 mm 0.00 in0.0 mm 0.00 in0.0 mm
07:10 AM 41.8°F5.4°C 45.4°F7.4°C 90% 0.8 mph W1.3 kmh W 0.8 mph1.3 kmh 30.26 in1024.7 mb 0.00 in0.0 mm 0.00 in0.0 mm 0.00 in0.0 mm
07:13 AM 41.8°F5.4°C 45.4°F7.4°C 90% 5.7 mph W9.2 kmh W 5.7 mph9.2 kmh 30.26 in1024.7 mb 0.00 in0.0 mm 0.00 in0.0 mm 0.00 in0.0 mm
07:14 AM 41.8°F5.4°C 45.4°F7.4°C 90% 4.7 mph WNW7.6 kmh WNW 4.8 mph7.7 kmh 30.27 in1025.1 mb 0.00 in0.0 mm 0.00 in0.0 mm 0.00 in0.0 mm
07:16 AM 41.8°F5.4°C 45.6°F7.6°C 90% 3.2 mph NNW5.1 kmh NNW 3.3 mph5.3 kmh 30.27 in1025.1 mb 0.00 in0.0 mm 0.00 in0.0 mm 0.00 in0.0 mm
07:17 AM 41.8°F5.4°C 45.5°F7.5°C 90% 3.5 mph NNW5.6 kmh NNW 3.5 mph5.6 kmh 30.26 in1024.7 mb 0.00 in0.0 mm 0.00 in0.0 mm 0.00 in0.0 mm
07:19 AM 41.8°F5.4°C 45.5°F7.5°C 90% 4.0 mph NW6.4 kmh NW 4.0 mph6.4 kmh 30.27 in1025.1 mb 0.00 in0.0 mm 0.00 in0.0 mm 0.00 in0.0 mm
07:20 AM 41.8°F5.4°C 45.5°F7.5°C 90% 4.2 mph NNW6.8 kmh NNW 4.2 mph6.8 kmh 30.28 in1025.4 mb 0.00 in0.0 mm 0.00 in0.0 mm 0.00 in0.0 mm
07:22 AM 41.9°F5.5°C 45.6°F7.6°C 91% 1.5 mph NNW2.4 kmh NNW 1.5 mph2.4 kmh 30.26 in1024.7 mb 0.00 in0.0 mm 0.00 in0.0 mm 0.00 in0.0 mm
07:23 AM 41.8°F5.4°C 45.4°F7.4°C 90% 2.5 mph W4.0 kmh W 2.5 mph4.0 kmh 30.26 in1024.7 mb 0.00 in0.0 mm 0.00 in0.0 mm 0.00 in0.0 mm
07:25 AM 41.8°F5.4°C 45.6°F7.6°C 90% 1.2 mph WNW1.9 kmh WNW 1.2 mph1.9 kmh 30.27 in1025.1 mb 0.00 in0.0 mm 0.00 in0.0 mm 0.00 in0.0 mm
07:26 AM 41.8°F5.4°C 45.5°F7.5°C 90% 5.8 mph W9.3 kmh W 5.8 mph9.3 kmh 30.26 in1024.7 mb 0.00 in0.0 mm 0.00 in0.0 mm 0.00 in0.0 mm
07:28 AM 41.8°F5.4°C 45.5°F7.5°C 90% 0.4 mph NW0.6 kmh NW 0.4 mph0.6 kmh 30.27 in1025.1 mb 0.00 in0.0 mm 0.00 in0.0 mm 0.00 in0.0 mm
07:29 AM 41.9°F5.5°C 45.4°F7.4°C 90% 2.8 mph W4.5 kmh W 2.8 mph4.5 kmh 30.27 in1025.1 mb 0.00 in0.0 mm 0.00 in0.0 mm 0.00 in0.0 mm
07:31 AM 41.9°F5.5°C 45.7°F7.6°C 90% 3.6 mph NW5.8 kmh NW 3.7 mph6.0 kmh 30.26 in1024.7 mb 0.00 in0.0 mm 0.00 in0.0 mm 0.00 in0.0 mm
07:32 AM 41.9°F5.5°C 45.5°F7.5°C 90% 2.5 mph NW4.0 kmh NW 2.5 mph4.0 kmh 30.26 in1024.7 mb 0.00 in0.0 mm 0.00 in0.0 mm 0.00 in0.0 mm
07:34 AM 41.9°F5.5°C 45.5°F7.5°C 90% Calm Calm -- 30.26 in1024.7 mb 0.00 in0.0 mm 0.00 in0.0 mm 0.00 in0.0 mm
07:35 AM 41.9°F5.5°C 45.5°F7.5°C 90% Calm Calm -- 30.26 in1024.7 mb 0.00 in0.0 mm 0.00 in0.0 mm 0.00 in0.0 mm
07:37 AM 41.8°F5.4°C 45.0°F7.2°C 89% 1.6 mph NW2.6 kmh NW 1.6 mph2.6 kmh 30.26 in1024.7 mb 0.00 in0.0 mm 0.00 in0.0 mm 0.00 in0.0 mm
07:40 AM 41.8°F5.4°C 45.6°F7.6°C 90% 4.0 mph NNW6.4 kmh NNW 4.0 mph6.4 kmh 30.26 in1024.7 mb 0.00 in0.0 mm 0.00 in0.0 mm 0.00 in0.0 mm
07:41 AM 41.8°F5.4°C 45.4°F7.4°C 90% 2.5 mph NNW4.0 kmh NNW 2.7 mph4.3 kmh 30.26 in1024.7 mb 0.00 in0.0 mm 0.00 in0.0 mm 0.00 in0.0 mm
07:43 AM 41.9°F5.5°C 45.5°F7.5°C 90% 2.0 mph NNW3.2 kmh NNW 2.0 mph3.2 kmh 30.26 in1024.7 mb 0.00 in0.0 mm 0.00 in0.0 mm 0.00 in0.0 mm
07:44 AM 41.9°F5.5°C 45.4°F7.4°C 90% 1.2 mph NNW1.9 kmh NNW 1.3 mph2.1 kmh 30.26 in1024.7 mb 0.00 in0.0 mm 0.00 in0.0 mm 0.00 in0.0 mm
07:46 AM 41.9°F5.5°C 45.1°F7.3°C 89% 5.7 mph WNW9.2 kmh WNW 5.7 mph9.2 kmh 30.26 in1024.7 mb 0.00 in0.0 mm 0.00 in0.0 mm 0.00 in0.0 mm
07:47 AM 41.9°F5.5°C 45.5°F7.5°C 90% 4.9 mph NW7.9 kmh NW 4.9 mph7.9 kmh 30.26 in1024.7 mb 0.00 in0.0 mm 0.00 in0.0 mm 0.00 in0.0 mm
07:49 AM 41.9°F5.5°C 45.6°F7.6°C 90% 4.4 mph NNW7.1 kmh NNW 4.4 mph7.1 kmh 30.26 in1024.7 mb 0.00 in0.0 mm 0.00 in0.0 mm 0.00 in0.0 mm
07:50 AM 41.9°F5.5°C 45.2°F7.3°C 90% 3.9 mph WNW6.3 kmh WNW 4.0 mph6.4 kmh 30.26 in1024.7 mb 0.00 in0.0 mm 0.00 in0.0 mm 0.00 in0.0 mm
07:52 AM 41.9°F5.5°C 45.4°F7.4°C 90% 2.8 mph W4.5 kmh W 2.8 mph4.5 kmh 30.26 in1024.7 mb 0.00 in0.0 mm 0.00 in0.0 mm 0.00 in0.0 mm
07:53 AM 41.9°F5.5°C 45.4°F7.4°C 90% 2.1 mph WNW3.4 kmh WNW 2.2 mph3.5 kmh 30.26 in1024.7 mb 0.00 in0.0 mm 0.00 in0.0 mm 0.00 in0.0 mm
07:55 AM 41.8°F5.4°C 45.5°F7.5°C 90% 2.8 mph NW4.5 kmh NW 2.8 mph4.5 kmh 30.26 in1024.7 mb 0.00 in0.0 mm 0.00 in0.0 mm 0.00 in0.0 mm
07:56 AM 41.9°F5.5°C 45.5°F7.5°C 90% 3.1 mph NW5.0 kmh NW 3.2 mph5.1 kmh 30.26 in1024.7 mb 0.00 in0.0 mm 0.00 in0.0 mm 0.00 in0.0 mm
07:58 AM 41.8°F5.4°C 45.4°F7.4°C 90% 3.1 mph W5.0 kmh W 3.3 mph5.3 kmh 30.26 in1024.7 mb 0.00 in0.0 mm 0.00 in0.0 mm 0.00 in0.0 mm
07:59 AM 41.8°F5.4°C 45.5°F7.5°C 90% 2.1 mph W3.4 kmh W 2.1 mph3.4 kmh 30.26 in1024.7 mb 0.00 in0.0 mm 0.00 in0.0 mm 0.00 in0.0 mm
08:01 AM 41.8°F5.4°C 45.7°F7.6°C 90% 5.6 mph NNW9.0 kmh NNW 5.6 mph9.0 kmh 30.26 in1024.7 mb 0.00 in0.0 mm 0.00 in0.0 mm 0.00 in0.0 mm
08:02 AM 41.8°F5.4°C 45.4°F7.4°C 90% 4.4 mph NW7.1 kmh NW 4.5 mph7.2 kmh 30.26 in1024.7 mb 0.00 in0.0 mm 0.00 in0.0 mm 0.00 in0.0 mm
08:04 AM 41.8°F5.4°C 45.5°F7.5°C 90% 2.8 mph WNW4.5 kmh WNW 2.9 mph4.7 kmh 30.26 in1024.7 mb 0.00 in0.0 mm 0.00 in0.0 mm 0.00 in0.0 mm
08:05 AM 41.8°F5.4°C 45.3°F7.4°C 89% 2.7 mph NW4.3 kmh NW 2.9 mph4.7 kmh 30.26 in1024.7 mb 0.00 in0.0 mm 0.00 in0.0 mm 0.00 in0.0 mm
08:07 AM 41.8°F5.4°C 45.5°F7.5°C 90% 4.9 mph NW7.9 kmh NW 4.9 mph7.9 kmh 30.26 in1024.7 mb 0.00 in0.0 mm 0.00 in0.0 mm 0.00 in0.0 mm
08:08 AM 41.9°F5.5°C 45.0°F7.2°C 89% 3.6 mph NNW5.8 kmh NNW 3.6 mph5.8 kmh 30.26 in1024.7 mb 0.00 in0.0 mm 0.00 in0.0 mm 0.00 in0.0 mm
08:10 AM 41.9°F5.5°C 45.5°F7.5°C 90% 3.6 mph NW5.8 kmh NW 3.7 mph6.0 kmh 30.26 in1024.7 mb 0.00 in0.0 mm 0.00 in0.0 mm 0.00 in0.0 mm
08:11 AM 41.9°F5.5°C 45.4°F7.4°C 90% 3.5 mph NW5.6 kmh NW 3.5 mph5.6 kmh 30.26 in1024.7 mb 0.00 in0.0 mm 0.00 in0.0 mm 0.00 in0.0 mm
08:13 AM 41.9°F5.5°C 45.6°F7.6°C 90% 5.2 mph NNW8.4 kmh NNW 5.2 mph8.4 kmh 30.26 in1024.7 mb 0.00 in0.0 mm 0.00 in0.0 mm 0.00 in0.0 mm
08:14 AM 41.9°F5.5°C 45.4°F7.4°C 90% 6.0 mph NNW9.7 kmh NNW 6.0 mph9.7 kmh 30.25 in1024.4 mb 0.00 in0.0 mm 0.00 in0.0 mm 0.00 in0.0 mm
08:16 AM 41.9°F5.5°C 45.2°F7.3°C 90% 7.2 mph NNW11.6 kmh NNW 7.2 mph11.6 kmh 30.26 in1024.7 mb 0.00 in0.0 mm 0.00 in0.0 mm 0.00 in0.0 mm
08:17 AM 41.9°F5.5°C 45.5°F7.5°C 90% 6.8 mph NNW10.9 kmh NNW 6.8 mph10.9 kmh 30.26 in1024.7 mb 0.00 in0.0 mm 0.00 in0.0 mm 0.00 in0.0 mm
08:19 AM 42.0°F5.6°C 45.3°F7.4°C 90% 2.8 mph NNW4.5 kmh NNW 2.8 mph4.5 kmh 30.25 in1024.4 mb 0.00 in0.0 mm 0.00 in0.0 mm 0.00 in0.0 mm
08:20 AM 42.0°F5.6°C 45.3°F7.4°C 90% 2.3 mph NNW3.7 kmh NNW 2.4 mph3.9 kmh 30.25 in1024.4 mb 0.00 in0.0 mm 0.00 in0.0 mm 0.00 in0.0 mm
08:22 AM 41.9°F5.5°C 45.3°F7.4°C 90% 1.2 mph NW1.9 kmh NW 1.2 mph1.9 kmh 30.25 in1024.4 mb 0.00 in0.0 mm 0.00 in0.0 mm 0.00 in0.0 mm
08:23 AM 41.9°F5.5°C 45.4°F7.4°C 90% 1.9 mph NW3.1 kmh NW 1.9 mph3.1 kmh 30.25 in1024.4 mb 0.00 in0.0 mm 0.00 in0.0 mm 0.00 in0.0 mm
08:25 AM 41.9°F5.5°C 45.6°F7.6°C 90% 5.6 mph NW9.0 kmh NW 5.6 mph9.0 kmh 30.25 in1024.4 mb 0.00 in0.0 mm 0.00 in0.0 mm 0.00 in0.0 mm
08:28 AM 41.9°F5.5°C 45.6°F7.6°C 90% 1.6 mph NW2.6 kmh NW 1.6 mph2.6 kmh 30.25 in1024.4 mb 0.00 in0.0 mm 0.00 in0.0 mm 0.00 in0.0 mm
08:29 AM 41.9°F5.5°C 45.4°F7.4°C 90% 0.9 mph NW1.4 kmh NW 0.9 mph1.4 kmh 30.25 in1024.4 mb 0.00 in0.0 mm 0.00 in0.0 mm 0.00 in0.0 mm
08:31 AM 41.9°F5.5°C 45.3°F7.4°C 90% 5.2 mph NNW8.4 kmh NNW 5.2 mph8.4 kmh 30.25 in1024.4 mb 0.00 in0.0 mm 0.00 in0.0 mm 0.00 in0.0 mm
08:34 AM 41.8°F5.4°C 45.4°F7.4°C 90% 4.4 mph NW7.1 kmh NW 4.4 mph7.1 kmh 30.25 in1024.4 mb 0.00 in0.0 mm 0.00 in0.0 mm 0.00 in0.0 mm
08:35 AM 41.8°F5.4°C 45.3°F7.4°C 90% 4.2 mph NW6.8 kmh NW 4.2 mph6.8 kmh 30.25 in1024.4 mb 0.00 in0.0 mm 0.00 in0.0 mm 0.00 in0.0 mm
08:40 AM 41.8°F5.4°C 45.1°F7.3°C 89% 0.4 mph NW0.6 kmh NW 0.4 mph0.6 kmh 30.25 in1024.4 mb 0.00 in0.0 mm 0.00 in0.0 mm 0.00 in0.0 mm
08:41 AM 41.8°F5.4°C 45.3°F7.4°C 90% 0.4 mph NW0.6 kmh NW 0.4 mph0.6 kmh 30.25 in1024.4 mb 0.00 in0.0 mm 0.00 in0.0 mm 0.00 in0.0 mm
08:43 AM 41.8°F5.4°C 45.2°F7.3°C 89% 1.6 mph NNW2.6 kmh NNW 1.6 mph2.6 kmh 30.25 in1024.4 mb 0.00 in0.0 mm 0.00 in0.0 mm 0.00 in0.0 mm
08:46 AM 41.8°F5.4°C 45.3°F7.4°C 90% 2.0 mph NW3.2 kmh NW 2.0 mph3.2 kmh 30.26 in1024.7 mb 0.00 in0.0 mm 0.00 in0.0 mm 0.00 in0.0 mm
08:47 AM 41.9°F5.5°C 45.4°F7.4°C 90% 2.1 mph NW3.4 kmh NW 2.1 mph3.4 kmh 30.26 in1024.7 mb 0.00 in0.0 mm 0.00 in0.0 mm 0.00 in0.0 mm
08:49 AM 41.9°F5.5°C 45.3°F7.4°C 90% 3.5 mph NNW5.6 kmh NNW 3.7 mph6.0 kmh 30.25 in1024.4 mb 0.00 in0.0 mm 0.00 in0.0 mm 0.00 in0.0 mm
08:50 AM 41.9°F5.5°C 45.2°F7.3°C 89% 2.9 mph NNW4.7 kmh NNW 2.9 mph4.7 kmh 30.25 in1024.4 mb 0.00 in0.0 mm 0.00 in0.0 mm 0.00 in0.0 mm
08:52 AM 41.8°F5.4°C 45.4°F7.4°C 90% 2.4 mph W3.9 kmh W 2.4 mph3.9 kmh 30.24 in1024.0 mb 0.00 in0.0 mm 0.00 in0.0 mm 0.00 in0.0 mm
08:53 AM 41.8°F5.4°C 45.0°F7.2°C 89% 2.7 mph W4.3 kmh W 2.7 mph4.3 kmh 30.24 in1024.0 mb 0.00 in0.0 mm 0.00 in0.0 mm 0.00 in0.0 mm
08:55 AM 41.8°F5.4°C 45.6°F7.6°C 90% 6.0 mph NNW9.7 kmh NNW 6.0 mph9.7 kmh 30.24 in1024.0 mb 0.00 in0.0 mm 0.00 in0.0 mm 0.00 in0.0 mm
08:56 AM 41.8°F5.4°C 45.3°F7.4°C 90% 6.9 mph W11.1 kmh W 7.1 mph11.4 kmh 30.25 in1024.4 mb 0.00 in0.0 mm 0.00 in0.0 mm 0.00 in0.0 mm
08:58 AM 41.9°F5.5°C 45.4°F7.4°C 90% 4.0 mph NW6.4 kmh NW 4.1 mph6.6 kmh 30.25 in1024.4 mb 0.00 in0.0 mm 0.00 in0.0 mm 0.00 in0.0 mm
08:59 AM 41.9°F5.5°C 45.2°F7.3°C 89% 4.9 mph WNW7.9 kmh WNW 4.9 mph7.9 kmh 30.25 in1024.4 mb 0.00 in0.0 mm 0.00 in0.0 mm 0.00 in0.0 mm
09:01 AM 41.9°F5.5°C 45.3°F7.4°C 90% 1.2 mph NW1.9 kmh NW 1.2 mph1.9 kmh 30.25 in1024.4 mb 0.00 in0.0 mm 0.00 in0.0 mm 0.00 in0.0 mm
09:04 AM 41.9°F5.5°C 45.4°F7.4°C 89% 5.3 mph NW8.5 kmh NW 5.3 mph8.5 kmh 30.25 in1024.4 mb 0.00 in0.0 mm 0.00 in0.0 mm 0.00 in0.0 mm
09:05 AM 41.8°F5.4°C 45.4°F7.4°C 89% 3.7 mph NW6.0 kmh NW 3.8 mph6.1 kmh 30.25 in1024.4 mb 0.00 in0.0 mm 0.00 in0.0 mm 0.00 in0.0 mm
09:07 AM 41.8°F5.4°C 45.4°F7.4°C 89% 0.8 mph NNW1.3 kmh NNW 0.8 mph1.3 kmh 30.25 in1024.4 mb 0.00 in0.0 mm 0.00 in0.0 mm 0.00 in0.0 mm
09:08 AM 41.8°F5.4°C 45.2°F7.3°C 89% 0.5 mph WNW0.8 kmh WNW 0.5 mph0.8 kmh 30.24 in1024.0 mb 0.00 in0.0 mm 0.00 in0.0 mm 0.00 in0.0 mm
09:10 AM 41.8°F5.4°C 45.3°F7.4°C 89% 4.4 mph NNW7.1 kmh NNW 4.4 mph7.1 kmh 30.23 in1023.7 mb 0.00 in0.0 mm 0.00 in0.0 mm 0.00 in0.0 mm
09:11 AM 41.9°F5.5°C 45.3°F7.4°C 89% 4.4 mph NW7.1 kmh NW 4.5 mph7.2 kmh 30.23 in1023.7 mb 0.00 in0.0 mm 0.00 in0.0 mm 0.00 in0.0 mm
09:13 AM 41.9°F5.5°C 45.1°F7.3°C 89% 6.1 mph NW9.8 kmh NW 6.1 mph9.8 kmh 30.24 in1024.0 mb 0.00 in0.0 mm 0.00 in0.0 mm 0.00 in0.0 mm
09:16 AM 41.9°F5.5°C 45.2°F7.3°C 89% 3.6 mph W5.8 kmh W 3.7 mph6.0 kmh 30.24 in1024.0 mb 0.00 in0.0 mm 0.00 in0.0 mm 0.00 in0.0 mm
09:17 AM 41.9°F5.5°C 45.1°F7.3°C 89% 3.4 mph NW5.5 kmh NW 3.5 mph5.6 kmh 30.23 in1023.7 mb 0.00 in0.0 mm 0.00 in0.0 mm 0.00 in0.0 mm
09:19 AM 41.8°F5.4°C 45.0°F7.2°C 88% 4.8 mph WNW7.7 kmh WNW 4.8 mph7.7 kmh 30.23 in1023.7 mb 0.00 in0.0 mm 0.00 in0.0 mm 0.00 in0.0 mm
09:20 AM 41.9°F5.5°C 45.1°F7.3°C 89% 3.2 mph NW5.1 kmh NW 3.2 mph5.1 kmh 30.23 in1023.7 mb 0.00 in0.0 mm 0.00 in0.0 mm 0.00 in0.0 mm
09:22 AM 41.9°F5.5°C 45.0°F7.2°C 89% 5.2 mph WNW8.4 kmh WNW 5.2 mph8.4 kmh 30.23 in1023.7 mb 0.00 in0.0 mm 0.00 in0.0 mm 0.00 in0.0 mm
09:23 AM 41.9°F5.5°C 45.1°F7.3°C 89% 4.2 mph WNW6.8 kmh WNW 4.3 mph6.9 kmh 30.23 in1023.7 mb 0.00 in0.0 mm 0.00 in0.0 mm 0.00 in0.0 mm
09:25 AM 42.0°F5.6°C 44.7°F7.1°C 88% 4.8 mph NW7.7 kmh NW 4.8 mph7.7 kmh 30.23 in1023.7 mb 0.00 in0.0 mm 0.00 in0.0 mm 0.00 in0.0 mm
09:26 AM 42.0°F5.6°C 45.1°F7.3°C 89% 4.2 mph WNW6.8 kmh WNW 4.3 mph6.9 kmh 30.23 in1023.7 mb 0.00 in0.0 mm 0.00 in0.0 mm 0.00 in0.0 mm
09:28 AM 42.0°F5.6°C 45.0°F7.2°C 89% 3.2 mph W5.1 kmh W 3.2 mph5.1 kmh 30.23 in1023.7 mb 0.00 in0.0 mm 0.00 in0.0 mm 0.00 in0.0 mm
09:29 AM 42.0°F5.6°C 44.9°F7.2°C 89% 4.1 mph W6.6 kmh W 4.1 mph6.6 kmh 30.23 in1023.7 mb 0.00 in0.0 mm 0.00 in0.0 mm 0.00 in0.0 mm
09:31 AM 42.0°F5.6°C 45.2°F7.3°C 89% 5.3 mph WNW8.5 kmh WNW 5.3 mph8.5 kmh 30.23 in1023.7 mb 0.00 in0.0 mm 0.00 in0.0 mm 0.00 in0.0 mm
09:32 AM 42.1°F5.6°C 45.0°F7.2°C 89% 3.2 mph W5.1 kmh W 3.2 mph5.1 kmh 30.23 in1023.7 mb 0.00 in0.0 mm 0.00 in0.0 mm 0.00 in0.0 mm
09:34 AM 42.0°F5.6°C 45.3°F7.4°C 89% 0.8 mph W1.3 kmh W 0.8 mph1.3 kmh 30.23 in1023.7 mb 0.00 in0.0 mm 0.00 in0.0 mm 0.00 in0.0 mm
09:37 AM 42.0°F5.6°C 45.2°F7.3°C 89% 4.4 mph WNW7.1 kmh WNW 4.5 mph7.2 kmh 30.23 in1023.7 mb 0.00 in0.0 mm 0.00 in0.0 mm 0.00 in0.0 mm
09:38 AM 42.0°F5.6°C 45.2°F7.3°C 89% 4.8 mph WNW7.7 kmh WNW 4.8 mph7.7 kmh 30.23 in1023.7 mb 0.00 in0.0 mm 0.00 in0.0 mm 0.00 in0.0 mm
09:40 AM 42.1°F5.6°C 45.4°F7.4°C 89% 4.4 mph W7.1 kmh W 4.4 mph7.1 kmh 30.23 in1023.7 mb 0.00 in0.0 mm 0.00 in0.0 mm 0.00 in0.0 mm
09:43 AM 42.0°F5.6°C 45.4°F7.4°C 90% 2.4 mph NW3.9 kmh NW 2.4 mph3.9 kmh 30.23 in1023.7 mb 0.00 in0.0 mm 0.00 in0.0 mm 0.00 in0.0 mm
09:44 AM 42.0°F5.6°C 45.2°F7.3°C 89% 2.7 mph NW4.3 kmh NW 2.7 mph4.3 kmh 30.23 in1023.7 mb 0.00 in0.0 mm 0.00 in0.0 mm 0.00 in0.0 mm
09:46 AM 42.0°F5.6°C 45.2°F7.3°C 89% 1.1 mph WNW1.8 kmh WNW 1.2 mph1.9 kmh 30.23 in1023.7 mb 0.00 in0.0 mm 0.00 in0.0 mm 0.00 in0.0 mm
09:47 AM 42.0°F5.6°C 45.4°F7.4°C 89% 0.2 mph WNW0.3 kmh WNW 0.3 mph0.5 kmh 30.23 in1023.7 mb 0.00 in0.0 mm 0.00 in0.0 mm 0.00 in0.0 mm
09:49 AM 41.9°F5.5°C 45.4°F7.4°C 89% 3.2 mph WNW5.1 kmh WNW 3.2 mph5.1 kmh 30.23 in1023.7 mb 0.00 in0.0 mm 0.00 in0.0 mm 0.00 in0.0 mm
09:50 AM 41.8°F5.4°C 45.3°F7.4°C 89% 3.3 mph W5.3 kmh W 3.3 mph5.3 kmh 30.23 in1023.7 mb 0.00 in0.0 mm 0.00 in0.0 mm 0.00 in0.0 mm
09:52 AM 41.8°F5.4°C 45.1°F7.3°C 89% 1.6 mph NW2.6 kmh NW 1.6 mph2.6 kmh 30.23 in1023.7 mb 0.00 in0.0 mm 0.00 in0.0 mm 0.00 in0.0 mm
09:53 AM 41.8°F5.4°C 45.2°F7.3°C 89% 1.6 mph W2.6 kmh W 1.6 mph2.6 kmh 30.23 in1023.7 mb 0.00 in0.0 mm 0.00 in0.0 mm 0.00 in0.0 mm
09:55 AM 41.7°F5.4°C 45.2°F7.3°C 88% 2.8 mph NW4.5 kmh NW 2.9 mph4.7 kmh 30.23 in1023.7 mb 0.00 in0.0 mm 0.00 in0.0 mm 0.00 in0.0 mm
09:56 AM 41.7°F5.4°C 45.3°F7.4°C 89% 3.0 mph NW4.8 kmh NW 3.0 mph4.8 kmh 30.23 in1023.7 mb 0.00 in0.0 mm 0.00 in0.0 mm 0.00 in0.0 mm
09:58 AM 41.6°F5.3°C 45.4°F7.4°C 89% 1.2 mph NW1.9 kmh NW 1.2 mph1.9 kmh 30.23 in1023.7 mb 0.00 in0.0 mm 0.00 in0.0 mm 0.00 in0.0 mm
09:59 AM 41.7°F5.4°C 45.2°F7.3°C 89% 0.9 mph NW1.4 kmh NW 1.0 mph1.6 kmh 30.23 in1023.7 mb 0.00 in0.0 mm 0.00 in0.0 mm 0.00 in0.0 mm
10:01 AM 41.6°F5.3°C 45.3°F7.4°C 89% 6.3 mph NW10.1 kmh NW 6.4 mph10.3 kmh 30.23 in1023.7 mb 0.00 in0.0 mm 0.00 in0.0 mm 0.00 in0.0 mm
10:02 AM 41.6°F5.3°C 45.3°F7.4°C 89% 4.6 mph NW7.4 kmh NW 4.6 mph7.4 kmh 30.23 in1023.7 mb 0.00 in0.0 mm 0.00 in0.0 mm 0.00 in0.0 mm
10:04 AM 41.6°F5.3°C 45.3°F7.4°C 90% 4.0 mph NNW6.4 kmh NNW 4.0 mph6.4 kmh 30.23 in1023.7 mb 0.00 in0.0 mm 0.00 in0.0 mm 0.00 in0.0 mm
10:07 AM 41.6°F5.3°C 45.1°F7.3°C 89% 4.4 mph WNW7.1 kmh WNW 4.5 mph7.2 kmh 30.23 in1023.7 mb 0.00 in0.0 mm 0.00 in0.0 mm 0.00 in0.0 mm
10:08 AM 41.6°F5.3°C 44.9°F7.2°C 88% 4.9 mph NW7.9 kmh NW 4.9 mph7.9 kmh 30.23 in1023.7 mb 0.00 in0.0 mm 0.00 in0.0 mm 0.00 in0.0 mm
10:10 AM 41.6°F5.3°C 45.3°F7.4°C 90% 2.0 mph W3.2 kmh W 2.0 mph3.2 kmh 30.23 in1023.7 mb 0.00 in0.0 mm 0.00 in0.0 mm 0.00 in0.0 mm
10:13 AM 41.5°F5.3°C 45.3°F7.4°C 89% 1.2 mph NW1.9 kmh NW 1.2 mph1.9 kmh 30.23 in1023.7 mb 0.00 in0.0 mm 0.00 in0.0 mm 0.00 in0.0 mm
10:14 AM 41.6°F5.3°C 45.4°F7.4°C 90% 1.6 mph NW2.6 kmh NW 1.6 mph2.6 kmh 30.23 in1023.7 mb 0.00 in0.0 mm 0.00 in0.0 mm 0.00 in0.0 mm
10:16 AM 41.5°F5.3°C 45.1°F7.3°C 90% 4.0 mph NW6.4 kmh NW 4.1 mph6.6 kmh 30.23 in1023.7 mb 0.00 in0.0 mm 0.00 in0.0 mm 0.00 in0.0 mm
10:17 AM 41.6°F5.3°C 45.3°F7.4°C 90% 3.5 mph NW5.6 kmh NW 3.6 mph5.8 kmh 30.23 in1023.7 mb 0.00 in0.0 mm 0.00 in0.0 mm 0.00 in0.0 mm
10:19 AM 41.5°F5.3°C 45.0°F7.2°C 89% 2.0 mph W3.2 kmh W 2.0 mph3.2 kmh 30.23 in1023.7 mb 0.00 in0.0 mm 0.00 in0.0 mm 0.00 in0.0 mm
10:20 AM 41.5°F5.3°C 45.3°F7.4°C 90% 2.1 mph W3.4 kmh W 2.1 mph3.4 kmh 30.23 in1023.7 mb 0.00 in0.0 mm 0.00 in0.0 mm 0.00 in0.0 mm
10:22 AM 41.5°F5.3°C 45.2°F7.3°C 89% 2.0 mph NNW3.2 kmh NNW 2.0 mph3.2 kmh 30.23 in1023.7 mb 0.00 in0.0 mm 0.00 in0.0 mm 0.00 in0.0 mm
10:23 AM 41.5°F5.3°C 45.3°F7.4°C 89% 2.3 mph W3.7 kmh W 2.4 mph3.9 kmh 30.23 in1023.7 mb 0.00 in0.0 mm 0.00 in0.0 mm 0.00 in0.0 mm
10:25 AM 41.6°F5.3°C 45.2°F7.3°C 90% 4.0 mph W6.4 kmh W 4.1 mph6.6 kmh 30.23 in1023.7 mb 0.00 in0.0 mm 0.00 in0.0 mm 0.00 in0.0 mm
10:28 AM 41.6°F5.3°C 45.4°F7.4°C 90% 6.5 mph W10.5 kmh W 6.5 mph10.5 kmh 30.23 in1023.7 mb 0.00 in0.0 mm 0.00 in0.0 mm 0.00 in0.0 mm
10:29 AM 41.6°F5.3°C 45.2°F7.3°C 89% 5.8 mph W9.3 kmh W 5.8 mph9.3 kmh 30.23 in1023.7 mb 0.00 in0.0 mm 0.00 in0.0 mm 0.00 in0.0 mm
10:31 AM 41.5°F5.3°C 45.4°F7.4°C 90% 2.4 mph NNW3.9 kmh NNW 2.4 mph3.9 kmh 30.23 in1023.7 mb 0.00 in0.0 mm 0.00 in0.0 mm 0.00 in0.0 mm
10:32 AM 41.6°F5.3°C 45.1°F7.3°C 89% 2.3 mph WNW3.7 kmh WNW 2.4 mph3.9 kmh 30.23 in1023.7 mb 0.00 in0.0 mm 0.00 in0.0 mm 0.00 in0.0 mm
10:34 AM 41.6°F5.3°C 45.3°F7.4°C 90% 0.8 mph WNW1.3 kmh WNW 0.8 mph1.3 kmh 30.23 in1023.7 mb 0.00 in0.0 mm 0.00 in0.0 mm 0.00 in0.0 mm
10:35 AM 41.6°F5.3°C 45.4°F7.4°C 90% 2.7 mph WNW4.3 kmh WNW 2.7 mph4.3 kmh 30.23 in1023.7 mb 0.00 in0.0 mm 0.00 in0.0 mm 0.00 in0.0 mm
10:37 AM 41.6°F5.3°C 45.2°F7.3°C 89% 3.2 mph NNW5.1 kmh NNW 3.2 mph5.1 kmh 30.23 in1023.7 mb 0.00 in0.0 mm 0.00 in0.0 mm 0.00 in0.0 mm
10:40 AM 41.5°F5.3°C 45.3°F7.4°C 90% 3.6 mph WNW5.8 kmh WNW 3.6 mph5.8 kmh 30.23 in1023.7 mb 0.00 in0.0 mm 0.00 in0.0 mm 0.02 in0.5 mm
10:41 AM 41.5°F5.3°C 45.3°F7.4°C 90% 3.5 mph WNW5.6 kmh WNW 3.6 mph5.8 kmh 30.23 in1023.7 mb 0.00 in0.0 mm 0.00 in0.0 mm 0.02 in0.5 mm
10:43 AM 41.5°F5.3°C 45.5°F7.5°C 90% 5.2 mph WNW8.4 kmh WNW 5.2 mph8.4 kmh 30.23 in1023.7 mb 0.00 in0.0 mm 0.00 in0.0 mm 0.02 in0.5 mm
10:44 AM 41.5°F5.3°C 45.5°F7.5°C 90% 3.2 mph WNW5.1 kmh WNW 3.3 mph5.3 kmh 30.23 in1023.7 mb 0.00 in0.0 mm 0.00 in0.0 mm 0.02 in0.5 mm
10:46 AM 41.6°F5.3°C 45.3°F7.4°C 90% 3.6 mph WNW5.8 kmh WNW 3.7 mph6.0 kmh 30.23 in1023.7 mb 0.00 in0.0 mm 0.00 in0.0 mm 0.02 in0.5 mm
10:47 AM 41.6°F5.3°C 45.1°F7.3°C 90% 3.5 mph W5.6 kmh W 3.5 mph5.6 kmh 30.23 in1023.7 mb 0.00 in0.0 mm 0.00 in0.0 mm 0.02 in0.5 mm
10:49 AM 41.6°F5.3°C 45.2°F7.3°C 90% 2.4 mph W3.9 kmh W 2.5 mph4.0 kmh 30.23 in1023.7 mb 0.00 in0.0 mm 0.00 in0.0 mm 0.02 in0.5 mm
10:50 AM 41.6°F5.3°C 45.4°F7.4°C 90% 2.1 mph W3.4 kmh W 2.3 mph3.7 kmh 30.23 in1023.7 mb 0.00 in0.0 mm 0.00 in0.0 mm 0.02 in0.5 mm
10:52 AM 41.6°F5.3°C 45.2°F7.3°C 89% 2.0 mph W3.2 kmh W 2.0 mph3.2 kmh 30.22 in1023.4 mb 0.00 in0.0 mm 0.00 in0.0 mm 0.02 in0.5 mm
10:53 AM 41.6°F5.3°C 45.3°F7.4°C 90% 2.5 mph W4.0 kmh W 2.5 mph4.0 kmh 30.22 in1023.4 mb 0.00 in0.0 mm 0.00 in0.0 mm 0.02 in0.5 mm
10:55 AM 41.7°F5.4°C 45.2°F7.3°C 89% 3.6 mph WSW5.8 kmh WSW 3.7 mph6.0 kmh 30.22 in1023.4 mb 0.00 in0.0 mm 0.00 in0.0 mm 0.02 in0.5 mm
10:56 AM 41.7°F5.4°C 45.5°F7.5°C 90% 3.5 mph WSW5.6 kmh WSW 3.6 mph5.8 kmh 30.22 in1023.4 mb 0.00 in0.0 mm 0.00 in0.0 mm 0.02 in0.5 mm
10:58 AM 41.7°F5.4°C 45.5°F7.5°C 90% 1.2 mph W1.9 kmh W 1.2 mph1.9 kmh 30.22 in1023.4 mb 0.00 in0.0 mm 0.00 in0.0 mm 0.02 in0.5 mm
10:59 AM 41.7°F5.4°C 45.4°F7.4°C 90% 0.5 mph WNW0.8 kmh WNW 0.5 mph0.8 kmh 30.22 in1023.4 mb 0.00 in0.0 mm 0.00 in0.0 mm 0.02 in0.5 mm
11:01 AM 41.8°F5.4°C 45.5°F7.5°C 90% 1.5 mph NNW2.4 kmh NNW 1.6 mph2.6 kmh 30.22 in1023.4 mb 0.00 in0.0 mm 0.00 in0.0 mm 0.02 in0.5 mm
11:04 AM 41.8°F5.4°C 45.5°F7.5°C 90% 2.8 mph W4.5 kmh W 2.9 mph4.7 kmh 30.21 in1023.0 mb 0.00 in0.0 mm 0.00 in0.0 mm 0.02 in0.5 mm
11:05 AM 41.8°F5.4°C 45.5°F7.5°C 90% 4.0 mph W6.4 kmh W 4.0 mph6.4 kmh 30.22 in1023.4 mb 0.00 in0.0 mm 0.00 in0.0 mm 0.02 in0.5 mm
11:07 AM 41.8°F5.4°C 45.4°F7.4°C 90% 1.2 mph W1.9 kmh W 1.2 mph1.9 kmh 30.22 in1023.4 mb 0.00 in0.0 mm 0.00 in0.0 mm 0.02 in0.5 mm
11:08 AM 41.8°F5.4°C 45.5°F7.5°C 90% 1.4 mph W2.3 kmh W 1.4 mph2.3 kmh 30.22 in1023.4 mb 0.00 in0.0 mm 0.00 in0.0 mm 0.02 in0.5 mm
11:10 AM 41.8°F5.4°C 45.7°F7.6°C 90% 3.2 mph NNW5.1 kmh NNW 3.3 mph5.3 kmh 30.22 in1023.4 mb 0.00 in0.0 mm 0.00 in0.0 mm 0.02 in0.5 mm
11:11 AM 41.8°F5.4°C 45.5°F7.5°C 90% 3.5 mph W5.6 kmh W 3.5 mph5.6 kmh 30.22 in1023.4 mb 0.00 in0.0 mm 0.00 in0.0 mm 0.02 in0.5 mm
11:13 AM 41.8°F5.4°C 45.6°F7.6°C 90% Calm Calm -- 30.21 in1023.0 mb 0.00 in0.0 mm 0.00 in0.0 mm 0.02 in0.5 mm
11:14 AM 41.8°F5.4°C 45.4°F7.4°C 90% Calm Calm -- 30.20 in1022.7 mb 0.00 in0.0 mm 0.00 in0.0 mm 0.02 in0.5 mm
11:16 AM 41.8°F5.4°C 45.5°F7.5°C 90% 0.8 mph W1.3 kmh W 0.8 mph1.3 kmh 30.20 in1022.7 mb 0.00 in0.0 mm 0.00 in0.0 mm 0.02 in0.5 mm
11:17 AM 41.8°F5.4°C 45.6°F7.6°C 91% 2.5 mph W4.0 kmh W 2.7 mph4.3 kmh 30.20 in1022.7 mb 0.00 in0.0 mm 0.00 in0.0 mm 0.02 in0.5 mm
11:19 AM 41.7°F5.4°C 45.6°F7.6°C 90% 4.8 mph NW7.7 kmh NW 4.8 mph7.7 kmh 30.20 in1022.7 mb 0.00 in0.0 mm 0.00 in0.0 mm 0.02 in0.5 mm
11:20 AM 41.7°F5.4°C 45.5°F7.5°C 90% 5.6 mph NW9.0 kmh NW 5.7 mph9.2 kmh 30.21 in1023.0 mb 0.00 in0.0 mm 0.00 in0.0 mm 0.02 in0.5 mm
11:22 AM 41.8°F5.4°C 45.6°F7.6°C 91% Calm Calm -- 30.20 in1022.7 mb 0.00 in0.0 mm 0.00 in0.0 mm 0.02 in0.5 mm
11:23 AM 41.8°F5.4°C 45.5°F7.5°C 90% Calm Calm -- 30.20 in1022.7 mb 0.00 in0.0 mm 0.00 in0.0 mm 0.02 in0.5 mm
11:25 AM 41.9°F5.5°C 45.4°F7.4°C 90% 6.1 mph W9.8 kmh W 6.1 mph9.8 kmh 30.20 in1022.7 mb 0.00 in0.0 mm 0.00 in0.0 mm 0.02 in0.5 mm
11:26 AM 41.9°F5.5°C 45.5°F7.5°C 90% 4.2 mph W6.8 kmh W 4.6 mph7.4 kmh 30.21 in1023.0 mb 0.00 in0.0 mm 0.00 in0.0 mm 0.02 in0.5 mm
11:28 AM 41.8°F5.4°C 45.6°F7.6°C 90% 3.6 mph W5.8 kmh W 3.6 mph5.8 kmh 30.20 in1022.7 mb 0.00 in0.0 mm 0.00 in0.0 mm 0.02 in0.5 mm
11:29 AM 41.8°F5.4°C 45.6°F7.6°C 90% 3.5 mph WNW5.6 kmh WNW 3.6 mph5.8 kmh 30.20 in1022.7 mb 0.00 in0.0 mm 0.00 in0.0 mm 0.02 in0.5 mm
11:31 AM 41.8°F5.4°C 45.6°F7.6°C 90% 4.8 mph WNW7.7 kmh WNW 4.9 mph7.9 kmh 30.20 in1022.7 mb 0.00 in0.0 mm 0.00 in0.0 mm 0.02 in0.5 mm
11:32 AM 41.9°F5.5°C 45.3°F7.4°C 90% 3.5 mph NW5.6 kmh NW 3.6 mph5.8 kmh 30.20 in1022.7 mb 0.00 in0.0 mm 0.00 in0.0 mm 0.02 in0.5 mm
11:37 AM 41.8°F5.4°C 45.5°F7.5°C 90% 2.0 mph WNW3.2 kmh WNW 2.0 mph3.2 kmh 30.20 in1022.7 mb 0.00 in0.0 mm 0.00 in0.0 mm 0.02 in0.5 mm
11:40 AM 41.8°F5.4°C 45.3°F7.4°C 89% 2.4 mph NW3.9 kmh NW 2.4 mph3.9 kmh 30.20 in1022.7 mb 0.00 in0.0 mm 0.00 in0.0 mm 0.02 in0.5 mm
11:41 AM 41.8°F5.4°C 45.5°F7.5°C 91% 1.8 mph NW2.9 kmh NW 1.8 mph2.9 kmh 30.20 in1022.7 mb 0.00 in0.0 mm 0.00 in0.0 mm 0.02 in0.5 mm
11:43 AM 41.8°F5.4°C 45.3°F7.4°C 90% Calm Calm -- 30.20 in1022.7 mb 0.00 in0.0 mm 0.00 in0.0 mm 0.02 in0.5 mm
11:44 AM 41.7°F5.4°C 45.5°F7.5°C 90% 2.5 mph NNW4.0 kmh NNW 2.5 mph4.0 kmh 30.21 in1023.0 mb 0.00 in0.0 mm 0.00 in0.0 mm 0.02 in0.5 mm
11:46 AM 42.0°F5.6°C 45.5°F7.5°C 90% 7.3 mph W11.7 kmh W 7.3 mph11.7 kmh 30.20 in1022.7 mb 0.00 in0.0 mm 0.00 in0.0 mm 0.02 in0.5 mm
11:47 AM 42.0°F5.6°C 45.6°F7.6°C 90% 6.3 mph NW10.1 kmh NW 6.3 mph10.1 kmh 30.20 in1022.7 mb 0.00 in0.0 mm 0.00 in0.0 mm 0.02 in0.5 mm
11:49 AM 42.0°F5.6°C 45.4°F7.4°C 90% 3.2 mph WNW5.1 kmh WNW 3.3 mph5.3 kmh 30.20 in1022.7 mb 0.00 in0.0 mm 0.00 in0.0 mm 0.02 in0.5 mm
11:50 AM 42.0°F5.6°C 45.5°F7.5°C 90% 4.2 mph NW6.8 kmh NW 4.3 mph6.9 kmh 30.20 in1022.7 mb 0.00 in0.0 mm 0.00 in0.0 mm 0.02 in0.5 mm
11:52 AM 41.9°F5.5°C 45.4°F7.4°C 90% 3.6 mph NW5.8 kmh NW 3.7 mph6.0 kmh 30.20 in1022.7 mb 0.00 in0.0 mm 0.00 in0.0 mm 0.02 in0.5 mm
11:53 AM 42.0°F5.6°C 45.4°F7.4°C 90% 4.8 mph NNW7.7 kmh NNW 5.0 mph8.0 kmh 30.20 in1022.7 mb 0.02 in0.5 mm 1.20 in30.5 mm 0.04 in1.0 mm
11:55 AM 41.8°F5.4°C 45.6°F7.6°C 90% 3.6 mph NNW5.8 kmh NNW 3.7 mph6.0 kmh 30.20 in1022.7 mb 0.00 in0.0 mm 0.00 in0.0 mm 0.04 in1.0 mm
11:56 AM 41.8°F5.4°C 45.5°F7.5°C 90% 4.9 mph NW7.9 kmh NW 5.1 mph8.2 kmh 30.20 in1022.7 mb 0.00 in0.0 mm 0.00 in0.0 mm 0.04 in1.0 mm
11:58 AM 41.8°F5.4°C 45.3°F7.4°C 90% 2.0 mph NW3.2 kmh NW 2.0 mph3.2 kmh 30.21 in1023.0 mb 0.00 in0.0 mm 0.00 in0.0 mm 0.04 in1.0 mm
12:01 PM 41.8°F5.4°C 45.1°F7.3°C 89% 4.0 mph NNW6.4 kmh NNW 4.1 mph6.6 kmh 30.20 in1022.7 mb 0.00 in0.0 mm 0.00 in0.0 mm 0.04 in1.0 mm
12:04 PM 41.8°F5.4°C 45.5°F7.5°C 90% 3.2 mph NNW5.1 kmh NNW 3.2 mph5.1 kmh 30.21 in1023.0 mb 0.00 in0.0 mm 0.00 in0.0 mm 0.04 in1.0 mm
12:05 PM 41.8°F5.4°C 45.1°F7.3°C 90% 1.8 mph NNW2.9 kmh NNW 1.8 mph2.9 kmh 30.20 in1022.7 mb 0.00 in0.0 mm 0.00 in0.0 mm 0.04 in1.0 mm
12:07 PM 41.8°F5.4°C 45.1°F7.3°C 89% 4.0 mph WNW6.4 kmh WNW 4.1 mph6.6 kmh 30.21 in1023.0 mb 0.00 in0.0 mm 0.00 in0.0 mm 0.04 in1.0 mm
12:08 PM 41.8°F5.4°C 45.3°F7.4°C 90% 4.5 mph NW7.2 kmh NW 4.5 mph7.2 kmh 30.20 in1022.7 mb 0.00 in0.0 mm 0.00 in0.0 mm 0.04 in1.0 mm
12:10 PM 41.8°F5.4°C 45.4°F7.4°C 90% 4.5 mph NW7.2 kmh NW 4.5 mph7.2 kmh 30.20 in1022.7 mb 0.00 in0.0 mm 0.00 in0.0 mm 0.04 in1.0 mm
12:11 PM 41.8°F5.4°C 45.2°F7.3°C 90% 3.5 mph NW5.6 kmh NW 3.5 mph5.6 kmh 30.20 in1022.7 mb 0.00 in0.0 mm 0.00 in0.0 mm 0.04 in1.0 mm
12:13 PM 41.8°F5.4°C 45.5°F7.5°C 90% 2.0 mph NW3.2 kmh NW 2.0 mph3.2 kmh 30.20 in1022.7 mb 0.00 in0.0 mm 0.00 in0.0 mm 0.04 in1.0 mm
12:14 PM 41.8°F5.4°C 45.4°F7.4°C 90% 1.4 mph WNW2.3 kmh WNW 1.5 mph2.4 kmh 30.20 in1022.7 mb 0.00 in0.0 mm 0.00 in0.0 mm 0.04 in1.0 mm
12:16 PM 41.8°F5.4°C 45.1°F7.3°C 90% 7.3 mph WNW11.7 kmh WNW 7.3 mph11.7 kmh 30.20 in1022.7 mb 0.00 in0.0 mm 0.00 in0.0 mm 0.04 in1.0 mm
12:17 PM 41.8°F5.4°C 45.3°F7.4°C 90% 6.3 mph NW10.1 kmh NW 6.6 mph10.6 kmh 30.20 in1022.7 mb 0.00 in0.0 mm 0.00 in0.0 mm 0.04 in1.0 mm
12:19 PM 41.8°F5.4°C 45.3°F7.4°C 90% 2.0 mph NNW3.2 kmh NNW 2.0 mph3.2 kmh 30.20 in1022.7 mb 0.00 in0.0 mm 0.00 in0.0 mm 0.04 in1.0 mm
12:20 PM 41.8°F5.4°C 45.3°F7.4°C 90% 3.5 mph NNW5.6 kmh NNW 3.5 mph5.6 kmh 30.20 in1022.7 mb 0.00 in0.0 mm 0.00 in0.0 mm 0.04 in1.0 mm
12:22 PM 42.0°F5.6°C 45.4°F7.4°C 90% 3.2 mph NNW5.1 kmh NNW 3.3 mph5.3 kmh 30.20 in1022.7 mb 0.00 in0.0 mm 0.00 in0.0 mm 0.04 in1.0 mm
12:23 PM 42.0°F5.6°C 45.5°F7.5°C 90% 3.2 mph W5.1 kmh W 3.3 mph5.3 kmh 30.20 in1022.7 mb 0.00 in0.0 mm 0.00 in0.0 mm 0.04 in1.0 mm
12:25 PM 41.9°F5.5°C 45.3°F7.4°C 90% 6.8 mph NNW10.9 kmh NNW 6.8 mph10.9 kmh 30.20 in1022.7 mb 0.00 in0.0 mm 0.00 in0.0 mm 0.04 in1.0 mm
12:26 PM 41.9°F5.5°C 45.2°F7.3°C 90% 5.1 mph NNW8.2 kmh NNW 5.1 mph8.2 kmh 30.20 in1022.7 mb 0.00 in0.0 mm 0.00 in0.0 mm 0.04 in1.0 mm
12:28 PM 41.9°F5.5°C 45.5°F7.5°C 90% 2.0 mph W3.2 kmh W 2.0 mph3.2 kmh 30.20 in1022.7 mb 0.00 in0.0 mm 0.00 in0.0 mm 0.04 in1.0 mm
12:29 PM 41.9°F5.5°C 45.3°F7.4°C 90% 1.4 mph WNW2.3 kmh WNW 1.4 mph2.3 kmh 30.19 in1022.4 mb 0.00 in0.0 mm 0.00 in0.0 mm 0.04 in1.0 mm
12:31 PM 42.1°F5.6°C 45.6°F7.6°C 91% 5.3 mph WNW8.5 kmh WNW 5.3 mph8.5 kmh 30.19 in1022.4 mb 0.00 in0.0 mm 0.00 in0.0 mm 0.04 in1.0 mm
12:32 PM 42.1°F5.6°C 45.2°F7.3°C 90% 5.1 mph W8.2 kmh W 5.1 mph8.2 kmh 30.19 in1022.4 mb 0.00 in0.0 mm 0.00 in0.0 mm 0.04 in1.0 mm
12:34 PM 42.1°F5.6°C 45.7°F7.6°C 90% 3.6 mph NW5.8 kmh NW 3.7 mph6.0 kmh 30.19 in1022.4 mb 0.00 in0.0 mm 0.00 in0.0 mm 0.04 in1.0 mm
12:35 PM 42.1°F5.6°C 45.1°F7.3°C 89% 4.2 mph WNW6.8 kmh WNW 4.2 mph6.8 kmh 30.19 in1022.4 mb 0.00 in0.0 mm 0.00 in0.0 mm 0.04 in1.0 mm
12:37 PM 42.1°F5.6°C 45.6°F7.6°C 91% 3.8 mph NW6.1 kmh NW 4.1 mph6.6 kmh 30.19 in1022.4 mb 0.00 in0.0 mm 0.00 in0.0 mm 0.04 in1.0 mm
12:38 PM 42.1°F5.6°C 45.6°F7.6°C 90% 2.2 mph W3.5 kmh W 2.2 mph3.5 kmh 30.19 in1022.4 mb 0.00 in0.0 mm 0.00 in0.0 mm 0.04 in1.0 mm
12:40 PM 42.5°F5.8°C 45.6°F7.6°C 90% 3.2 mph W5.1 kmh W 3.2 mph5.1 kmh 30.19 in1022.4 mb 0.00 in0.0 mm 0.00 in0.0 mm 0.04 in1.0 mm
12:41 PM 42.5°F5.8°C 45.5°F7.5°C 90% 3.4 mph W5.5 kmh W 3.5 mph5.6 kmh 30.19 in1022.4 mb 0.00 in0.0 mm 0.00 in0.0 mm 0.04 in1.0 mm
12:46 PM 42.5°F5.8°C 45.5°F7.5°C 90% 5.3 mph WNW8.5 kmh WNW 5.3 mph8.5 kmh 30.18 in1022.0 mb 0.00 in0.0 mm 0.00 in0.0 mm 0.04 in1.0 mm
12:47 PM 42.5°F5.8°C 45.8°F7.7°C 91% 6.1 mph W9.8 kmh W 6.2 mph10.0 kmh 30.19 in1022.4 mb 0.00 in0.0 mm 0.00 in0.0 mm 0.04 in1.0 mm
12:49 PM 42.5°F5.8°C 45.6°F7.6°C 90% 1.2 mph W1.9 kmh W 1.2 mph1.9 kmh 30.18 in1022.0 mb 0.00 in0.0 mm 0.00 in0.0 mm 0.04 in1.0 mm
12:50 PM 42.5°F5.8°C 45.7°F7.6°C 90% 2.8 mph WNW4.5 kmh WNW 2.8 mph4.5 kmh 30.18 in1022.0 mb 0.00 in0.0 mm 0.00 in0.0 mm 0.04 in1.0 mm
12:52 PM 42.4°F5.8°C 45.7°F7.6°C 90% 3.6 mph NNW5.8 kmh NNW 3.7 mph6.0 kmh 30.18 in1022.0 mb 0.00 in0.0 mm 0.00 in0.0 mm 0.04 in1.0 mm
12:53 PM 42.5°F5.8°C 45.6°F7.6°C 90% 4.6 mph W7.4 kmh W 4.6 mph7.4 kmh 30.18 in1022.0 mb 0.00 in0.0 mm 0.00 in0.0 mm 0.04 in1.0 mm
12:55 PM 42.4°F5.8°C 45.7°F7.6°C 90% 2.0 mph W3.2 kmh W 2.0 mph3.2 kmh 30.18 in1022.0 mb 0.00 in0.0 mm 0.00 in0.0 mm 0.04 in1.0 mm
12:56 PM 42.4°F5.8°C 45.8°F7.7°C 90% 2.3 mph W3.7 kmh W 2.3 mph3.7 kmh 30.17 in1021.7 mb 0.00 in0.0 mm 0.00 in0.0 mm 0.04 in1.0 mm
12:58 PM 42.4°F5.8°C 45.7°F7.6°C 90% 4.8 mph WNW7.7 kmh WNW 4.8 mph7.7 kmh 30.17 in1021.7 mb 0.00 in0.0 mm 0.00 in0.0 mm 0.04 in1.0 mm
12:59 PM 42.5°F5.8°C 46.0°F7.8°C 90% 3.5 mph W5.6 kmh W 3.5 mph5.6 kmh 30.17 in1021.7 mb 0.00 in0.0 mm 0.00 in0.0 mm 0.04 in1.0 mm
01:01 PM 42.4°F5.8°C 45.3°F7.4°C 89% 4.0 mph WNW6.4 kmh WNW 4.0 mph6.4 kmh 30.17 in1021.7 mb 0.00 in0.0 mm 0.00 in0.0 mm 0.04 in1.0 mm
01:04 PM 42.1°F5.6°C 45.7°F7.6°C 90% 3.6 mph W5.8 kmh W 3.7 mph6.0 kmh 30.17 in1021.7 mb 0.00 in0.0 mm 0.00 in0.0 mm 0.04 in1.0 mm
01:05 PM 42.0°F5.6°C 45.6°F7.6°C 90% 4.1 mph W6.6 kmh W 4.1 mph6.6 kmh 30.17 in1021.7 mb 0.00 in0.0 mm 0.00 in0.0 mm 0.04 in1.0 mm
01:07 PM 42.0°F5.6°C 45.5°F7.5°C 90% 4.9 mph WSW7.9 kmh WSW 4.9 mph7.9 kmh 30.16 in1021.3 mb 0.00 in0.0 mm 0.00 in0.0 mm 0.04 in1.0 mm
01:08 PM 42.1°F5.6°C 45.6°F7.6°C 90% 4.4 mph WSW7.1 kmh WSW 4.4 mph7.1 kmh 30.17 in1021.7 mb 0.00 in0.0 mm 0.00 in0.0 mm 0.04 in1.0 mm
01:10 PM 41.9°F5.5°C 45.6°F7.6°C 90% 2.8 mph NNW4.5 kmh NNW 2.8 mph4.5 kmh 30.16 in1021.3 mb 0.00 in0.0 mm 0.00 in0.0 mm 0.04 in1.0 mm
01:13 PM 41.9°F5.5°C 45.5°F7.5°C 90% 7.7 mph NNW12.4 kmh NNW 7.7 mph12.4 kmh 30.16 in1021.3 mb 0.00 in0.0 mm 0.00 in0.0 mm 0.06 in1.5 mm
01:16 PM 41.8°F5.4°C 45.4°F7.4°C 90% 1.6 mph W2.6 kmh W 1.6 mph2.6 kmh 30.16 in1021.3 mb 0.00 in0.0 mm 0.00 in0.0 mm 0.06 in1.5 mm
01:19 PM 41.8°F5.4°C 45.4°F7.4°C 90% 4.8 mph NW7.7 kmh NW 4.8 mph7.7 kmh 30.16 in1021.3 mb 0.00 in0.0 mm 0.00 in0.0 mm 0.06 in1.5 mm
01:20 PM 41.7°F5.4°C 45.4°F7.4°C 90% 4.8 mph NW7.7 kmh NW 4.8 mph7.7 kmh 30.16 in1021.3 mb 0.00 in0.0 mm 0.00 in0.0 mm 0.06 in1.5 mm
01:22 PM 41.8°F5.4°C 45.4°F7.4°C 90% 6.5 mph NNW10.5 kmh NNW 6.5 mph10.5 kmh 30.16 in1021.3 mb 0.00 in0.0 mm 0.00 in0.0 mm 0.06 in1.5 mm
01:23 PM 41.8°F5.4°C 45.2°F7.3°C 89% 4.4 mph NNW7.1 kmh NNW 4.5 mph7.2 kmh 30.16 in1021.3 mb 0.00 in0.0 mm 0.00 in0.0 mm 0.06 in1.5 mm
01:25 PM 41.7°F5.4°C 45.4°F7.4°C 90% 5.6 mph W9.0 kmh W 5.6 mph9.0 kmh 30.16 in1021.3 mb 0.00 in0.0 mm 0.00 in0.0 mm 0.06 in1.5 mm
01:26 PM 41.7°F5.4°C 45.3°F7.4°C 90% 5.7 mph WNW9.2 kmh WNW 5.9 mph9.5 kmh 30.16 in1021.3 mb 0.00 in0.0 mm 0.00 in0.0 mm 0.06 in1.5 mm
01:28 PM 41.6°F5.3°C 45.3°F7.4°C 90% 8.1 mph WNW13.0 kmh WNW 8.1 mph13.0 kmh 30.16 in1021.3 mb 0.00 in0.0 mm 0.00 in0.0 mm 0.06 in1.5 mm
01:29 PM 41.6°F5.3°C 45.3°F7.4°C 90% 6.2 mph SW10.0 kmh SW 6.4 mph10.3 kmh 30.16 in1021.3 mb 0.00 in0.0 mm 0.00 in0.0 mm 0.06 in1.5 mm
01:31 PM 41.6°F5.3°C 45.2°F7.3°C 89% 3.6 mph NNW5.8 kmh NNW 3.7 mph6.0 kmh 30.16 in1021.3 mb 0.00 in0.0 mm 0.00 in0.0 mm 0.06 in1.5 mm
01:32 PM 41.6°F5.3°C 45.3°F7.4°C 90% 3.9 mph NW6.3 kmh NW 4.0 mph6.4 kmh 30.16 in1021.3 mb 0.00 in0.0 mm 0.00 in0.0 mm 0.06 in1.5 mm
01:34 PM 41.6°F5.3°C 45.1°F7.3°C 89% 3.5 mph W5.6 kmh W 3.5 mph5.6 kmh 30.16 in1021.3 mb 0.00 in0.0 mm 0.00 in0.0 mm 0.06 in1.5 mm
01:35 PM 41.6°F5.3°C 45.2°F7.3°C 90% 3.3 mph WNW5.3 kmh WNW 3.3 mph5.3 kmh 30.16 in1021.3 mb 0.00 in0.0 mm 0.00 in0.0 mm 0.06 in1.5 mm
01:40 PM 41.3°F5.2°C 45.0°F7.2°C 89% 6.0 mph NW9.7 kmh NW 6.0 mph9.7 kmh 30.15 in1021.0 mb 0.00 in0.0 mm 0.00 in0.0 mm 0.06 in1.5 mm
01:41 PM 41.3°F5.2°C 45.2°F7.3°C 90% 5.5 mph NW8.9 kmh NW 5.5 mph8.9 kmh 30.16 in1021.3 mb 0.00 in0.0 mm 0.00 in0.0 mm 0.06 in1.5 mm
01:43 PM 41.3°F5.2°C 45.2°F7.3°C 90% 5.3 mph WNW8.5 kmh WNW 5.3 mph8.5 kmh 30.15 in1021.0 mb 0.00 in0.0 mm 0.00 in0.0 mm 0.06 in1.5 mm
01:44 PM 41.3°F5.2°C 45.0°F7.2°C 89% 6.1 mph WNW9.8 kmh WNW 6.1 mph9.8 kmh 30.16 in1021.3 mb 0.00 in0.0 mm 0.00 in0.0 mm 0.06 in1.5 mm
01:46 PM 41.2°F5.1°C 45.0°F7.2°C 89% 2.8 mph WNW4.5 kmh WNW 2.9 mph4.7 kmh 30.15 in1021.0 mb 0.00 in0.0 mm 0.00 in0.0 mm 0.06 in1.5 mm
01:47 PM 41.2°F5.1°C 45.3°F7.4°C 90% 3.0 mph NW4.8 kmh NW 3.0 mph4.8 kmh 30.15 in1021.0 mb 0.00 in0.0 mm 0.00 in0.0 mm 0.06 in1.5 mm
01:49 PM 41.2°F5.1°C 45.0°F7.2°C 90% 6.5 mph W10.5 kmh W 6.5 mph10.5 kmh 30.16 in1021.3 mb 0.00 in0.0 mm 0.00 in0.0 mm 0.06 in1.5 mm
01:50 PM 41.2°F5.1°C 45.1°F7.3°C 90% 6.1 mph WSW9.8 kmh WSW 6.1 mph9.8 kmh 30.15 in1021.0 mb 0.00 in0.0 mm 0.00 in0.0 mm 0.06 in1.5 mm
01:52 PM 41.2°F5.1°C 45.0°F7.2°C 89% 2.0 mph W3.2 kmh W 2.0 mph3.2 kmh 30.15 in1021.0 mb 0.00 in0.0 mm 0.00 in0.0 mm 0.06 in1.5 mm
01:53 PM 41.2°F5.1°C 45.3°F7.4°C 90% 2.5 mph W4.0 kmh W 2.5 mph4.0 kmh 30.15 in1021.0 mb 0.00 in0.0 mm 0.00 in0.0 mm 0.06 in1.5 mm
01:55 PM 41.2°F5.1°C 45.0°F7.2°C 90% 3.6 mph W5.8 kmh W 3.7 mph6.0 kmh 30.15 in1021.0 mb 0.00 in0.0 mm 0.00 in0.0 mm 0.06 in1.5 mm
01:56 PM 41.2°F5.1°C 45.2°F7.3°C 90% 2.7 mph WNW4.3 kmh WNW 2.7 mph4.3 kmh 30.15 in1021.0 mb 0.00 in0.0 mm 0.00 in0.0 mm 0.06 in1.5 mm
01:58 PM 41.2°F5.1°C 45.1°F7.3°C 90% 6.0 mph NW9.7 kmh NW 6.1 mph9.8 kmh 30.16 in1021.3 mb 0.00 in0.0 mm 0.00 in0.0 mm 0.06 in1.5 mm
01:59 PM 41.2°F5.1°C 45.1°F7.3°C 90% 3.7 mph NW6.0 kmh NW 3.8 mph6.1 kmh 30.15 in1021.0 mb 0.00 in0.0 mm 0.00 in0.0 mm 0.06 in1.5 mm
02:01 PM 41.2°F5.1°C 45.1°F7.3°C 90% 4.8 mph 7.7 kmh 4.9 mph7.9 kmh 30.15 in1021.0 mb 0.00 in0.0 mm 0.00 in0.0 mm 0.06 in1.5 mm
02:02 PM 41.1°F5.1°C 45.0°F7.2°C 90% 4.6 mph NNW7.4 kmh NNW 4.6 mph7.4 kmh 30.15 in1021.0 mb 0.00 in0.0 mm 0.00 in0.0 mm 0.06 in1.5 mm
02:04 PM 41.0°F5.0°C 44.9°F7.2°C 90% 2.8 mph NNW4.5 kmh NNW 2.9 mph4.7 kmh 30.15 in1021.0 mb 0.00 in0.0 mm 0.00 in0.0 mm 0.06 in1.5 mm
02:07 PM 41.0°F5.0°C 44.8°F7.1°C 89% 3.6 mph NNW5.8 kmh NNW 3.7 mph6.0 kmh 30.15 in1021.0 mb 0.00 in0.0 mm 0.00 in0.0 mm 0.06 in1.5 mm
02:10 PM 41.0°F5.0°C 44.7°F7.1°C 90% 5.7 mph NW9.2 kmh NW 5.7 mph9.2 kmh 30.15 in1021.0 mb 0.00 in0.0 mm 0.00 in0.0 mm 0.06 in1.5 mm
02:11 PM 41.0°F5.0°C 45.1°F7.3°C 90% 6.6 mph NW10.6 kmh NW 6.6 mph10.6 kmh 30.16 in1021.3 mb 0.00 in0.0 mm 0.00 in0.0 mm 0.06 in1.5 mm
02:13 PM 41.0°F5.0°C 44.8°F7.1°C 90% 7.6 mph WNW12.2 kmh WNW 7.6 mph12.2 kmh 30.15 in1021.0 mb 0.00 in0.0 mm 0.00 in0.0 mm 0.06 in1.5 mm
02:14 PM 41.0°F5.0°C 44.8°F7.1°C 90% 6.0 mph WNW9.7 kmh WNW 6.0 mph9.7 kmh 30.15 in1021.0 mb 0.00 in0.0 mm 0.00 in0.0 mm 0.06 in1.5 mm
02:16 PM 41.0°F5.0°C 45.1°F7.3°C 90% 4.0 mph NW6.4 kmh NW 4.0 mph6.4 kmh 30.15 in1021.0 mb 0.00 in0.0 mm 0.00 in0.0 mm 0.08 in2.0 mm
02:19 PM 40.9°F4.9°C 44.8°F7.1°C 89% 3.4 mph NW5.5 kmh NW 3.4 mph5.5 kmh 30.15 in1021.0 mb 0.00 in0.0 mm 0.00 in0.0 mm 0.08 in2.0 mm
02:20 PM 40.9°F4.9°C 45.0°F7.2°C 90% 2.7 mph NW4.3 kmh NW 2.7 mph4.3 kmh 30.15 in1021.0 mb 0.00 in0.0 mm 0.00 in0.0 mm 0.08 in2.0 mm
02:22 PM 41.0°F5.0°C 44.9°F7.2°C 90% 2.0 mph W3.2 kmh W 2.0 mph3.2 kmh 30.15 in1021.0 mb 0.00 in0.0 mm 0.00 in0.0 mm 0.08 in2.0 mm
02:23 PM 41.0°F5.0°C 45.1°F7.3°C 90% 1.8 mph W2.9 kmh W 1.8 mph2.9 kmh 30.15 in1021.0 mb 0.00 in0.0 mm 0.00 in0.0 mm 0.08 in2.0 mm
02:25 PM 40.9°F4.9°C 44.8°F7.1°C 90% 5.2 mph NNW8.4 kmh NNW 5.2 mph8.4 kmh 30.14 in1020.7 mb 0.00 in0.0 mm 0.00 in0.0 mm 0.08 in2.0 mm
02:28 PM 40.9°F4.9°C 44.9°F7.2°C 90% 4.8 mph NW7.7 kmh NW 4.8 mph7.7 kmh 30.14 in1020.7 mb 0.00 in0.0 mm 0.00 in0.0 mm 0.08 in2.0 mm
02:29 PM 40.9°F4.9°C 45.0°F7.2°C 90% 4.1 mph NW6.6 kmh NW 4.1 mph6.6 kmh 30.14 in1020.7 mb 0.00 in0.0 mm 0.00 in0.0 mm 0.08 in2.0 mm
02:31 PM 40.8°F4.9°C 45.1°F7.3°C 90% 2.8 mph NNW4.5 kmh NNW 2.9 mph4.7 kmh 30.14 in1020.7 mb 0.00 in0.0 mm 0.00 in0.0 mm 0.08 in2.0 mm
02:32 PM 40.9°F4.9°C 45.0°F7.2°C 90% 3.0 mph WNW4.8 kmh WNW 3.0 mph4.8 kmh 30.14 in1020.7 mb 0.00 in0.0 mm 0.00 in0.0 mm 0.08 in2.0 mm
02:34 PM 40.9°F4.9°C 45.1°F7.3°C 90% 6.5 mph NW10.5 kmh NW 6.5 mph10.5 kmh 30.14 in1020.7 mb 0.00 in0.0 mm 0.00 in0.0 mm 0.08 in2.0 mm
02:37 PM 40.8°F4.9°C 45.1°F7.3°C 90% 3.2 mph NNW5.1 kmh NNW 3.3 mph5.3 kmh 30.14 in1020.7 mb 0.00 in0.0 mm 0.00 in0.0 mm 0.08 in2.0 mm
02:38 PM 40.9°F4.9°C 45.1°F7.3°C 90% 2.3 mph NNW3.7 kmh NNW 2.5 mph4.0 kmh 30.14 in1020.7 mb 0.00 in0.0 mm 0.00 in0.0 mm 0.08 in2.0 mm
02:40 PM 40.8°F4.9°C 45.0°F7.2°C 90% Calm Calm -- 30.13 in1020.3 mb 0.00 in0.0 mm 0.00 in0.0 mm 0.08 in2.0 mm
02:41 PM 40.8°F4.9°C 45.0°F7.2°C 90% Calm Calm -- 30.14 in1020.7 mb 0.00 in0.0 mm 0.00 in0.0 mm 0.08 in2.0 mm
02:43 PM 40.8°F4.9°C 44.8°F7.1°C 90% 2.0 mph W3.2 kmh W 2.0 mph3.2 kmh 30.14 in1020.7 mb 0.00 in0.0 mm 0.00 in0.0 mm 0.08 in2.0 mm
02:44 PM 40.8°F4.9°C 44.9°F7.2°C 90% 2.0 mph W3.2 kmh W 2.0 mph3.2 kmh 30.14 in1020.7 mb 0.00 in0.0 mm 0.00 in0.0 mm 0.08 in2.0 mm
02:46 PM 40.7°F4.8°C 44.3°F6.8°C 89% 4.0 mph NW6.4 kmh NW 4.0 mph6.4 kmh 30.14 in1020.7 mb 0.00 in0.0 mm 0.00 in0.0 mm 0.10 in2.5 mm
02:47 PM 40.8°F4.9°C 44.9°F7.2°C 90% 3.0 mph NW4.8 kmh NW 3.0 mph4.8 kmh 30.14 in1020.7 mb 0.00 in0.0 mm 0.00 in0.0 mm 0.10 in2.5 mm
02:49 PM 40.7°F4.8°C 45.0°F7.2°C 90% 1.2 mph NW1.9 kmh NW 1.2 mph1.9 kmh 30.14 in1020.7 mb 0.00 in0.0 mm 0.00 in0.0 mm 0.10 in2.5 mm
02:52 PM 40.8°F4.9°C 44.9°F7.2°C 90% 4.4 mph NW7.1 kmh NW 4.4 mph7.1 kmh 30.14 in1020.7 mb 0.00 in0.0 mm 0.00 in0.0 mm 0.10 in2.5 mm
02:53 PM 40.8°F4.9°C 45.0°F7.2°C 90% 4.5 mph NW7.2 kmh NW 4.7 mph7.6 kmh 30.13 in1020.3 mb 0.00 in0.0 mm 0.00 in0.0 mm 0.10 in2.5 mm
02:55 PM 40.7°F4.8°C 45.2°F7.3°C 90% 3.6 mph NW5.8 kmh NW 3.6 mph5.8 kmh 30.13 in1020.3 mb 0.00 in0.0 mm 0.00 in0.0 mm 0.10 in2.5 mm
02:56 PM 40.8°F4.9°C 44.8°F7.1°C 90% 3.7 mph NW6.0 kmh NW 3.7 mph6.0 kmh 30.13 in1020.3 mb 0.00 in0.0 mm 0.00 in0.0 mm 0.10 in2.5 mm
02:58 PM 40.7°F4.8°C 44.5°F6.9°C 89% 3.6 mph NW5.8 kmh NW 3.6 mph5.8 kmh 30.13 in1020.3 mb 0.00 in0.0 mm 0.00 in0.0 mm 0.10 in2.5 mm
02:59 PM 40.7°F4.8°C 44.7°F7.1°C 90% 4.9 mph NNW7.9 kmh NNW 4.9 mph7.9 kmh 30.13 in1020.3 mb 0.00 in0.0 mm 0.00 in0.0 mm 0.10 in2.5 mm
03:01 PM 40.7°F4.8°C 44.8°F7.1°C 90% 3.2 mph NNW5.1 kmh NNW 3.3 mph5.3 kmh 30.13 in1020.3 mb 0.00 in0.0 mm 0.00 in0.0 mm 0.10 in2.5 mm
03:02 PM 40.7°F4.8°C 45.2°F7.3°C 90% 3.9 mph NW6.3 kmh NW 3.9 mph6.3 kmh 30.13 in1020.3 mb 0.00 in0.0 mm 0.00 in0.0 mm 0.10 in2.5 mm
03:04 PM 40.7°F4.8°C 45.0°F7.2°C 90% 4.0 mph WNW6.4 kmh WNW 4.0 mph6.4 kmh 30.13 in1020.3 mb 0.00 in0.0 mm 0.00 in0.0 mm 0.10 in2.5 mm
03:07 PM 40.7°F4.8°C 44.9°F7.2°C 91% 3.2 mph NNW5.1 kmh NNW 3.2 mph5.1 kmh 30.13 in1020.3 mb 0.00 in0.0 mm 0.00 in0.0 mm 0.10 in2.5 mm
03:08 PM 40.7°F4.8°C 44.8°F7.1°C 90% 3.5 mph NNW5.6 kmh NNW 3.6 mph5.8 kmh 30.13 in1020.3 mb 0.00 in0.0 mm 0.00 in0.0 mm 0.10 in2.5 mm
03:10 PM 40.7°F4.8°C 44.9°F7.2°C 90% 3.9 mph NNW6.3 kmh NNW 4.0 mph6.4 kmh 30.13 in1020.3 mb 0.00 in0.0 mm 0.00 in0.0 mm 0.10 in2.5 mm
03:11 PM 40.8°F4.9°C 45.0°F7.2°C 90% 3.7 mph WNW6.0 kmh WNW 3.7 mph6.0 kmh 30.13 in1020.3 mb 0.00 in0.0 mm 0.00 in0.0 mm 0.10 in2.5 mm
03:13 PM 40.8°F4.9°C 45.1°F7.3°C 90% 4.4 mph NNW7.1 kmh NNW 4.4 mph7.1 kmh 30.13 in1020.3 mb 0.00 in0.0 mm 0.00 in0.0 mm 0.10 in2.5 mm
03:14 PM 40.7°F4.8°C 44.7°F7.1°C 90% 2.5 mph NW4.0 kmh NW 2.8 mph4.5 kmh 30.13 in1020.3 mb 0.00 in0.0 mm 0.00 in0.0 mm 0.10 in2.5 mm
03:16 PM 40.7°F4.8°C 44.9°F7.2°C 90% 5.6 mph NW9.0 kmh NW 5.6 mph9.0 kmh 30.12 in1020.0 mb 0.00 in0.0 mm 0.00 in0.0 mm 0.10 in2.5 mm
03:17 PM 40.7°F4.8°C 44.9°F7.2°C 90% 5.0 mph NW8.0 kmh NW 5.0 mph8.0 kmh 30.13 in1020.3 mb 0.00 in0.0 mm 0.00 in0.0 mm 0.10 in2.5 mm
03:19 PM 40.7°F4.8°C 45.0°F7.2°C 90% 5.7 mph NNW9.2 kmh NNW 5.7 mph9.2 kmh 30.12 in1020.0 mb 0.00 in0.0 mm 0.00 in0.0 mm 0.12 in3.0 mm
03:20 PM 40.7°F4.8°C 44.6°F7.0°C 90% 4.2 mph NNW6.8 kmh NNW 4.4 mph7.1 kmh 30.13 in1020.3 mb 0.00 in0.0 mm 0.00 in0.0 mm 0.12 in3.0 mm
03:22 PM 40.7°F4.8°C 44.8°F7.1°C 90% 3.2 mph NNW5.1 kmh NNW 3.2 mph5.1 kmh 30.11 in1019.6 mb 0.00 in0.0 mm 0.00 in0.0 mm 0.12 in3.0 mm
03:23 PM 40.8°F4.9°C 44.8°F7.1°C 90% 1.6 mph 2.6 kmh 1.6 mph2.6 kmh 30.11 in1019.6 mb 0.00 in0.0 mm 0.00 in0.0 mm 0.12 in3.0 mm
03:25 PM 40.8°F4.9°C 45.0°F7.2°C 90% 2.8 mph NNW4.5 kmh NNW 2.9 mph4.7 kmh 30.11 in1019.6 mb 0.00 in0.0 mm 0.00 in0.0 mm 0.12 in3.0 mm
03:26 PM 40.8°F4.9°C 44.7°F7.1°C 90% 3.7 mph NW6.0 kmh NW 3.7 mph6.0 kmh 30.12 in1020.0 mb 0.00 in0.0 mm 0.00 in0.0 mm 0.12 in3.0 mm
03:28 PM 40.8°F4.9°C 45.0°F7.2°C 90% 9.5 mph NW15.3 kmh NW 9.6 mph15.4 kmh 30.11 in1019.6 mb 0.00 in0.0 mm 0.00 in0.0 mm 0.12 in3.0 mm
03:29 PM 40.8°F4.9°C 44.8°F7.1°C 90% 8.2 mph NW13.2 kmh NW 8.2 mph13.2 kmh 30.11 in1019.6 mb 0.00 in0.0 mm 0.00 in0.0 mm 0.12 in3.0 mm
03:31 PM 40.9°F4.9°C 44.7°F7.1°C 90% 2.4 mph NW3.9 kmh NW 2.4 mph3.9 kmh 30.11 in1019.6 mb 0.00 in0.0 mm 0.00 in0.0 mm 0.12 in3.0 mm
03:32 PM 40.9°F4.9°C 44.8°F7.1°C 90% 3.0 mph NW4.8 kmh NW 3.1 mph5.0 kmh 30.12 in1020.0 mb 0.00 in0.0 mm 0.00 in0.0 mm 0.12 in3.0 mm
03:34 PM 40.9°F4.9°C 44.6°F7.0°C 90% 1.9 mph 3.1 kmh 2.0 mph3.2 kmh 30.12 in1020.0 mb 0.00 in0.0 mm 0.00 in0.0 mm 0.12 in3.0 mm
03:35 PM 40.9°F4.9°C 44.4°F6.9°C 89% 3.4 mph 5.5 kmh 3.4 mph5.5 kmh 30.11 in1019.6 mb 0.00 in0.0 mm 0.00 in0.0 mm 0.12 in3.0 mm
03:37 PM 40.8°F4.9°C 44.8°F7.1°C 90% 5.2 mph NNW8.4 kmh NNW 5.2 mph8.4 kmh 30.11 in1019.6 mb 0.00 in0.0 mm 0.00 in0.0 mm 0.12 in3.0 mm
03:38 PM 40.9°F4.9°C 44.7°F7.1°C 90% 4.6 mph NW7.4 kmh NW 4.6 mph7.4 kmh 30.11 in1019.6 mb 0.00 in0.0 mm 0.00 in0.0 mm 0.12 in3.0 mm
03:40 PM 40.9°F4.9°C 44.9°F7.2°C 90% 3.6 mph NW5.8 kmh NW 3.7 mph6.0 kmh 30.12 in1020.0 mb 0.00 in0.0 mm 0.00 in0.0 mm 0.12 in3.0 mm
03:43 PM 41.0°F5.0°C 44.7°F7.1°C 90% 5.2 mph NW8.4 kmh NW 5.3 mph8.5 kmh 30.11 in1019.6 mb 0.00 in0.0 mm 0.00 in0.0 mm 0.12 in3.0 mm
03:46 PM 40.9°F4.9°C 44.8°F7.1°C 90% 2.7 mph NW4.3 kmh NW 2.9 mph4.7 kmh 30.12 in1020.0 mb 0.00 in0.0 mm 0.00 in0.0 mm 0.12 in3.0 mm
03:47 PM 40.9°F4.9°C 44.9°F7.2°C 90% 1.8 mph NW2.9 kmh NW 1.8 mph2.9 kmh 30.11 in1019.6 mb 0.00 in0.0 mm 0.00 in0.0 mm 0.12 in3.0 mm
03:49 PM 40.8°F4.9°C 44.8°F7.1°C 90% 6.8 mph NW10.9 kmh NW 6.8 mph10.9 kmh 30.12 in1020.0 mb 0.00 in0.0 mm 0.00 in0.0 mm 0.12 in3.0 mm
03:50 PM 40.8°F4.9°C 44.8°F7.1°C 90% 8.3 mph WNW13.4 kmh WNW 8.3 mph13.4 kmh 30.11 in1019.6 mb 0.00 in0.0 mm 0.00 in0.0 mm 0.12 in3.0 mm
03:52 PM 40.8°F4.9°C 44.5°F6.9°C 89% 5.5 mph NNW8.9 kmh NNW 5.6 mph9.0 kmh 30.11 in1019.6 mb 0.00 in0.0 mm 0.00 in0.0 mm 0.12 in3.0 mm
03:53 PM 40.8°F4.9°C 45.1°F7.3°C 90% 6.1 mph 9.8 kmh 6.1 mph9.8 kmh 30.11 in1019.6 mb 0.00 in0.0 mm 0.00 in0.0 mm 0.12 in3.0 mm
03:55 PM 40.9°F4.9°C 44.9°F7.2°C 91% 5.2 mph NW8.4 kmh NW 5.3 mph8.5 kmh 30.11 in1019.6 mb 0.00 in0.0 mm 0.00 in0.0 mm 0.12 in3.0 mm
03:58 PM 40.9°F4.9°C 44.7°F7.1°C 90% 5.2 mph NNW8.4 kmh NNW 5.2 mph8.4 kmh 30.11 in1019.6 mb 0.00 in0.0 mm 0.00 in0.0 mm 0.12 in3.0 mm
03:59 PM 40.9°F4.9°C 44.9°F7.2°C 91% 3.9 mph NE6.3 kmh NE 3.9 mph6.3 kmh 30.11 in1019.6 mb 0.00 in0.0 mm 0.00 in0.0 mm 0.12 in3.0 mm
04:01 PM 41.0°F5.0°C 44.8°F7.1°C 90% 6.4 mph NW10.3 kmh NW 6.4 mph10.3 kmh 30.11 in1019.6 mb 0.00 in0.0 mm 0.00 in0.0 mm 0.12 in3.0 mm
04:02 PM 40.9°F4.9°C 44.8°F7.1°C 90% 5.2 mph NW8.4 kmh NW 5.3 mph8.5 kmh 30.11 in1019.6 mb 0.00 in0.0 mm 0.00 in0.0 mm 0.12 in3.0 mm
04:04 PM 40.9°F4.9°C 45.0°F7.2°C 91% 4.4 mph NW7.1 kmh NW 4.4 mph7.1 kmh 30.11 in1019.6 mb 0.00 in0.0 mm 0.00 in0.0 mm 0.12 in3.0 mm
04:05 PM 40.9°F4.9°C 44.7°F7.1°C 90% 3.0 mph WNW4.8 kmh WNW 3.0 mph4.8 kmh 30.11 in1019.6 mb 0.00 in0.0 mm 0.00 in0.0 mm 0.12 in3.0 mm
04:07 PM 40.9°F4.9°C 44.8°F7.1°C 90% 6.1 mph NW9.8 kmh NW 6.1 mph9.8 kmh 30.11 in1019.6 mb 0.00 in0.0 mm 0.00 in0.0 mm 0.12 in3.0 mm
04:08 PM 40.9°F4.9°C 44.9°F7.2°C 90% 6.3 mph WNW10.1 kmh WNW 6.3 mph10.1 kmh 30.11 in1019.6 mb 0.00 in0.0 mm 0.00 in0.0 mm 0.12 in3.0 mm
04:10 PM 40.8°F4.9°C 44.7°F7.1°C 90% 5.7 mph WNW9.2 kmh WNW 5.7 mph9.2 kmh 30.11 in1019.6 mb 0.00 in0.0 mm 0.00 in0.0 mm 0.14 in3.6 mm
04:11 PM 40.9°F4.9°C 44.8°F7.1°C 90% 5.6 mph NW9.0 kmh NW 5.6 mph9.0 kmh 30.11 in1019.6 mb 0.00 in0.0 mm 0.00 in0.0 mm 0.14 in3.6 mm
04:13 PM 40.9°F4.9°C 44.6°F7.0°C 90% 4.9 mph NNW7.9 kmh NNW 4.9 mph7.9 kmh 30.11 in1019.6 mb 0.00 in0.0 mm 0.00 in0.0 mm 0.14 in3.6 mm
04:14 PM 40.9°F4.9°C 44.8°F7.1°C 90% 3.9 mph W6.3 kmh W 4.0 mph6.4 kmh 30.11 in1019.6 mb 0.00 in0.0 mm 0.00 in0.0 mm 0.14 in3.6 mm
04:16 PM 40.9°F4.9°C 44.9°F7.2°C 90% 5.7 mph NW9.2 kmh NW 5.7 mph9.2 kmh 30.11 in1019.6 mb 0.00 in0.0 mm 0.00 in0.0 mm 0.14 in3.6 mm
04:17 PM 40.9°F4.9°C 45.1°F7.3°C 91% 5.1 mph NW8.2 kmh NW 5.1 mph8.2 kmh 30.10 in1019.3 mb 0.00 in0.0 mm 0.00 in0.0 mm 0.14 in3.6 mm
04:19 PM 40.9°F4.9°C 44.6°F7.0°C 90% 4.4 mph W7.1 kmh W 4.5 mph7.2 kmh 30.11 in1019.6 mb 0.00 in0.0 mm 0.00 in0.0 mm 0.14 in3.6 mm
04:22 PM 41.0°F5.0°C 44.9°F7.2°C 90% 3.6 mph NW5.8 kmh NW 3.6 mph5.8 kmh 30.11 in1019.6 mb 0.00 in0.0 mm 0.00 in0.0 mm 0.14 in3.6 mm
04:23 PM 40.9°F4.9°C 44.5°F6.9°C 90% 4.6 mph NW7.4 kmh NW 4.7 mph7.6 kmh 30.11 in1019.6 mb 0.00 in0.0 mm 0.00 in0.0 mm 0.14 in3.6 mm
04:25 PM 40.9°F4.9°C 44.7°F7.1°C 90% 2.8 mph NW4.5 kmh NW 2.9 mph4.7 kmh 30.11 in1019.6 mb 0.00 in0.0 mm 0.00 in0.0 mm 0.14 in3.6 mm
04:26 PM 40.9°F4.9°C 44.9°F7.2°C 91% 3.6 mph NW5.8 kmh NW 3.6 mph5.8 kmh 30.11 in1019.6 mb 0.00 in0.0 mm 0.00 in0.0 mm 0.14 in3.6 mm
04:28 PM 40.8°F4.9°C 44.8°F7.1°C 90% 2.0 mph NW3.2 kmh NW 2.0 mph3.2 kmh 30.10 in1019.3 mb 0.00 in0.0 mm 0.00 in0.0 mm 0.14 in3.6 mm
04:29 PM 40.9°F4.9°C 44.7°F7.1°C 90% 2.9 mph NW4.7 kmh NW 3.0 mph4.8 kmh 30.10 in1019.3 mb 0.00 in0.0 mm 0.00 in0.0 mm 0.14 in3.6 mm
04:31 PM 40.9°F4.9°C 44.7°F7.1°C 90% 6.0 mph NW9.7 kmh NW 6.0 mph9.7 kmh 30.10 in1019.3 mb 0.00 in0.0 mm 0.00 in0.0 mm 0.16 in4.1 mm
04:32 PM 40.9°F4.9°C 44.8°F7.1°C 90% 4.3 mph NNW6.9 kmh NNW 4.5 mph7.2 kmh 30.10 in1019.3 mb 0.00 in0.0 mm 0.00 in0.0 mm 0.16 in4.1 mm
04:34 PM 40.9°F4.9°C 44.8°F7.1°C 90% 0.8 mph NNW1.3 kmh NNW 0.8 mph1.3 kmh 30.10 in1019.3 mb 0.00 in0.0 mm 0.00 in0.0 mm 0.16 in4.1 mm
04:35 PM 40.8°F4.9°C 44.8°F7.1°C 90% 1.6 mph NNW2.6 kmh NNW 1.7 mph2.7 kmh 30.10 in1019.3 mb 0.00 in0.0 mm 0.00 in0.0 mm 0.16 in4.1 mm
04:37 PM 40.8°F4.9°C 44.9°F7.2°C 90% 4.4 mph WNW7.1 kmh WNW 4.4 mph7.1 kmh 30.10 in1019.3 mb 0.00 in0.0 mm 0.00 in0.0 mm 0.16 in4.1 mm
04:38 PM 40.8°F4.9°C 44.6°F7.0°C 90% 4.1 mph WNW6.6 kmh WNW 4.3 mph6.9 kmh 30.10 in1019.3 mb 0.00 in0.0 mm 0.00 in0.0 mm 0.16 in4.1 mm
04:40 PM 40.8°F4.9°C 45.0°F7.2°C 91% 6.9 mph NW11.1 kmh NW 6.9 mph11.1 kmh 30.10 in1019.3 mb 0.00 in0.0 mm 0.00 in0.0 mm 0.16 in4.1 mm
04:43 PM 40.8°F4.9°C 44.8°F7.1°C 90% 4.9 mph WNW7.9 kmh WNW 4.9 mph7.9 kmh 30.10 in1019.3 mb 0.00 in0.0 mm 0.00 in0.0 mm 0.16 in4.1 mm
04:46 PM 40.8°F4.9°C 44.8°F7.1°C 90% 5.3 mph NW8.5 kmh NW 5.3 mph8.5 kmh 30.10 in1019.3 mb 0.00 in0.0 mm 0.00 in0.0 mm 0.16 in4.1 mm
04:49 PM 40.8°F4.9°C 44.9°F7.2°C 91% 4.4 mph NW7.1 kmh NW 4.4 mph7.1 kmh 30.10 in1019.3 mb 0.00 in0.0 mm 0.00 in0.0 mm 0.18 in4.6 mm
04:50 PM 40.9°F4.9°C 44.3°F6.8°C 90% 3.7 mph 6.0 kmh 3.7 mph6.0 kmh 30.10 in1019.3 mb 0.00 in0.0 mm 0.00 in0.0 mm 0.18 in4.6 mm
04:52 PM 40.8°F4.9°C 44.7°F7.1°C 90% 2.4 mph NNW3.9 kmh NNW 2.4 mph3.9 kmh 30.10 in1019.3 mb 0.00 in0.0 mm 0.00 in0.0 mm 0.18 in4.6 mm
04:55 PM 40.7°F4.8°C 44.2°F6.8°C 89% 7.9 mph WNW12.7 kmh WNW 8.0 mph12.9 kmh 30.10 in1019.3 mb 0.00 in0.0 mm 0.00 in0.0 mm 0.18 in4.6 mm
04:58 PM 40.8°F4.9°C 44.9°F7.2°C 91% 5.7 mph NW9.2 kmh NW 5.7 mph9.2 kmh 30.10 in1019.3 mb 0.00 in0.0 mm 0.00 in0.0 mm 0.18 in4.6 mm
04:59 PM 40.8°F4.9°C 44.8°F7.1°C 91% 4.5 mph WSW7.2 kmh WSW 4.6 mph7.4 kmh 30.10 in1019.3 mb 0.00 in0.0 mm 0.00 in0.0 mm 0.18 in4.6 mm
05:01 PM 40.7°F4.8°C 44.6°F7.0°C 90% 9.8 mph WNW15.8 kmh WNW 9.9 mph15.9 kmh 30.10 in1019.3 mb 0.00 in0.0 mm 0.00 in0.0 mm 0.18 in4.6 mm
05:04 PM 40.7°F4.8°C 44.8°F7.1°C 90% 10.5 mph NW16.9 kmh NW 10.5 mph16.9 kmh 30.10 in1019.3 mb 0.00 in0.0 mm 0.00 in0.0 mm 0.18 in4.6 mm
05:05 PM 40.7°F4.8°C 44.7°F7.1°C 91% 9.3 mph NW15.0 kmh NW 9.3 mph15.0 kmh 30.10 in1019.3 mb 0.00 in0.0 mm 0.00 in0.0 mm 0.18 in4.6 mm
05:07 PM 40.7°F4.8°C 44.6°F7.0°C 91% 9.2 mph NNW14.8 kmh NNW 9.2 mph14.8 kmh 30.10 in1019.3 mb 0.00 in0.0 mm 0.00 in0.0 mm 0.18 in4.6 mm
05:08 PM 40.7°F4.8°C 44.3°F6.8°C 90% 7.6 mph NW12.2 kmh NW 7.6 mph12.2 kmh 30.10 in1019.3 mb 0.00 in0.0 mm 0.00 in0.0 mm 0.18 in4.6 mm
05:10 PM 40.7°F4.8°C 44.3°F6.8°C 90% 8.1 mph NNW13.0 kmh NNW 8.1 mph13.0 kmh 30.10 in1019.3 mb 0.00 in0.0 mm 0.00 in0.0 mm 0.18 in4.6 mm
05:11 PM 40.7°F4.8°C 44.3°F6.8°C 90% 6.9 mph NW11.1 kmh NW 7.0 mph11.3 kmh 30.10 in1019.3 mb 0.00 in0.0 mm 0.00 in0.0 mm 0.18 in4.6 mm
05:13 PM 40.4°F4.7°C 44.3°F6.8°C 90% 9.3 mph NW15.0 kmh NW 9.4 mph15.1 kmh 30.10 in1019.3 mb 0.00 in0.0 mm 0.00 in0.0 mm 0.18 in4.6 mm
05:14 PM 40.4°F4.7°C 44.4°F6.9°C 90% 7.7 mph NW12.4 kmh NW 7.9 mph12.7 kmh 30.11 in1019.6 mb 0.00 in0.0 mm 0.00 in0.0 mm 0.18 in4.6 mm
05:16 PM 40.4°F4.7°C 44.2°F6.8°C 90% 4.6 mph NW7.4 kmh NW 4.6 mph7.4 kmh 30.11 in1019.6 mb 0.00 in0.0 mm 0.00 in0.0 mm 0.18 in4.6 mm
05:17 PM 40.4°F4.7°C 44.2°F6.8°C 89% 4.9 mph NNW7.9 kmh NNW 4.9 mph7.9 kmh 30.11 in1019.6 mb 0.00 in0.0 mm 0.00 in0.0 mm 0.18 in4.6 mm
05:19 PM 40.4°F4.7°C 44.2°F6.8°C 90% 5.2 mph WNW8.4 kmh WNW 5.2 mph8.4 kmh 30.11 in1019.6 mb 0.00 in0.0 mm 0.00 in0.0 mm 0.18 in4.6 mm
05:20 PM 40.4°F4.7°C 44.2°F6.8°C 90% 5.4 mph NW8.7 kmh NW 5.4 mph8.7 kmh 30.11 in1019.6 mb 0.00 in0.0 mm 0.00 in0.0 mm 0.18 in4.6 mm
05:22 PM 40.4°F4.7°C 44.3°F6.8°C 90% 4.4 mph W7.1 kmh W 4.4 mph7.1 kmh 30.11 in1019.6 mb 0.00 in0.0 mm 0.00 in0.0 mm 0.18 in4.6 mm
05:23 PM 40.6°F4.8°C 44.3°F6.8°C 90% 3.7 mph NW6.0 kmh NW 3.7 mph6.0 kmh 30.11 in1019.6 mb 0.00 in0.0 mm 0.00 in0.0 mm 0.18 in4.6 mm
05:25 PM 40.3°F4.6°C 44.4°F6.9°C 90% 6.3 mph 10.1 kmh 6.4 mph10.3 kmh 30.11 in1019.6 mb 0.00 in0.0 mm 0.00 in0.0 mm 0.18 in4.6 mm
05:26 PM 40.4°F4.7°C 44.3°F6.8°C 90% 8.3 mph 13.4 kmh 8.6 mph13.8 kmh 30.11 in1019.6 mb 0.00 in0.0 mm 0.00 in0.0 mm 0.18 in4.6 mm
05:28 PM 40.2°F4.6°C 44.0°F6.7°C 89% 3.6 mph NNW5.8 kmh NNW 3.6 mph5.8 kmh 30.11 in1019.6 mb 0.00 in0.0 mm 0.00 in0.0 mm 0.18 in4.6 mm
05:29 PM 40.2°F4.6°C 44.2°F6.8°C 89% 3.4 mph NW5.5 kmh NW 3.5 mph5.6 kmh 30.11 in1019.6 mb 0.00 in0.0 mm 0.00 in0.0 mm 0.18 in4.6 mm
05:31 PM 40.4°F4.7°C 43.9°F6.6°C 89% 6.9 mph NW11.1 kmh NW 6.9 mph11.1 kmh 30.11 in1019.6 mb 0.00 in0.0 mm 0.00 in0.0 mm 0.18 in4.6 mm
05:32 PM 40.4°F4.7°C 44.0°F6.7°C 89% 4.6 mph NW7.4 kmh NW 4.6 mph7.4 kmh 30.11 in1019.6 mb 0.00 in0.0 mm 0.00 in0.0 mm 0.18 in4.6 mm
05:34 PM 40.4°F4.7°C 44.0°F6.7°C 89% 3.2 mph NNW5.1 kmh NNW 3.3 mph5.3 kmh 30.11 in1019.6 mb 0.00 in0.0 mm 0.00 in0.0 mm 0.18 in4.6 mm
05:35 PM 40.6°F4.8°C 44.1°F6.7°C 89% 3.0 mph WNW4.8 kmh WNW 3.2 mph5.1 kmh 30.11 in1019.6 mb 0.00 in0.0 mm 0.00 in0.0 mm 0.18 in4.6 mm
05:37 PM 40.7°F4.8°C 43.8°F6.6°C 88% 3.6 mph NW5.8 kmh NW 3.7 mph6.0 kmh 30.11 in1019.6 mb 0.00 in0.0 mm 0.00 in0.0 mm 0.18 in4.6 mm
05:38 PM 40.6°F4.8°C 44.0°F6.7°C 89% 4.4 mph WNW7.1 kmh WNW 4.4 mph7.1 kmh 30.11 in1019.6 mb 0.00 in0.0 mm 0.00 in0.0 mm 0.18 in4.6 mm
05:40 PM 40.7°F4.8°C 43.8°F6.6°C 88% 3.6 mph NW5.8 kmh NW 3.7 mph6.0 kmh 30.11 in1019.6 mb 0.00 in0.0 mm 0.00 in0.0 mm 0.18 in4.6 mm
05:43 PM 40.6°F4.8°C 43.9°F6.6°C 89% 5.6 mph NNW9.0 kmh NNW 5.6 mph9.0 kmh 30.12 in1020.0 mb 0.00 in0.0 mm 0.00 in0.0 mm 0.18 in4.6 mm
05:46 PM 40.8°F4.9°C 43.9°F6.6°C 89% 9.2 mph NNW14.8 kmh NNW 9.3 mph15.0 kmh 30.13 in1020.3 mb 0.00 in0.0 mm 0.00 in0.0 mm 0.18 in4.6 mm
05:47 PM 40.8°F4.9°C 44.0°F6.7°C 89% 6.6 mph 10.6 kmh 6.7 mph10.8 kmh 30.13 in1020.3 mb 0.00 in0.0 mm 0.00 in0.0 mm 0.18 in4.6 mm
05:49 PM 40.4°F4.7°C 43.4°F6.3°C 88% 6.0 mph NNE9.7 kmh NNE 6.0 mph9.7 kmh 30.12 in1020.0 mb 0.00 in0.0 mm 0.00 in0.0 mm 0.20 in5.1 mm
05:50 PM 40.6°F4.8°C 43.4°F6.3°C 88% 7.6 mph 12.2 kmh 7.6 mph12.2 kmh 30.13 in1020.3 mb 0.00 in0.0 mm 0.00 in0.0 mm 0.20 in5.1 mm
05:52 PM 40.2°F4.6°C 43.1°F6.2°C 87% 7.6 mph NNW12.2 kmh NNW 7.6 mph12.2 kmh 30.13 in1020.3 mb 0.00 in0.0 mm 0.00 in0.0 mm 0.20 in5.1 mm
05:53 PM 40.2°F4.6°C 43.4°F6.3°C 88% 10.8 mph NNW17.4 kmh NNW 10.8 mph17.4 kmh 30.12 in1020.0 mb 0.00 in0.0 mm 0.00 in0.0 mm 0.20 in5.1 mm
05:55 PM 40.1°F4.5°C 43.0°F6.1°C 86% 7.3 mph NNW11.7 kmh NNW 7.3 mph11.7 kmh 30.12 in1020.0 mb 0.00 in0.0 mm 0.00 in0.0 mm 0.20 in5.1 mm
05:56 PM 40.1°F4.5°C 42.7°F5.9°C 86% 4.7 mph NW7.6 kmh NW 4.8 mph7.7 kmh 30.12 in1020.0 mb 0.00 in0.0 mm 0.00 in0.0 mm 0.20 in5.1 mm
05:58 PM 39.8°F4.3°C 43.0°F6.1°C 87% 7.6 mph 12.2 kmh 7.7 mph12.4 kmh 30.11 in1019.6 mb 0.00 in0.0 mm 0.00 in0.0 mm 0.20 in5.1 mm
06:01 PM 39.9°F4.4°C 42.8°F6.0°C 86% 1.6 mph NW2.6 kmh NW 1.6 mph2.6 kmh 30.11 in1019.6 mb 0.00 in0.0 mm 0.00 in0.0 mm 0.20 in5.1 mm
06:02 PM 39.9°F4.4°C 42.4°F5.8°C 86% 3.4 mph WNW5.5 kmh WNW 3.4 mph5.5 kmh 30.11 in1019.6 mb 0.00 in0.0 mm 0.00 in0.0 mm 0.20 in5.1 mm
06:04 PM 39.4°F4.1°C 42.6°F5.9°C 86% 3.6 mph NNW5.8 kmh NNW 3.7 mph6.0 kmh 30.11 in1019.6 mb 0.00 in0.0 mm 0.00 in0.0 mm 0.20 in5.1 mm
06:05 PM 39.4°F4.1°C 42.9°F6.1°C 86% 4.8 mph NW7.7 kmh NW 4.8 mph7.7 kmh 30.11 in1019.6 mb 0.00 in0.0 mm 0.00 in0.0 mm 0.20 in5.1 mm
06:07 PM 39.0°F3.9°C 42.7°F5.9°C 86% 0.8 mph NW1.3 kmh NW 0.8 mph1.3 kmh 30.11 in1019.6 mb 0.00 in0.0 mm 0.00 in0.0 mm 0.20 in5.1 mm
06:08 PM 39.0°F3.9°C 42.7°F5.9°C 86% 2.3 mph NW3.7 kmh NW 2.3 mph3.7 kmh 30.11 in1019.6 mb 0.00 in0.0 mm 0.00 in0.0 mm 0.20 in5.1 mm
06:10 PM 39.2°F4.0°C 42.4°F5.8°C 85% 3.2 mph NW5.1 kmh NW 3.3 mph5.3 kmh 30.12 in1020.0 mb 0.00 in0.0 mm 0.00 in0.0 mm 0.20 in5.1 mm
06:11 PM 39.2°F4.0°C 42.8°F6.0°C 86% 3.5 mph NNW5.6 kmh NNW 3.5 mph5.6 kmh 30.12 in1020.0 mb 0.00 in0.0 mm 0.00 in0.0 mm 0.20 in5.1 mm
06:16 PM 39.3°F4.1°C 42.8°F6.0°C 86% 4.4 mph 7.1 kmh 4.4 mph7.1 kmh 30.11 in1019.6 mb 0.00 in0.0 mm 0.00 in0.0 mm 0.20 in5.1 mm
06:17 PM 39.3°F4.1°C 42.4°F5.8°C 86% 2.7 mph 4.3 kmh 3.0 mph4.8 kmh 30.11 in1019.6 mb 0.00 in0.0 mm 0.00 in0.0 mm 0.20 in5.1 mm
06:19 PM 39.1°F3.9°C 42.8°F6.0°C 86% 2.4 mph NW3.9 kmh NW 2.4 mph3.9 kmh 30.11 in1019.6 mb 0.00 in0.0 mm 0.00 in0.0 mm 0.20 in5.1 mm
06:20 PM 39.1°F3.9°C 42.7°F5.9°C 86% 3.0 mph NW4.8 kmh NW 3.1 mph5.0 kmh 30.11 in1019.6 mb 0.00 in0.0 mm 0.00 in0.0 mm 0.20 in5.1 mm
06:22 PM 39.2°F4.0°C 42.7°F5.9°C 86% Calm Calm -- 30.11 in1019.6 mb 0.00 in0.0 mm 0.00 in0.0 mm 0.20 in5.1 mm
06:23 PM 39.2°F4.0°C 42.3°F5.7°C 85% 0.2 mph NW0.3 kmh NW 0.2 mph0.3 kmh 30.11 in1019.6 mb 0.00 in0.0 mm 0.00 in0.0 mm 0.20 in5.1 mm
06:25 PM 39.3°F4.1°C 42.8°F6.0°C 86% 0.8 mph NW1.3 kmh NW 0.8 mph1.3 kmh 30.11 in1019.6 mb 0.00 in0.0 mm 0.00 in0.0 mm 0.20 in5.1 mm
06:26 PM 39.3°F4.1°C 42.8°F6.0°C 86% 0.9 mph NW1.4 kmh NW 1.0 mph1.6 kmh 30.11 in1019.6 mb 0.00 in0.0 mm 0.00 in0.0 mm 0.20 in5.1 mm
06:28 PM 39.3°F4.1°C 42.9°F6.1°C 86% 3.2 mph NW5.1 kmh NW 3.2 mph5.1 kmh 30.12 in1020.0 mb 0.00 in0.0 mm 0.00 in0.0 mm 0.20 in5.1 mm
06:29 PM 39.2°F4.0°C 42.9°F6.1°C 86% 3.5 mph NW5.6 kmh NW 3.5 mph5.6 kmh 30.12 in1020.0 mb 0.00 in0.0 mm 0.00 in0.0 mm 0.20 in5.1 mm
06:31 PM 39.4°F4.1°C 42.9°F6.1°C 86% 2.0 mph NNW3.2 kmh NNW 2.0 mph3.2 kmh 30.12 in1020.0 mb 0.00 in0.0 mm 0.00 in0.0 mm 0.20 in5.1 mm
06:34 PM 39.7°F4.3°C 42.8°F6.0°C 86% 4.9 mph NW7.9 kmh NW 4.9 mph7.9 kmh 30.13 in1020.3 mb 0.00 in0.0 mm 0.00 in0.0 mm 0.20 in5.1 mm
06:35 PM 39.7°F4.3°C 42.7°F5.9°C 87% 4.1 mph NNW6.6 kmh NNW 4.1 mph6.6 kmh 30.13 in1020.3 mb 0.00 in0.0 mm 0.00 in0.0 mm 0.20 in5.1 mm
06:37 PM 39.5°F4.2°C 42.5°F5.8°C 86% 4.4 mph 7.1 kmh 4.5 mph7.2 kmh 30.13 in1020.3 mb 0.00 in0.0 mm 0.00 in0.0 mm 0.20 in5.1 mm
06:38 PM 39.7°F4.3°C 43.0°F6.1°C 88% 4.9 mph 7.9 kmh 4.9 mph7.9 kmh 30.13 in1020.3 mb 0.00 in0.0 mm 0.00 in0.0 mm 0.20 in5.1 mm
06:40 PM 39.5°F4.2°C 42.7°F5.9°C 87% 7.3 mph NW11.7 kmh NW 7.3 mph11.7 kmh 30.13 in1020.3 mb 0.00 in0.0 mm 0.00 in0.0 mm 0.20 in5.1 mm
06:41 PM 39.5°F4.2°C 42.6°F5.9°C 87% 7.4 mph NW11.9 kmh NW 7.4 mph11.9 kmh 30.13 in1020.3 mb 0.00 in0.0 mm 0.00 in0.0 mm 0.20 in5.1 mm
06:43 PM 39.4°F4.1°C 42.1°F5.6°C 87% 9.2 mph NNW14.8 kmh NNW 9.2 mph14.8 kmh 30.13 in1020.3 mb 0.00 in0.0 mm 0.00 in0.0 mm 0.20 in5.1 mm
06:44 PM 39.4°F4.1°C 42.2°F5.7°C 87% 9.1 mph NNW14.6 kmh NNW 9.2 mph14.8 kmh 30.13 in1020.3 mb 0.00 in0.0 mm 0.00 in0.0 mm 0.20 in5.1 mm
06:46 PM 38.8°F3.8°C 41.9°F5.5°C 86% 11.9 mph NNW19.2 kmh NNW 11.9 mph19.2 kmh 30.13 in1020.3 mb 0.00 in0.0 mm 0.00 in0.0 mm 0.20 in5.1 mm
06:47 PM 38.8°F3.8°C 41.9°F5.5°C 86% 10.7 mph NNW17.2 kmh NNW 10.7 mph17.2 kmh 30.13 in1020.3 mb 0.00 in0.0 mm 0.00 in0.0 mm 0.20 in5.1 mm
06:49 PM 39.0°F3.9°C 41.5°F5.3°C 85% 8.7 mph NW14.0 kmh NW 8.7 mph14.0 kmh 30.13 in1020.3 mb 0.00 in0.0 mm 0.00 in0.0 mm 0.20 in5.1 mm
06:52 PM 39.0°F3.9°C 41.6°F5.3°C 85% 9.9 mph NNW15.9 kmh NNW 10.0 mph16.1 kmh 30.13 in1020.3 mb 0.00 in0.0 mm 0.00 in0.0 mm 0.20 in5.1 mm
06:53 PM 38.9°F3.8°C 41.9°F5.5°C 86% 8.7 mph NNW14.0 kmh NNW 8.7 mph14.0 kmh 30.13 in1020.3 mb 0.00 in0.0 mm 0.00 in0.0 mm 0.20 in5.1 mm
06:55 PM 38.6°F3.7°C 41.6°F5.3°C 86% 8.9 mph NE14.3 kmh NE 9.0 mph14.5 kmh 30.13 in1020.3 mb 0.00 in0.0 mm 0.00 in0.0 mm 0.20 in5.1 mm
06:56 PM 38.6°F3.7°C 41.6°F5.3°C 85% 8.1 mph 13.0 kmh 8.1 mph13.0 kmh 30.13 in1020.3 mb 0.00 in0.0 mm 0.00 in0.0 mm 0.20 in5.1 mm
06:58 PM 39.1°F3.9°C 41.3°F5.2°C 85% 9.9 mph 15.9 kmh 10.0 mph16.1 kmh 30.13 in1020.3 mb 0.00 in0.0 mm 0.00 in0.0 mm 0.20 in5.1 mm
06:59 PM 39.1°F3.9°C 41.3°F5.2°C 85% 7.6 mph 12.2 kmh 7.7 mph12.4 kmh 30.13 in1020.3 mb 0.00 in0.0 mm 0.00 in0.0 mm 0.20 in5.1 mm
07:01 PM 39.2°F4.0°C 41.4°F5.2°C 85% 11.4 mph 18.3 kmh 11.4 mph18.3 kmh 30.13 in1020.3 mb 0.00 in0.0 mm 0.00 in0.0 mm 0.20 in5.1 mm
07:02 PM 39.2°F4.0°C 41.2°F5.1°C 84% 10.8 mph NW17.4 kmh NW 11.0 mph17.7 kmh 30.13 in1020.3 mb 0.00 in0.0 mm 0.00 in0.0 mm 0.20 in5.1 mm
07:04 PM 39.1°F3.9°C 40.8°F4.9°C 84% 4.0 mph NE6.4 kmh NE 4.1 mph6.6 kmh 30.13 in1020.3 mb 0.00 in0.0 mm 0.00 in0.0 mm 0.20 in5.1 mm
07:05 PM 39.1°F3.9°C 41.0°F5.0°C 84% 3.6 mph NE5.8 kmh NE 3.6 mph5.8 kmh 30.13 in1020.3 mb 0.00 in0.0 mm 0.00 in0.0 mm 0.20 in5.1 mm
07:07 PM 38.9°F3.8°C 41.1°F5.1°C 84% 4.6 mph NNW7.4 kmh NNW 4.7 mph7.6 kmh 30.13 in1020.3 mb 0.00 in0.0 mm 0.00 in0.0 mm 0.20 in5.1 mm
07:08 PM 38.9°F3.8°C 41.1°F5.1°C 84% 4.6 mph NNW7.4 kmh NNW 4.6 mph7.4 kmh 30.13 in1020.3 mb 0.00 in0.0 mm 0.00 in0.0 mm 0.20 in5.1 mm
07:10 PM 39.1°F3.9°C 40.7°F4.8°C 83% 10.5 mph NNW16.9 kmh NNW 10.5 mph16.9 kmh 30.13 in1020.3 mb 0.00 in0.0 mm 0.00 in0.0 mm 0.20 in5.1 mm
07:11 PM 39.1°F3.9°C 40.5°F4.7°C 83% 11.0 mph NNW17.7 kmh NNW 11.2 mph18.0 kmh 30.13 in1020.3 mb 0.00 in0.0 mm 0.00 in0.0 mm 0.20 in5.1 mm
07:13 PM 39.1°F3.9°C 40.9°F4.9°C 84% 8.5 mph 13.7 kmh 8.5 mph13.7 kmh 30.13 in1020.3 mb 0.00 in0.0 mm 0.00 in0.0 mm 0.20 in5.1 mm
07:14 PM 39.1°F3.9°C 40.8°F4.9°C 84% 8.2 mph 13.2 kmh 8.2 mph13.2 kmh 30.13 in1020.3 mb 0.00 in0.0 mm 0.00 in0.0 mm 0.20 in5.1 mm
07:16 PM 38.9°F3.8°C 40.7°F4.8°C 83% 3.6 mph 5.8 kmh 3.6 mph5.8 kmh 30.13 in1020.3 mb 0.00 in0.0 mm 0.00 in0.0 mm 0.20 in5.1 mm
07:17 PM 38.9°F3.8°C 40.8°F4.9°C 84% 4.8 mph NNW7.7 kmh NNW 5.0 mph8.0 kmh 30.13 in1020.3 mb 0.00 in0.0 mm 0.00 in0.0 mm 0.20 in5.1 mm
07:19 PM 38.6°F3.7°C 41.3°F5.2°C 84% 9.2 mph NW14.8 kmh NW 9.2 mph14.8 kmh 30.13 in1020.3 mb 0.00 in0.0 mm 0.00 in0.0 mm 0.20 in5.1 mm
07:20 PM 38.8°F3.8°C 40.9°F4.9°C 84% 8.7 mph NNW14.0 kmh NNW 8.8 mph14.2 kmh 30.12 in1020.0 mb 0.00 in0.0 mm 0.00 in0.0 mm 0.20 in5.1 mm
07:22 PM 38.8°F3.8°C 41.0°F5.0°C 84% 5.3 mph NW8.5 kmh NW 5.3 mph8.5 kmh 30.12 in1020.0 mb 0.00 in0.0 mm 0.00 in0.0 mm 0.20 in5.1 mm
07:25 PM 38.6°F3.7°C 41.1°F5.1°C 84% 3.6 mph NW5.8 kmh NW 3.6 mph5.8 kmh 30.13 in1020.3 mb 0.00 in0.0 mm 0.00 in0.0 mm 0.20 in5.1 mm
07:26 PM 38.6°F3.7°C 41.1°F5.1°C 84% 5.3 mph NW8.5 kmh NW 5.4 mph8.7 kmh 30.12 in1020.0 mb 0.00 in0.0 mm 0.00 in0.0 mm 0.20 in5.1 mm
07:28 PM 38.6°F3.7°C 41.0°F5.0°C 84% 4.0 mph NW6.4 kmh NW 4.1 mph6.6 kmh 30.13 in1020.3 mb 0.00 in0.0 mm 0.00 in0.0 mm 0.20 in5.1 mm
07:29 PM 38.6°F3.7°C 41.0°F5.0°C 84% 3.0 mph NNW4.8 kmh NNW 3.0 mph4.8 kmh 30.13 in1020.3 mb 0.00 in0.0 mm 0.00 in0.0 mm 0.20 in5.1 mm
07:31 PM 38.4°F3.6°C 41.2°F5.1°C 84% 1.6 mph NW2.6 kmh NW 1.6 mph2.6 kmh 30.13 in1020.3 mb 0.00 in0.0 mm 0.00 in0.0 mm 0.20 in5.1 mm
07:32 PM 38.4°F3.6°C 41.1°F5.1°C 84% 0.5 mph NW0.8 kmh NW 0.5 mph0.8 kmh 30.12 in1020.0 mb 0.00 in0.0 mm 0.00 in0.0 mm 0.20 in5.1 mm
07:34 PM 38.4°F3.6°C 41.2°F5.1°C 85% 4.0 mph NNW6.4 kmh NNW 4.1 mph6.6 kmh 30.12 in1020.0 mb 0.00 in0.0 mm 0.00 in0.0 mm 0.20 in5.1 mm
07:35 PM 38.4°F3.6°C 41.0°F5.0°C 84% 5.2 mph 8.4 kmh 5.2 mph8.4 kmh 30.12 in1020.0 mb 0.00 in0.0 mm 0.00 in0.0 mm 0.20 in5.1 mm
07:37 PM 38.4°F3.6°C 41.3°F5.2°C 85% 2.0 mph WNW3.2 kmh WNW 2.0 mph3.2 kmh 30.12 in1020.0 mb 0.00 in0.0 mm 0.00 in0.0 mm 0.20 in5.1 mm
07:38 PM 38.3°F3.5°C 41.1°F5.1°C 85% 3.7 mph WNW6.0 kmh WNW 3.7 mph6.0 kmh 30.11 in1019.6 mb 0.00 in0.0 mm 0.00 in0.0 mm 0.20 in5.1 mm
07:40 PM 38.3°F3.5°C 41.3°F5.2°C 85% 4.0 mph NW6.4 kmh NW 4.1 mph6.6 kmh 30.11 in1019.6 mb 0.00 in0.0 mm 0.00 in0.0 mm 0.20 in5.1 mm
07:41 PM 38.4°F3.6°C 41.0°F5.0°C 84% 3.5 mph NW5.6 kmh NW 3.7 mph6.0 kmh 30.11 in1019.6 mb 0.00 in0.0 mm 0.00 in0.0 mm 0.20 in5.1 mm
07:43 PM 38.2°F3.4°C 41.2°F5.1°C 85% 2.4 mph NW3.9 kmh NW 2.4 mph3.9 kmh 30.11 in1019.6 mb 0.00 in0.0 mm 0.00 in0.0 mm 0.20 in5.1 mm
07:44 PM 38.2°F3.4°C 41.3°F5.2°C 84% 3.5 mph NW5.6 kmh NW 3.5 mph5.6 kmh 30.11 in1019.6 mb 0.00 in0.0 mm 0.00 in0.0 mm 0.20 in5.1 mm
07:46 PM 38.2°F3.4°C 41.2°F5.1°C 85% 0.8 mph W1.3 kmh W 0.8 mph1.3 kmh 30.11 in1019.6 mb 0.00 in0.0 mm 0.00 in0.0 mm 0.20 in5.1 mm
07:47 PM 38.2°F3.4°C 41.1°F5.1°C 84% 0.7 mph W1.1 kmh W 0.8 mph1.3 kmh 30.11 in1019.6 mb 0.00 in0.0 mm 0.00 in0.0 mm 0.20 in5.1 mm
07:49 PM 38.4°F3.6°C 41.1°F5.1°C 85% 2.4 mph NNW3.9 kmh NNW 2.4 mph3.9 kmh 30.12 in1020.0 mb 0.00 in0.0 mm 0.00 in0.0 mm 0.20 in5.1 mm
07:50 PM 38.4°F3.6°C 41.2°F5.1°C 85% 2.3 mph NW3.7 kmh NW 2.4 mph3.9 kmh 30.12 in1020.0 mb 0.00 in0.0 mm 0.00 in0.0 mm 0.20 in5.1 mm
07:52 PM 38.4°F3.6°C 41.4°F5.2°C 85% 3.6 mph NW5.8 kmh NW 3.6 mph5.8 kmh 30.12 in1020.0 mb 0.00 in0.0 mm 0.00 in0.0 mm 0.20 in5.1 mm
07:55 PM 38.3°F3.5°C 41.2°F5.1°C 86% 5.3 mph NNW8.5 kmh NNW 5.3 mph8.5 kmh 30.13 in1020.3 mb 0.00 in0.0 mm 0.00 in0.0 mm 0.20 in5.1 mm
07:58 PM 37.6°F3.1°C 41.1°F5.1°C 86% 9.7 mph NNW15.6 kmh NNW 9.7 mph15.6 kmh 30.13 in1020.3 mb 0.00 in0.0 mm 0.00 in0.0 mm 0.20 in5.1 mm
08:01 PM 37.6°F3.1°C 40.8°F4.9°C 85% 8.1 mph NNW13.0 kmh NNW 8.1 mph13.0 kmh 30.13 in1020.3 mb 0.00 in0.0 mm 0.00 in0.0 mm 0.20 in5.1 mm
08:02 PM 37.6°F3.1°C 40.5°F4.7°C 85% 7.2 mph NNW11.6 kmh NNW 7.2 mph11.6 kmh 30.13 in1020.3 mb 0.00 in0.0 mm 0.00 in0.0 mm 0.20 in5.1 mm
08:04 PM 37.7°F3.2°C 40.7°F4.8°C 85% 3.6 mph NNW5.8 kmh NNW 3.7 mph6.0 kmh 30.13 in1020.3 mb 0.00 in0.0 mm 0.00 in0.0 mm 0.20 in5.1 mm
08:07 PM 37.6°F3.1°C 40.7°F4.8°C 85% 9.5 mph NNW15.3 kmh NNW 9.6 mph15.4 kmh 30.13 in1020.3 mb 0.00 in0.0 mm 0.00 in0.0 mm 0.20 in5.1 mm
08:08 PM 37.6°F3.1°C 40.2°F4.6°C 85% 7.9 mph NNW12.7 kmh NNW 7.9 mph12.7 kmh 30.13 in1020.3 mb 0.00 in0.0 mm 0.00 in0.0 mm 0.20 in5.1 mm
08:10 PM 37.6°F3.1°C 40.5°F4.7°C 85% 4.8 mph NNW7.7 kmh NNW 4.9 mph7.9 kmh 30.13 in1020.3 mb 0.00 in0.0 mm 0.00 in0.0 mm 0.20 in5.1 mm
08:11 PM 37.7°F3.2°C 40.5°F4.7°C 85% 6.9 mph NW11.1 kmh NW 6.9 mph11.1 kmh 30.13 in1020.3 mb 0.00 in0.0 mm 0.00 in0.0 mm 0.20 in5.1 mm
08:13 PM 37.7°F3.2°C 40.5°F4.7°C 85% 4.9 mph NW7.9 kmh NW 4.9 mph7.9 kmh 30.13 in1020.3 mb 0.00 in0.0 mm 0.00 in0.0 mm 0.20 in5.1 mm
08:14 PM 37.7°F3.2°C 40.4°F4.7°C 85% 5.1 mph NW8.2 kmh NW 5.2 mph8.4 kmh 30.13 in1020.3 mb 0.00 in0.0 mm 0.00 in0.0 mm 0.20 in5.1 mm
08:16 PM 37.9°F3.3°C 40.1°F4.5°C 84% 5.7 mph NNW9.2 kmh NNW 5.7 mph9.2 kmh 30.13 in1020.3 mb 0.00 in0.0 mm 0.00 in0.0 mm 0.20 in5.1 mm
08:17 PM 37.7°F3.2°C 40.0°F4.4°C 84% 3.0 mph NNW4.8 kmh NNW 3.2 mph5.1 kmh 30.13 in1020.3 mb 0.00 in0.0 mm 0.00 in0.0 mm 0.20 in5.1 mm
08:19 PM 38.0°F3.3°C 40.1°F4.5°C 84% 7.3 mph NNW11.7 kmh NNW 7.3 mph11.7 kmh 30.13 in1020.3 mb 0.00 in0.0 mm 0.00 in0.0 mm 0.20 in5.1 mm
08:20 PM 38.1°F3.4°C 39.9°F4.4°C 84% 6.3 mph NNW10.1 kmh NNW 6.4 mph10.3 kmh 30.13 in1020.3 mb 0.00 in0.0 mm 0.00 in0.0 mm 0.20 in5.1 mm
08:22 PM 37.9°F3.3°C 39.9°F4.4°C 84% 2.8 mph NW4.5 kmh NW 2.9 mph4.7 kmh 30.13 in1020.3 mb 0.00 in0.0 mm 0.00 in0.0 mm 0.20 in5.1 mm
08:25 PM 37.6°F3.1°C 40.2°F4.6°C 84% 3.6 mph NW5.8 kmh NW 3.7 mph6.0 kmh 30.13 in1020.3 mb 0.00 in0.0 mm 0.00 in0.0 mm 0.20 in5.1 mm
08:26 PM 37.6°F3.1°C 40.1°F4.5°C 83% 4.4 mph NW7.1 kmh NW 4.5 mph7.2 kmh 30.13 in1020.3 mb 0.00 in0.0 mm 0.00 in0.0 mm 0.20 in5.1 mm
08:28 PM 37.4°F3.0°C 40.1°F4.5°C 84% 7.6 mph NNW12.2 kmh NNW 7.6 mph12.2 kmh 30.13 in1020.3 mb 0.00 in0.0 mm 0.00 in0.0 mm 0.20 in5.1 mm
08:29 PM 37.4°F3.0°C 40.2°F4.6°C 84% 7.9 mph NW12.7 kmh NW 8.0 mph12.9 kmh 30.13 in1020.3 mb 0.00 in0.0 mm 0.00 in0.0 mm 0.20 in5.1 mm
08:31 PM 37.4°F3.0°C 40.1°F4.5°C 83% 4.4 mph NNW7.1 kmh NNW 4.4 mph7.1 kmh 30.13 in1020.3 mb 0.00 in0.0 mm 0.00 in0.0 mm 0.20 in5.1 mm
08:34 PM 37.1°F2.8°C 40.0°F4.4°C 84% 3.6 mph NNW5.8 kmh NNW 3.6 mph5.8 kmh 30.13 in1020.3 mb 0.00 in0.0 mm 0.00 in0.0 mm 0.20 in5.1 mm
08:37 PM 37.2°F2.9°C 39.9°F4.4°C 83% 4.4 mph NW7.1 kmh NW 4.4 mph7.1 kmh 30.13 in1020.3 mb 0.00 in0.0 mm 0.00 in0.0 mm 0.20 in5.1 mm
08:38 PM 37.3°F2.9°C 40.1°F4.5°C 83% 2.8 mph NNW4.5 kmh NNW 2.9 mph4.7 kmh 30.13 in1020.3 mb 0.00 in0.0 mm 0.00 in0.0 mm 0.20 in5.1 mm
08:40 PM 37.4°F3.0°C 39.7°F4.3°C 83% 4.0 mph NNW6.4 kmh NNW 4.0 mph6.4 kmh 30.13 in1020.3 mb 0.00 in0.0 mm 0.00 in0.0 mm 0.20 in5.1 mm
08:43 PM 37.4°F3.0°C 39.8°F4.3°C 83% 4.4 mph NNW7.1 kmh NNW 4.4 mph7.1 kmh 30.13 in1020.3 mb 0.00 in0.0 mm 0.00 in0.0 mm 0.20 in5.1 mm
08:44 PM 37.4°F3.0°C 39.8°F4.3°C 83% 5.8 mph NNW9.3 kmh NNW 5.8 mph9.3 kmh 30.13 in1020.3 mb 0.00 in0.0 mm 0.00 in0.0 mm 0.20 in5.1 mm
08:46 PM 37.3°F2.9°C 39.9°F4.4°C 83% 2.8 mph NW4.5 kmh NW 2.8 mph4.5 kmh 30.13 in1020.3 mb 0.00 in0.0 mm 0.00 in0.0 mm 0.20 in5.1 mm
08:47 PM 37.3°F2.9°C 39.6°F4.2°C 83% 1.9 mph NW3.1 kmh NW 1.9 mph3.1 kmh 30.13 in1020.3 mb 0.00 in0.0 mm 0.00 in0.0 mm 0.20 in5.1 mm
08:49 PM 37.4°F3.0°C 39.6°F4.2°C 83% 6.5 mph NW10.5 kmh NW 6.5 mph10.5 kmh 30.13 in1020.3 mb 0.00 in0.0 mm 0.00 in0.0 mm 0.20 in5.1 mm
08:50 PM 37.4°F3.0°C 39.5°F4.2°C 83% 6.2 mph NW10.0 kmh NW 6.2 mph10.0 kmh 30.13 in1020.3 mb 0.00 in0.0 mm 0.00 in0.0 mm 0.20 in5.1 mm
08:52 PM 37.4°F3.0°C 39.5°F4.2°C 82% 3.2 mph NW5.1 kmh NW 3.2 mph5.1 kmh 30.13 in1020.3 mb 0.00 in0.0 mm 0.00 in0.0 mm 0.20 in5.1 mm
08:53 PM 37.5°F3.1°C 39.6°F4.2°C 83% 1.8 mph NW2.9 kmh NW 1.8 mph2.9 kmh 30.13 in1020.3 mb 0.00 in0.0 mm 0.00 in0.0 mm 0.20 in5.1 mm
08:55 PM 37.5°F3.1°C 39.4°F4.1°C 82% 1.2 mph NW1.9 kmh NW 1.2 mph1.9 kmh 30.13 in1020.3 mb 0.00 in0.0 mm 0.00 in0.0 mm 0.20 in5.1 mm
08:56 PM 37.4°F3.0°C 39.7°F4.3°C 83% 2.8 mph NW4.5 kmh NW 2.8 mph4.5 kmh 30.13 in1020.3 mb 0.00 in0.0 mm 0.00 in0.0 mm 0.20 in5.1 mm
08:58 PM 37.3°F2.9°C 39.8°F4.3°C 84% 5.3 mph WNW8.5 kmh WNW 5.3 mph8.5 kmh 30.12 in1020.0 mb 0.00 in0.0 mm 0.00 in0.0 mm 0.20 in5.1 mm
08:59 PM 37.3°F2.9°C 39.6°F4.2°C 83% 4.9 mph NW7.9 kmh NW 4.9 mph7.9 kmh 30.12 in1020.0 mb 0.00 in0.0 mm 0.00 in0.0 mm 0.20 in5.1 mm
09:01 PM 37.1°F2.8°C 39.6°F4.2°C 83% 2.0 mph NW3.2 kmh NW 2.0 mph3.2 kmh 30.12 in1020.0 mb 0.00 in0.0 mm 0.00 in0.0 mm 0.20 in5.1 mm
09:02 PM 37.1°F2.8°C 39.6°F4.2°C 83% 2.3 mph NW3.7 kmh NW 2.3 mph3.7 kmh 30.12 in1020.0 mb 0.00 in0.0 mm 0.00 in0.0 mm 0.20 in5.1 mm
09:04 PM 36.7°F2.6°C 39.8°F4.3°C 84% 1.2 mph 1.9 kmh 1.2 mph1.9 kmh 30.11 in1019.6 mb 0.00 in0.0 mm 0.00 in0.0 mm 0.20 in5.1 mm
09:05 PM 36.7°F2.6°C 39.8°F4.3°C 83% 1.6 mph 2.6 kmh 1.7 mph2.7 kmh 30.12 in1020.0 mb 0.00 in0.0 mm 0.00 in0.0 mm 0.20 in5.1 mm
09:07 PM 36.8°F2.7°C 39.6°F4.2°C 84% 6.5 mph NW10.5 kmh NW 6.5 mph10.5 kmh 30.12 in1020.0 mb 0.00 in0.0 mm 0.00 in0.0 mm 0.20 in5.1 mm
09:08 PM 37.0°F2.8°C 39.4°F4.1°C 83% 4.4 mph NW7.1 kmh NW 4.6 mph7.4 kmh 30.12 in1020.0 mb 0.00 in0.0 mm 0.00 in0.0 mm 0.20 in5.1 mm
09:10 PM 37.1°F2.8°C 39.4°F4.1°C 83% 2.8 mph NNW4.5 kmh NNW 2.8 mph4.5 kmh 30.12 in1020.0 mb 0.00 in0.0 mm 0.00 in0.0 mm 0.20 in5.1 mm
09:11 PM 37.1°F2.8°C 39.4°F4.1°C 84% 3.3 mph NNW5.3 kmh NNW 3.3 mph5.3 kmh 30.13 in1020.3 mb 0.00 in0.0 mm 0.00 in0.0 mm 0.20 in5.1 mm
09:13 PM 37.2°F2.9°C 39.6°F4.2°C 84% 4.4 mph NW7.1 kmh NW 4.5 mph7.2 kmh 30.13 in1020.3 mb 0.00 in0.0 mm 0.00 in0.0 mm 0.20 in5.1 mm
09:14 PM 37.1°F2.8°C 39.1°F3.9°C 83% 4.2 mph NW6.8 kmh NW 4.4 mph7.1 kmh 30.13 in1020.3 mb 0.00 in0.0 mm 0.00 in0.0 mm 0.20 in5.1 mm
09:16 PM 37.3°F2.9°C 39.6°F4.2°C 84% 5.6 mph 9.0 kmh 5.6 mph9.0 kmh 30.13 in1020.3 mb 0.00 in0.0 mm 0.00 in0.0 mm 0.20 in5.1 mm
09:17 PM 37.3°F2.9°C 39.6°F4.2°C 84% 3.2 mph 5.1 kmh 3.2 mph5.1 kmh 30.13 in1020.3 mb 0.00 in0.0 mm 0.00 in0.0 mm 0.20 in5.1 mm
09:19 PM 37.2°F2.9°C 39.7°F4.3°C 84% 3.6 mph 5.8 kmh 3.7 mph6.0 kmh 30.13 in1020.3 mb 0.00 in0.0 mm 0.00 in0.0 mm 0.20 in5.1 mm
09:20 PM 37.1°F2.8°C 39.7°F4.3°C 84% 3.4 mph NW5.5 kmh NW 3.4 mph5.5 kmh 30.13 in1020.3 mb 0.00 in0.0 mm 0.00 in0.0 mm 0.20 in5.1 mm
09:22 PM 37.0°F2.8°C 39.6°F4.2°C 84% Calm Calm -- 30.13 in1020.3 mb 0.00 in0.0 mm 0.00 in0.0 mm 0.20 in5.1 mm
09:23 PM 36.8°F2.7°C 39.4°F4.1°C 84% 0.7 mph 1.1 kmh 0.7 mph1.1 kmh 30.13 in1020.3 mb 0.00 in0.0 mm 0.00 in0.0 mm 0.20 in5.1 mm
09:25 PM 37.0°F2.8°C 39.5°F4.2°C 83% 7.7 mph NW12.4 kmh NW 7.7 mph12.4 kmh 30.13 in1020.3 mb 0.00 in0.0 mm 0.00 in0.0 mm 0.20 in5.1 mm
09:26 PM 37.0°F2.8°C 39.5°F4.2°C 84% 7.2 mph NW11.6 kmh NW 7.2 mph11.6 kmh 30.13 in1020.3 mb 0.00 in0.0 mm 0.00 in0.0 mm 0.20 in5.1 mm
09:28 PM 37.1°F2.8°C 39.6°F4.2°C 84% 2.8 mph NNW4.5 kmh NNW 2.8 mph4.5 kmh 30.13 in1020.3 mb 0.00 in0.0 mm 0.00 in0.0 mm 0.20 in5.1 mm
09:29 PM 37.1°F2.8°C 39.6°F4.2°C 84% 3.2 mph NNW5.1 kmh NNW 3.2 mph5.1 kmh 30.13 in1020.3 mb 0.00 in0.0 mm 0.00 in0.0 mm 0.20 in5.1 mm
09:31 PM 37.1°F2.8°C 39.6°F4.2°C 84% 0.4 mph NNW0.6 kmh NNW 0.4 mph0.6 kmh 30.13 in1020.3 mb 0.00 in0.0 mm 0.00 in0.0 mm 0.20 in5.1 mm
09:32 PM 37.1°F2.8°C 39.5°F4.2°C 84% 0.2 mph NNW0.3 kmh NNW 0.3 mph0.5 kmh 30.12 in1020.0 mb 0.00 in0.0 mm 0.00 in0.0 mm 0.20 in5.1 mm
09:34 PM 37.1°F2.8°C 39.5°F4.2°C 84% 2.8 mph 4.5 kmh 2.9 mph4.7 kmh 30.13 in1020.3 mb 0.00 in0.0 mm 0.00 in0.0 mm 0.20 in5.1 mm
09:37 PM 37.2°F2.9°C 39.4°F4.1°C 84% 3.6 mph NNE5.8 kmh NNE 3.7 mph6.0 kmh 30.13 in1020.3 mb 0.00 in0.0 mm 0.00 in0.0 mm 0.20 in5.1 mm
09:40 PM 37.1°F2.8°C 39.4°F4.1°C 84% 2.4 mph 3.9 kmh 2.4 mph3.9 kmh 30.13 in1020.3 mb 0.00 in0.0 mm 0.00 in0.0 mm 0.20 in5.1 mm
09:41 PM 37.1°F2.8°C 39.6°F4.2°C 84% 3.3 mph 5.3 kmh 3.6 mph5.8 kmh 30.13 in1020.3 mb 0.00 in0.0 mm 0.00 in0.0 mm 0.20 in5.1 mm
09:43 PM 35.2°F1.8°C 39.3°F4.1°C 84% 8.3 mph NNW13.4 kmh NNW 8.4 mph13.5 kmh 30.13 in1020.3 mb 0.00 in0.0 mm 0.00 in0.0 mm 0.22 in5.6 mm
09:44 PM 35.3°F1.8°C 39.1°F3.9°C 84% 6.9 mph NNW11.1 kmh NNW 7.0 mph11.3 kmh 30.13 in1020.3 mb 0.00 in0.0 mm 0.00 in0.0 mm 0.22 in5.6 mm
09:46 PM 35.0°F1.7°C 39.3°F4.1°C 85% 4.4 mph 7.1 kmh 4.4 mph7.1 kmh 30.13 in1020.3 mb 0.00 in0.0 mm 0.00 in0.0 mm 0.22 in5.6 mm
09:47 PM 35.0°F1.7°C 39.3°F4.1°C 85% 4.4 mph WNW7.1 kmh WNW 4.4 mph7.1 kmh 30.13 in1020.3 mb 0.00 in0.0 mm 0.00 in0.0 mm 0.22 in5.6 mm
09:52 PM 34.7°F1.5°C 38.9°F3.8°C 85% Calm Calm -- 30.13 in1020.3 mb 0.00 in0.0 mm 0.00 in0.0 mm 0.22 in5.6 mm
09:53 PM 34.6°F1.4°C 39.2°F4.0°C 85% Calm Calm -- 30.13 in1020.3 mb 0.00 in0.0 mm 0.00 in0.0 mm 0.22 in5.6 mm
09:55 PM 34.6°F1.4°C 39.1°F3.9°C 84% Calm Calm -- 30.13 in1020.3 mb 0.00 in0.0 mm 0.00 in0.0 mm 0.22 in5.6 mm
09:56 PM 34.6°F1.4°C 38.7°F3.7°C 84% Calm Calm -- 30.13 in1020.3 mb 0.00 in0.0 mm 0.00 in0.0 mm 0.22 in5.6 mm
09:58 PM 34.7°F1.5°C 39.1°F3.9°C 84% 2.4 mph NNW3.9 kmh NNW 2.4 mph3.9 kmh 30.13 in1020.3 mb 0.00 in0.0 mm 0.00 in0.0 mm 0.22 in5.6 mm
10:01 PM 34.8°F1.6°C 39.1°F3.9°C 85% Calm Calm -- 30.13 in1020.3 mb 0.00 in0.0 mm 0.00 in0.0 mm 0.22 in5.6 mm
10:02 PM 34.8°F1.6°C 39.0°F3.9°C 84% Calm Calm -- 30.13 in1020.3 mb 0.00 in0.0 mm 0.00 in0.0 mm 0.22 in5.6 mm
10:04 PM 34.9°F1.6°C 39.3°F4.1°C 85% 2.0 mph NW3.2 kmh NW 2.0 mph3.2 kmh 30.13 in1020.3 mb 0.00 in0.0 mm 0.00 in0.0 mm 0.22 in5.6 mm
10:05 PM 34.9°F1.6°C 39.2°F4.0°C 85% 1.9 mph NW3.1 kmh NW 1.9 mph3.1 kmh 30.13 in1020.3 mb 0.00 in0.0 mm 0.00 in0.0 mm 0.22 in5.6 mm
10:07 PM 35.0°F1.7°C 39.0°F3.9°C 85% Calm Calm -- 30.13 in1020.3 mb 0.00 in0.0 mm 0.00 in0.0 mm 0.22 in5.6 mm
10:08 PM 35.0°F1.7°C 39.1°F3.9°C 85% 0.2 mph NW0.3 kmh NW 0.2 mph0.3 kmh 30.13 in1020.3 mb 0.00 in0.0 mm 0.00 in0.0 mm 0.22 in5.6 mm
10:10 PM 35.2°F1.8°C 39.1°F3.9°C 85% 3.6 mph WNW5.8 kmh WNW 3.7 mph6.0 kmh 30.12 in1020.0 mb 0.00 in0.0 mm 0.00 in0.0 mm 0.22 in5.6 mm
10:11 PM 35.2°F1.8°C 39.1°F3.9°C 85% 3.2 mph NW5.1 kmh NW 3.4 mph5.5 kmh 30.12 in1020.0 mb 0.00 in0.0 mm 0.00 in0.0 mm 0.22 in5.6 mm
10:13 PM 35.3°F1.8°C 39.2°F4.0°C 85% 5.2 mph WNW8.4 kmh WNW 5.2 mph8.4 kmh 30.13 in1020.3 mb 0.00 in0.0 mm 0.00 in0.0 mm 0.22 in5.6 mm
10:14 PM 35.2°F1.8°C 39.2°F4.0°C 85% 4.8 mph WNW7.7 kmh WNW 4.9 mph7.9 kmh 30.12 in1020.0 mb 0.00 in0.0 mm 0.00 in0.0 mm 0.22 in5.6 mm
10:16 PM 35.3°F1.8°C 39.1°F3.9°C 85% 3.2 mph NW5.1 kmh NW 3.3 mph5.3 kmh 30.12 in1020.0 mb 0.00 in0.0 mm 0.00 in0.0 mm 0.22 in5.6 mm
10:17 PM 35.3°F1.8°C 39.0°F3.9°C 85% 2.6 mph NW4.2 kmh NW 2.6 mph4.2 kmh 30.13 in1020.3 mb 0.00 in0.0 mm 0.00 in0.0 mm 0.22 in5.6 mm
10:19 PM 35.4°F1.9°C 39.0°F3.9°C 85% 4.9 mph NNE7.9 kmh NNE 4.9 mph7.9 kmh 30.13 in1020.3 mb 0.00 in0.0 mm 0.00 in0.0 mm 0.22 in5.6 mm
10:20 PM 35.4°F1.9°C 38.8°F3.8°C 85% 3.5 mph 5.6 kmh 3.6 mph5.8 kmh 30.13 in1020.3 mb 0.00 in0.0 mm 0.00 in0.0 mm 0.22 in5.6 mm
10:22 PM 35.4°F1.9°C 38.5°F3.6°C 85% 3.2 mph 5.1 kmh 3.3 mph5.3 kmh 30.13 in1020.3 mb 0.00 in0.0 mm 0.00 in0.0 mm 0.22 in5.6 mm
10:23 PM 35.4°F1.9°C 38.8°F3.8°C 85% 4.6 mph 7.4 kmh 4.8 mph7.7 kmh 30.13 in1020.3 mb 0.00 in0.0 mm 0.00 in0.0 mm 0.22 in5.6 mm
10:25 PM 35.6°F2.0°C 38.6°F3.7°C 84% 5.2 mph NNW8.4 kmh NNW 5.3 mph8.5 kmh 30.13 in1020.3 mb 0.00 in0.0 mm 0.00 in0.0 mm 0.22 in5.6 mm
10:26 PM 35.7°F2.1°C 38.5°F3.6°C 85% 5.6 mph NNW9.0 kmh NNW 5.9 mph9.5 kmh 30.13 in1020.3 mb 0.00 in0.0 mm 0.00 in0.0 mm 0.22 in5.6 mm
10:28 PM 35.8°F2.1°C 38.8°F3.8°C 84% 5.7 mph NE9.2 kmh NE 5.7 mph9.2 kmh 30.13 in1020.3 mb 0.00 in0.0 mm 0.00 in0.0 mm 0.22 in5.6 mm
10:31 PM 35.7°F2.1°C 38.6°F3.7°C 85% 3.6 mph NE5.8 kmh NE 3.7 mph6.0 kmh 30.13 in1020.3 mb 0.00 in0.0 mm 0.00 in0.0 mm 0.22 in5.6 mm
10:34 PM 35.9°F2.2°C 38.2°F3.4°C 84% 6.0 mph NNE9.7 kmh NNE 6.0 mph9.7 kmh 30.13 in1020.3 mb 0.00 in0.0 mm 0.00 in0.0 mm 0.22 in5.6 mm
10:37 PM 35.7°F2.1°C 38.5°F3.6°C 84% 2.8 mph NW4.5 kmh NW 2.9 mph4.7 kmh 30.13 in1020.3 mb 0.00 in0.0 mm 0.00 in0.0 mm 0.22 in5.6 mm
10:38 PM 35.7°F2.1°C 38.2°F3.4°C 84% 3.0 mph NW4.8 kmh NW 3.1 mph5.0 kmh 30.13 in1020.3 mb 0.00 in0.0 mm 0.00 in0.0 mm 0.22 in5.6 mm
10:40 PM 35.9°F2.2°C 38.0°F3.3°C 83% 6.5 mph NNW10.5 kmh NNW 6.5 mph10.5 kmh 30.14 in1020.7 mb 0.00 in0.0 mm 0.00 in0.0 mm 0.22 in5.6 mm
10:41 PM 35.9°F2.2°C 37.7°F3.2°C 83% 8.7 mph NW14.0 kmh NW 8.7 mph14.0 kmh 30.13 in1020.3 mb 0.00 in0.0 mm 0.00 in0.0 mm 0.22 in5.6 mm
10:43 PM 35.8°F2.1°C 38.0°F3.3°C 83% 6.4 mph NNW10.3 kmh NNW 6.4 mph10.3 kmh 30.13 in1020.3 mb 0.00 in0.0 mm 0.00 in0.0 mm 0.22 in5.6 mm
10:44 PM 35.9°F2.2°C 37.9°F3.3°C 83% 6.3 mph NNW10.1 kmh NNW 6.6 mph10.6 kmh 30.13 in1020.3 mb 0.00 in0.0 mm 0.00 in0.0 mm 0.22 in5.6 mm
10:46 PM 36.2°F2.3°C 37.5°F3.1°C 82% 4.4 mph NW7.1 kmh NW 4.5 mph7.2 kmh 30.13 in1020.3 mb 0.00 in0.0 mm 0.00 in0.0 mm 0.22 in5.6 mm
10:47 PM 36.2°F2.3°C 37.4°F3.0°C 82% 4.3 mph NW6.9 kmh NW 4.3 mph6.9 kmh 30.13 in1020.3 mb 0.00 in0.0 mm 0.00 in0.0 mm 0.22 in5.6 mm
10:49 PM 35.8°F2.1°C 37.9°F3.3°C 82% 5.2 mph NNW8.4 kmh NNW 5.2 mph8.4 kmh 30.13 in1020.3 mb 0.00 in0.0 mm 0.00 in0.0 mm 0.22 in5.6 mm
10:52 PM 35.7°F2.1°C 37.9°F3.3°C 82% 3.2 mph NNW5.1 kmh NNW 3.3 mph5.3 kmh 30.14 in1020.7 mb 0.00 in0.0 mm 0.00 in0.0 mm 0.22 in5.6 mm
10:53 PM 35.7°F2.1°C 37.9°F3.3°C 82% 2.8 mph NW4.5 kmh NW 2.8 mph4.5 kmh 30.13 in1020.3 mb 0.00 in0.0 mm 0.00 in0.0 mm 0.22 in5.6 mm
10:55 PM 35.4°F1.9°C 37.7°F3.2°C 82% 3.6 mph NNW5.8 kmh NNW 3.6 mph5.8 kmh 30.14 in1020.7 mb 0.00 in0.0 mm 0.00 in0.0 mm 0.22 in5.6 mm
10:56 PM 35.5°F1.9°C 37.8°F3.2°C 82% 4.0 mph NNW6.4 kmh NNW 4.1 mph6.6 kmh 30.13 in1020.3 mb 0.00 in0.0 mm 0.00 in0.0 mm 0.22 in5.6 mm
10:58 PM 35.5°F1.9°C 37.2°F2.9°C 81% 6.3 mph NNW10.1 kmh NNW 6.3 mph10.1 kmh 30.14 in1020.7 mb 0.00 in0.0 mm 0.00 in0.0 mm 0.22 in5.6 mm
11:01 PM 35.6°F2.0°C 37.1°F2.8°C 80% 3.6 mph NE5.8 kmh NE 3.7 mph6.0 kmh 30.13 in1020.3 mb 0.00 in0.0 mm 0.00 in0.0 mm 0.22 in5.6 mm
11:02 PM 35.7°F2.1°C 36.9°F2.7°C 80% 4.9 mph NE7.9 kmh NE 4.9 mph7.9 kmh 30.13 in1020.3 mb 0.00 in0.0 mm 0.00 in0.0 mm 0.22 in5.6 mm
11:04 PM 35.0°F1.7°C 36.7°F2.6°C 80% 3.2 mph NNW5.1 kmh NNW 3.3 mph5.3 kmh 30.14 in1020.7 mb 0.00 in0.0 mm 0.00 in0.0 mm 0.22 in5.6 mm
11:05 PM 35.2°F1.8°C 37.0°F2.8°C 80% 2.1 mph NNW3.4 kmh NNW 2.1 mph3.4 kmh 30.14 in1020.7 mb 0.00 in0.0 mm 0.00 in0.0 mm 0.22 in5.6 mm
11:07 PM 36.1°F2.3°C 36.1°F2.3°C 78% 10.5 mph NNW16.9 kmh NNW 10.6 mph17.1 kmh 30.14 in1020.7 mb 0.00 in0.0 mm 0.00 in0.0 mm 0.22 in5.6 mm
11:10 PM 35.8°F2.1°C 35.9°F2.2°C 78% 6.9 mph 11.1 kmh 6.9 mph11.1 kmh 30.14 in1020.7 mb 0.00 in0.0 mm 0.00 in0.0 mm 0.22 in5.6 mm
11:11 PM 35.8°F2.1°C 36.1°F2.3°C 78% 8.4 mph NNW13.5 kmh NNW 8.5 mph13.7 kmh 30.14 in1020.7 mb 0.00 in0.0 mm 0.00 in0.0 mm 0.22 in5.6 mm
11:13 PM 35.6°F2.0°C 36.2°F2.3°C 79% 2.0 mph NNW3.2 kmh NNW 2.0 mph3.2 kmh 30.14 in1020.7 mb 0.00 in0.0 mm 0.00 in0.0 mm 0.22 in5.6 mm
11:16 PM 35.7°F2.1°C 36.2°F2.3°C 78% 4.4 mph 7.1 kmh 4.5 mph7.2 kmh 30.14 in1020.7 mb 0.00 in0.0 mm 0.00 in0.0 mm 0.22 in5.6 mm
11:17 PM 35.7°F2.1°C 36.1°F2.3°C 78% 4.6 mph NNW7.4 kmh NNW 4.8 mph7.7 kmh 30.14 in1020.7 mb 0.00 in0.0 mm 0.00 in0.0 mm 0.22 in5.6 mm
11:19 PM 35.4°F1.9°C 36.2°F2.3°C 78% Calm Calm -- 30.14 in1020.7 mb 0.00 in0.0 mm 0.00 in0.0 mm 0.22 in5.6 mm
11:20 PM 35.4°F1.9°C 36.5°F2.5°C 78% Calm Calm -- 30.15 in1021.0 mb 0.00 in0.0 mm 0.00 in0.0 mm 0.22 in5.6 mm
11:22 PM 34.9°F1.6°C 36.8°F2.7°C 79% Calm Calm -- 30.14 in1020.7 mb 0.00 in0.0 mm 0.00 in0.0 mm 0.22 in5.6 mm
11:23 PM 34.8°F1.6°C 36.7°F2.6°C 79% Calm Calm -- 30.14 in1020.7 mb 0.00 in0.0 mm 0.00 in0.0 mm 0.22 in5.6 mm
11:25 PM 34.6°F1.4°C 36.9°F2.7°C 79% Calm Calm -- 30.14 in1020.7 mb 0.00 in0.0 mm 0.00 in0.0 mm 0.22 in5.6 mm
11:26 PM 34.6°F1.4°C 36.5°F2.5°C 79% Calm Calm -- 30.14 in1020.7 mb 0.00 in0.0 mm 0.00 in0.0 mm 0.22 in5.6 mm
11:28 PM 34.1°F1.2°C 36.9°F2.7°C 80% Calm Calm -- 30.14 in1020.7 mb 0.00 in0.0 mm 0.00 in0.0 mm 0.22 in5.6 mm
11:29 PM 34.1°F1.2°C 37.1°F2.8°C 80% 0.2 mph NNW0.3 kmh NNW 0.2 mph0.3 kmh 30.14 in1020.7 mb 0.00 in0.0 mm 0.00 in0.0 mm 0.22 in5.6 mm
11:31 PM 34.3°F1.3°C 37.1°F2.8°C 80% Calm Calm -- 30.13 in1020.3 mb 0.00 in0.0 mm 0.00 in0.0 mm 0.22 in5.6 mm
11:34 PM 34.5°F1.4°C 36.7°F2.6°C 80% 4.4 mph NNW7.1 kmh NNW 4.5 mph7.2 kmh 30.14 in1020.7 mb 0.00 in0.0 mm 0.00 in0.0 mm 0.22 in5.6 mm
11:35 PM 34.5°F1.4°C 36.9°F2.7°C 80% 2.3 mph NNW3.7 kmh NNW 2.7 mph4.3 kmh 30.14 in1020.7 mb 0.00 in0.0 mm 0.00 in0.0 mm 0.22 in5.6 mm
11:37 PM 34.6°F1.4°C 37.1°F2.8°C 80% 1.2 mph NW1.9 kmh NW 1.2 mph1.9 kmh 30.14 in1020.7 mb 0.00 in0.0 mm 0.00 in0.0 mm 0.22 in5.6 mm
11:38 PM 34.6°F1.4°C 37.0°F2.8°C 81% 3.3 mph NW5.3 kmh NW 3.3 mph5.3 kmh 30.14 in1020.7 mb 0.00 in0.0 mm 0.00 in0.0 mm 0.22 in5.6 mm
11:40 PM 34.9°F1.6°C 36.9°F2.7°C 81% 2.0 mph NNW3.2 kmh NNW 2.0 mph3.2 kmh 30.14 in1020.7 mb 0.00 in0.0 mm 0.00 in0.0 mm 0.22 in5.6 mm
11:43 PM 34.8°F1.6°C 37.0°F2.8°C 81% 5.3 mph NW8.5 kmh NW 5.3 mph8.5 kmh 30.14 in1020.7 mb 0.00 in0.0 mm 0.00 in0.0 mm 0.22 in5.6 mm
11:44 PM 34.8°F1.6°C 37.1°F2.8°C 81% 4.1 mph 6.6 kmh 4.1 mph6.6 kmh 30.14 in1020.7 mb 0.00 in0.0 mm 0.00 in0.0 mm 0.22 in5.6 mm
11:46 PM 34.7°F1.5°C 36.9°F2.7°C 81% 3.5 mph NNW5.6 kmh NNW 3.7 mph6.0 kmh 30.14 in1020.7 mb 0.00 in0.0 mm 0.00 in0.0 mm 0.22 in5.6 mm
11:47 PM 34.7°F1.5°C 37.0°F2.8°C 81% 2.3 mph W3.7 kmh W 2.3 mph3.7 kmh 30.14 in1020.7 mb 0.00 in0.0 mm 0.00 in0.0 mm 0.22 in5.6 mm
11:49 PM 34.7°F1.5°C 37.1°F2.8°C 81% Calm Calm -- 30.14 in1020.7 mb 0.00 in0.0 mm 0.00 in0.0 mm 0.22 in5.6 mm
11:50 PM 34.7°F1.5°C 36.9°F2.7°C 80% 0.9 mph NW1.4 kmh NW 0.9 mph1.4 kmh 30.14 in1020.7 mb 0.00 in0.0 mm 0.00 in0.0 mm 0.22 in5.6 mm
11:52 PM 34.8°F1.6°C 36.7°F2.6°C 80% 5.7 mph NNW9.2 kmh NNW 5.7 mph9.2 kmh 30.14 in1020.7 mb 0.00 in0.0 mm 0.00 in0.0 mm 0.22 in5.6 mm
11:53 PM 34.8°F1.6°C 36.7°F2.6°C 81% 5.8 mph NW9.3 kmh NW 5.8 mph9.3 kmh 30.14 in1020.7 mb 0.00 in0.0 mm 0.00 in0.0 mm 0.22 in5.6 mm
11:55 PM 34.8°F1.6°C 36.6°F2.6°C 81% 2.0 mph NNW3.2 kmh NNW 2.0 mph3.2 kmh 30.14 in1020.7 mb 0.00 in0.0 mm 0.00 in0.0 mm 0.22 in5.6 mm
11:58 PM 34.7°F1.5°C 36.8°F2.7°C 81% 3.2 mph NNW5.1 kmh NNW 3.3 mph5.3 kmh 30.13 in1020.3 mb 0.00 in0.0 mm 0.00 in0.0 mm 0.22 in5.6 mm
11:59 PM 34.7°F1.5°C 36.6°F2.6°C 81% 4.1 mph NNW6.6 kmh NNW 4.1 mph6.6 kmh 30.13 in1020.3 mb 0.00 in0.0 mm 0.00 in0.0 mm 0.22 in5.6 mm